<?xml version="1.0" encoding="UTF-8" standalone="no" ?>
<gpx xmlns="http://www.topografix.com/GPX/1/1" xmlns:xsi="http://www.w3.org/2001/XMLSchema-instance" xsi:schemaLocation="http://www.topografix.com/GPX/1/1 http://www.topografix.com/GPX/1/1/gpx.xsd" version="1.1" creator="VisuGPX - https://www.visugpx.com">
  <metadata>
    <name>Coueron_LacBeaulieuChabossiere_8-11km</name>
    <desc><![CDATA[gnerando idor:6470769_9134354_9679440]]></desc>
  </metadata>
  <wpt lat="47.2089" lon="-1.71941">
    <ele>11</ele>
    <name><![CDATA[0001563]]></name>
    <type><![CDATA[Point de départ]]></type>
  </wpt>
  <wpt lat="47.21443" lon="-1.73669">
    <ele>12.18</ele>
    <name><![CDATA[0001564]]></name>
    <desc><![CDATA[<p><br /><h3>Nom: Segment: 1</h3><br />Heure de départ: 03/17/2024 08:56<br/>Heure d'arrivée: 03/17/2024 11:14<br/>Distance: 9,4km (02:18)<br/>Temps déplacement: 01:57<br/>Vitesse moyenne: 4,07 km/h<br/>Vitesse moyenne mouv.: 4,68 km/h<br/>Vitesse Max.: 6,8 km/h<br/>Altitude minimale: 1 m<br/>Altitude maximale: 33 m<br/>Vitesse de montée: 193,2 m/h<br/>Vitesse de descente: -150,9 m/h<br/>Gain d'altitude: 143 m<br/>Perte d'altitude: -140 m<br/>Temps de montée: 00:44<br/>Temps de descente: 00:56<br/></p>]]></desc>
    <type><![CDATA[Point d'arrivée]]></type>
  </wpt>
  <wpt lat="47.21469" lon="-1.73649">
    <ele>14</ele>
    <name><![CDATA[0001565]]></name>
    <type><![CDATA[Point de départ]]></type>
  </wpt>
  <wpt lat="47.20891" lon="-1.71989">
    <ele>10.97</ele>
    <name><![CDATA[0001566]]></name>
    <desc><![CDATA[<p><br /><h3>Nom: Segment: 2</h3><br />Heure de départ: 03/17/2024 11:50<br/>Heure d'arrivée: 03/17/2024 12:10<br/>Distance: 1,8km (00:19)<br/>Temps déplacement: 00:19<br/>Vitesse moyenne: 5,39 km/h<br/>Vitesse moyenne mouv.: 5,42 km/h<br/>Vitesse Max.: 6,61 km/h<br/>Altitude minimale: 3 m<br/>Altitude maximale: 15 m<br/>Vitesse de montée: 138,9 m/h<br/>Vitesse de descente: -140,5 m/h<br/>Gain d'altitude: 16 m<br/>Perte d'altitude: -20 m<br/>Temps de montée: 00:07<br/>Temps de descente: 00:08<br/></p>]]></desc>
    <type><![CDATA[Point d'arrivée]]></type>
  </wpt>
  <trk>
    <name><![CDATA[Coueron_Chabossiere_8.4km-9134354]]></name>
    <extensions>
      <line xmlns="http://www.topografix.com/GPX/gpx_style/0/2">
        <color>0000FF</color>
        <width>4</width>
      </line>
    </extensions>
    <trkseg>
      <trkpt lat="47.2144" lon="-1.6828">
        <ele>25</ele>
        <time>2023-11-01T14:50:51Z</time>
      </trkpt>
      <trkpt lat="47.21437" lon="-1.68253">
        <ele>25</ele>
        <time>2023-11-01T14:51:16Z</time>
      </trkpt>
      <trkpt lat="47.21443" lon="-1.68228">
        <ele>25</ele>
        <time>2023-11-01T14:51:40Z</time>
      </trkpt>
      <trkpt lat="47.2146" lon="-1.6822">
        <ele>26</ele>
        <time>2023-11-01T14:52:04Z</time>
      </trkpt>
      <trkpt lat="47.21478" lon="-1.68214">
        <ele>26</ele>
        <time>2023-11-01T14:52:28Z</time>
      </trkpt>
      <trkpt lat="47.21495" lon="-1.68201">
        <ele>26</ele>
        <time>2023-11-01T14:52:54Z</time>
      </trkpt>
      <trkpt lat="47.21513" lon="-1.68195">
        <ele>27</ele>
        <time>2023-11-01T14:53:18Z</time>
      </trkpt>
      <trkpt lat="47.21528" lon="-1.6818">
        <ele>28</ele>
        <time>2023-11-01T14:53:43Z</time>
      </trkpt>
      <trkpt lat="47.2153" lon="-1.68152">
        <ele>28</ele>
        <time>2023-11-01T14:54:08Z</time>
      </trkpt>
      <trkpt lat="47.2153" lon="-1.68125">
        <ele>28</ele>
        <time>2023-11-01T14:54:33Z</time>
      </trkpt>
      <trkpt lat="47.21537" lon="-1.68099">
        <ele>29</ele>
        <time>2023-11-01T14:54:58Z</time>
      </trkpt>
      <trkpt lat="47.21541" lon="-1.68073">
        <ele>29</ele>
        <time>2023-11-01T14:55:22Z</time>
      </trkpt>
      <trkpt lat="47.21545" lon="-1.68046">
        <ele>29</ele>
        <time>2023-11-01T14:55:47Z</time>
      </trkpt>
      <trkpt lat="47.21551" lon="-1.6802">
        <ele>29</ele>
        <time>2023-11-01T14:56:12Z</time>
      </trkpt>
      <trkpt lat="47.21556" lon="-1.67993">
        <ele>29</ele>
        <time>2023-11-01T14:56:37Z</time>
      </trkpt>
      <trkpt lat="47.21563" lon="-1.67967">
        <ele>29</ele>
        <time>2023-11-01T14:57:03Z</time>
      </trkpt>
      <trkpt lat="47.2157" lon="-1.67941">
        <ele>30</ele>
        <time>2023-11-01T14:57:28Z</time>
      </trkpt>
      <trkpt lat="47.21588" lon="-1.67933">
        <ele>30</ele>
        <time>2023-11-01T14:57:53Z</time>
      </trkpt>
      <trkpt lat="47.21607" lon="-1.67938">
        <ele>30</ele>
        <time>2023-11-01T14:58:19Z</time>
      </trkpt>
      <trkpt lat="47.21626" lon="-1.67939">
        <ele>30</ele>
        <time>2023-11-01T14:58:44Z</time>
      </trkpt>
      <trkpt lat="47.21645" lon="-1.67944">
        <ele>30</ele>
        <time>2023-11-01T14:59:10Z</time>
      </trkpt>
      <trkpt lat="47.21663" lon="-1.67946">
        <ele>29</ele>
        <time>2023-11-01T14:59:34Z</time>
      </trkpt>
      <trkpt lat="47.2168" lon="-1.67955">
        <ele>29</ele>
        <time>2023-11-01T14:59:58Z</time>
      </trkpt>
      <trkpt lat="47.21699" lon="-1.67951">
        <ele>29</ele>
        <time>2023-11-01T15:00:24Z</time>
      </trkpt>
      <trkpt lat="47.21716" lon="-1.67942">
        <ele>29</ele>
        <time>2023-11-01T15:00:48Z</time>
      </trkpt>
      <trkpt lat="47.21721" lon="-1.67916">
        <ele>28</ele>
        <time>2023-11-01T15:01:13Z</time>
      </trkpt>
      <trkpt lat="47.2172" lon="-1.67889">
        <ele>28</ele>
        <time>2023-11-01T15:01:37Z</time>
      </trkpt>
      <trkpt lat="47.21725" lon="-1.67807">
        <ele>26</ele>
        <time>2023-11-01T15:02:52Z</time>
      </trkpt>
      <trkpt lat="47.21725" lon="-1.6778">
        <ele>25</ele>
        <time>2023-11-01T15:03:16Z</time>
      </trkpt>
      <trkpt lat="47.21727" lon="-1.67753">
        <ele>24</ele>
        <time>2023-11-01T15:03:41Z</time>
      </trkpt>
      <trkpt lat="47.21728" lon="-1.67726">
        <ele>24</ele>
        <time>2023-11-01T15:04:05Z</time>
      </trkpt>
      <trkpt lat="47.2173" lon="-1.67699">
        <ele>23</ele>
        <time>2023-11-01T15:04:30Z</time>
      </trkpt>
      <trkpt lat="47.21733" lon="-1.67671">
        <ele>22</ele>
        <time>2023-11-01T15:04:56Z</time>
      </trkpt>
      <trkpt lat="47.21734" lon="-1.67644">
        <ele>22</ele>
        <time>2023-11-01T15:05:20Z</time>
      </trkpt>
      <trkpt lat="47.21738" lon="-1.67618">
        <ele>21</ele>
        <time>2023-11-01T15:05:44Z</time>
      </trkpt>
      <trkpt lat="47.21752" lon="-1.67602">
        <ele>20</ele>
        <time>2023-11-01T15:06:08Z</time>
      </trkpt>
      <trkpt lat="47.2179" lon="-1.67606">
        <ele>20</ele>
        <time>2023-11-01T15:06:59Z</time>
      </trkpt>
      <trkpt lat="47.21801" lon="-1.67584">
        <ele>19</ele>
        <time>2023-11-01T15:07:24Z</time>
      </trkpt>
      <trkpt lat="47.2179" lon="-1.67563">
        <ele>19</ele>
        <time>2023-11-01T15:07:48Z</time>
      </trkpt>
      <trkpt lat="47.21772" lon="-1.67554">
        <ele>18</ele>
        <time>2023-11-01T15:08:13Z</time>
      </trkpt>
      <trkpt lat="47.21756" lon="-1.67542">
        <ele>18</ele>
        <time>2023-11-01T15:08:37Z</time>
      </trkpt>
      <trkpt lat="47.21737" lon="-1.67537">
        <ele>17</ele>
        <time>2023-11-01T15:09:03Z</time>
      </trkpt>
      <trkpt lat="47.21735" lon="-1.6751">
        <ele>16</ele>
        <time>2023-11-01T15:09:27Z</time>
      </trkpt>
      <trkpt lat="47.21732" lon="-1.67484">
        <ele>14</ele>
        <time>2023-11-01T15:09:51Z</time>
      </trkpt>
      <trkpt lat="47.21728" lon="-1.67458">
        <ele>13</ele>
        <time>2023-11-01T15:10:15Z</time>
      </trkpt>
      <trkpt lat="47.21718" lon="-1.67435">
        <ele>12</ele>
        <time>2023-11-01T15:10:40Z</time>
      </trkpt>
      <trkpt lat="47.21719" lon="-1.67408">
        <ele>12</ele>
        <time>2023-11-01T15:11:05Z</time>
      </trkpt>
      <trkpt lat="47.21736" lon="-1.67419">
        <ele>12</ele>
        <time>2023-11-01T15:11:29Z</time>
      </trkpt>
      <trkpt lat="47.2175" lon="-1.67435">
        <ele>13</ele>
        <time>2023-11-01T15:11:53Z</time>
      </trkpt>
      <trkpt lat="47.21768" lon="-1.67444">
        <ele>14</ele>
        <time>2023-11-01T15:12:18Z</time>
      </trkpt>
      <trkpt lat="47.21785" lon="-1.67456">
        <ele>16</ele>
        <time>2023-11-01T15:12:44Z</time>
      </trkpt>
      <trkpt lat="47.21802" lon="-1.67465">
        <ele>17</ele>
        <time>2023-11-01T15:13:08Z</time>
      </trkpt>
      <trkpt lat="47.21817" lon="-1.67481">
        <ele>17</ele>
        <time>2023-11-01T15:13:32Z</time>
      </trkpt>
      <trkpt lat="47.21836" lon="-1.67477">
        <ele>18</ele>
        <time>2023-11-01T15:13:58Z</time>
      </trkpt>
      <trkpt lat="47.21855" lon="-1.67478">
        <ele>19</ele>
        <time>2023-11-01T15:14:23Z</time>
      </trkpt>
      <trkpt lat="47.21872" lon="-1.67467">
        <ele>20</ele>
        <time>2023-11-01T15:14:48Z</time>
      </trkpt>
      <trkpt lat="47.21888" lon="-1.67454">
        <ele>21</ele>
        <time>2023-11-01T15:15:13Z</time>
      </trkpt>
      <trkpt lat="47.21906" lon="-1.67449">
        <ele>21</ele>
        <time>2023-11-01T15:15:37Z</time>
      </trkpt>
      <trkpt lat="47.21924" lon="-1.67443">
        <ele>22</ele>
        <time>2023-11-01T15:16:02Z</time>
      </trkpt>
      <trkpt lat="47.21942" lon="-1.67435">
        <ele>22</ele>
        <time>2023-11-01T15:16:27Z</time>
      </trkpt>
      <trkpt lat="47.2196" lon="-1.67429">
        <ele>22</ele>
        <time>2023-11-01T15:16:51Z</time>
      </trkpt>
      <trkpt lat="47.21979" lon="-1.67423">
        <ele>22</ele>
        <time>2023-11-01T15:17:17Z</time>
      </trkpt>
      <trkpt lat="47.21997" lon="-1.67422">
        <ele>22</ele>
        <time>2023-11-01T15:17:41Z</time>
      </trkpt>
      <trkpt lat="47.22016" lon="-1.67417">
        <ele>22</ele>
        <time>2023-11-01T15:18:07Z</time>
      </trkpt>
      <trkpt lat="47.22034" lon="-1.67414">
        <ele>21</ele>
        <time>2023-11-01T15:18:31Z</time>
      </trkpt>
      <trkpt lat="47.22052" lon="-1.67415">
        <ele>21</ele>
        <time>2023-11-01T15:18:55Z</time>
      </trkpt>
      <trkpt lat="47.2207" lon="-1.67409">
        <ele>21</ele>
        <time>2023-11-01T15:19:20Z</time>
      </trkpt>
      <trkpt lat="47.22088" lon="-1.67405">
        <ele>20</ele>
        <time>2023-11-01T15:19:44Z</time>
      </trkpt>
      <trkpt lat="47.22107" lon="-1.67408">
        <ele>20</ele>
        <time>2023-11-01T15:20:10Z</time>
      </trkpt>
      <trkpt lat="47.22125" lon="-1.67406">
        <ele>19</ele>
        <time>2023-11-01T15:20:34Z</time>
      </trkpt>
      <trkpt lat="47.22143" lon="-1.67413">
        <ele>19</ele>
        <time>2023-11-01T15:20:59Z</time>
      </trkpt>
      <trkpt lat="47.2216" lon="-1.67425">
        <ele>18</ele>
        <time>2023-11-01T15:21:24Z</time>
      </trkpt>
      <trkpt lat="47.22178" lon="-1.67433">
        <ele>18</ele>
        <time>2023-11-01T15:21:49Z</time>
      </trkpt>
      <trkpt lat="47.22196" lon="-1.67437">
        <ele>18</ele>
        <time>2023-11-01T15:22:13Z</time>
      </trkpt>
      <trkpt lat="47.22248" lon="-1.67469">
        <ele>19</ele>
        <time>2023-11-01T15:23:28Z</time>
      </trkpt>
      <trkpt lat="47.22266" lon="-1.67475">
        <ele>20</ele>
        <time>2023-11-01T15:23:53Z</time>
      </trkpt>
      <trkpt lat="47.22282" lon="-1.67462">
        <ele>21</ele>
        <time>2023-11-01T15:24:17Z</time>
      </trkpt>
      <trkpt lat="47.223" lon="-1.67454">
        <ele>22</ele>
        <time>2023-11-01T15:24:42Z</time>
      </trkpt>
      <trkpt lat="47.22318" lon="-1.67451">
        <ele>23</ele>
        <time>2023-11-01T15:25:07Z</time>
      </trkpt>
      <trkpt lat="47.22337" lon="-1.67451">
        <ele>24</ele>
        <time>2023-11-01T15:25:32Z</time>
      </trkpt>
      <trkpt lat="47.22355" lon="-1.67452">
        <ele>25</ele>
        <time>2023-11-01T15:25:56Z</time>
      </trkpt>
      <trkpt lat="47.22373" lon="-1.67441">
        <ele>25</ele>
        <time>2023-11-01T15:26:22Z</time>
      </trkpt>
      <trkpt lat="47.22391" lon="-1.6743">
        <ele>26</ele>
        <time>2023-11-01T15:26:48Z</time>
      </trkpt>
      <trkpt lat="47.22427" lon="-1.67416">
        <ele>27</ele>
        <time>2023-11-01T15:27:38Z</time>
      </trkpt>
      <trkpt lat="47.22446" lon="-1.6741">
        <ele>27</ele>
        <time>2023-11-01T15:28:04Z</time>
      </trkpt>
      <trkpt lat="47.22465" lon="-1.67406">
        <ele>28</ele>
        <time>2023-11-01T15:28:29Z</time>
      </trkpt>
      <trkpt lat="47.22483" lon="-1.67407">
        <ele>29</ele>
        <time>2023-11-01T15:28:53Z</time>
      </trkpt>
      <trkpt lat="47.22501" lon="-1.67406">
        <ele>30</ele>
        <time>2023-11-01T15:29:17Z</time>
      </trkpt>
      <trkpt lat="47.2252" lon="-1.67408">
        <ele>30</ele>
        <time>2023-11-01T15:29:43Z</time>
      </trkpt>
      <trkpt lat="47.22539" lon="-1.67404">
        <ele>30</ele>
        <time>2023-11-01T15:30:08Z</time>
      </trkpt>
      <trkpt lat="47.22557" lon="-1.674">
        <ele>31</ele>
        <time>2023-11-01T15:30:33Z</time>
      </trkpt>
      <trkpt lat="47.22576" lon="-1.67398">
        <ele>31</ele>
        <time>2023-11-01T15:30:58Z</time>
      </trkpt>
      <trkpt lat="47.22594" lon="-1.67395">
        <ele>32</ele>
        <time>2023-11-01T15:31:22Z</time>
      </trkpt>
      <trkpt lat="47.2263" lon="-1.67411">
        <ele>34</ele>
        <time>2023-11-01T15:32:12Z</time>
      </trkpt>
      <trkpt lat="47.22646" lon="-1.67423">
        <ele>35</ele>
        <time>2023-11-01T15:32:36Z</time>
      </trkpt>
      <trkpt lat="47.22665" lon="-1.67425">
        <ele>36</ele>
        <time>2023-11-01T15:33:02Z</time>
      </trkpt>
      <trkpt lat="47.22684" lon="-1.67431">
        <ele>37</ele>
        <time>2023-11-01T15:33:28Z</time>
      </trkpt>
      <trkpt lat="47.22702" lon="-1.67438">
        <ele>38</ele>
        <time>2023-11-01T15:33:53Z</time>
      </trkpt>
      <trkpt lat="47.22719" lon="-1.67449">
        <ele>39</ele>
        <time>2023-11-01T15:34:17Z</time>
      </trkpt>
      <trkpt lat="47.22734" lon="-1.67464">
        <ele>40</ele>
        <time>2023-11-01T15:34:42Z</time>
      </trkpt>
      <trkpt lat="47.22749" lon="-1.6748">
        <ele>41</ele>
        <time>2023-11-01T15:35:06Z</time>
      </trkpt>
      <trkpt lat="47.22777" lon="-1.67513">
        <ele>43</ele>
        <time>2023-11-01T15:35:54Z</time>
      </trkpt>
      <trkpt lat="47.22792" lon="-1.6753">
        <ele>44</ele>
        <time>2023-11-01T15:36:19Z</time>
      </trkpt>
      <trkpt lat="47.22802" lon="-1.67553">
        <ele>44</ele>
        <time>2023-11-01T15:36:44Z</time>
      </trkpt>
      <trkpt lat="47.22804" lon="-1.6758">
        <ele>44</ele>
        <time>2023-11-01T15:37:09Z</time>
      </trkpt>
      <trkpt lat="47.22807" lon="-1.67607">
        <ele>44</ele>
        <time>2023-11-01T15:37:34Z</time>
      </trkpt>
      <trkpt lat="47.22816" lon="-1.67632">
        <ele>45</ele>
        <time>2023-11-01T15:37:59Z</time>
      </trkpt>
      <trkpt lat="47.22826" lon="-1.67653">
        <ele>46</ele>
        <time>2023-11-01T15:38:22Z</time>
      </trkpt>
      <trkpt lat="47.2284" lon="-1.67672">
        <ele>47</ele>
        <time>2023-11-01T15:38:48Z</time>
      </trkpt>
      <trkpt lat="47.22854" lon="-1.67688">
        <ele>47</ele>
        <time>2023-11-01T15:39:12Z</time>
      </trkpt>
      <trkpt lat="47.22869" lon="-1.67704">
        <ele>48</ele>
        <time>2023-11-01T15:39:36Z</time>
      </trkpt>
      <trkpt lat="47.22883" lon="-1.67722">
        <ele>48</ele>
        <time>2023-11-01T15:40:01Z</time>
      </trkpt>
      <trkpt lat="47.22898" lon="-1.67739">
        <ele>48</ele>
        <time>2023-11-01T15:40:26Z</time>
      </trkpt>
      <trkpt lat="47.22914" lon="-1.67754">
        <ele>48</ele>
        <time>2023-11-01T15:40:52Z</time>
      </trkpt>
      <trkpt lat="47.22927" lon="-1.67773">
        <ele>48</ele>
        <time>2023-11-01T15:41:16Z</time>
      </trkpt>
      <trkpt lat="47.22939" lon="-1.67792">
        <ele>48</ele>
        <time>2023-11-01T15:41:40Z</time>
      </trkpt>
      <trkpt lat="47.22967" lon="-1.67828">
        <ele>49</ele>
        <time>2023-11-01T15:42:29Z</time>
      </trkpt>
      <trkpt lat="47.22981" lon="-1.67847">
        <ele>49</ele>
        <time>2023-11-01T15:42:55Z</time>
      </trkpt>
      <trkpt lat="47.22991" lon="-1.6787">
        <ele>48</ele>
        <time>2023-11-01T15:43:19Z</time>
      </trkpt>
      <trkpt lat="47.23011" lon="-1.67918">
        <ele>48</ele>
        <time>2023-11-01T15:44:10Z</time>
      </trkpt>
      <trkpt lat="47.23018" lon="-1.67945">
        <ele>49</ele>
        <time>2023-11-01T15:44:37Z</time>
      </trkpt>
      <trkpt lat="47.23022" lon="-1.67971">
        <ele>49</ele>
        <time>2023-11-01T15:45:01Z</time>
      </trkpt>
      <trkpt lat="47.23035" lon="-1.68025">
        <ele>50</ele>
        <time>2023-11-01T15:45:53Z</time>
      </trkpt>
      <trkpt lat="47.2304" lon="-1.68053">
        <ele>50</ele>
        <time>2023-11-01T15:46:19Z</time>
      </trkpt>
      <trkpt lat="47.23039" lon="-1.6808">
        <ele>50</ele>
        <time>2023-11-01T15:46:43Z</time>
      </trkpt>
      <trkpt lat="47.23044" lon="-1.68107">
        <ele>49</ele>
        <time>2023-11-01T15:47:09Z</time>
      </trkpt>
      <trkpt lat="47.23046" lon="-1.68134">
        <ele>48</ele>
        <time>2023-11-01T15:47:33Z</time>
      </trkpt>
      <trkpt lat="47.23048" lon="-1.68161">
        <ele>48</ele>
        <time>2023-11-01T15:47:58Z</time>
      </trkpt>
      <trkpt lat="47.23058" lon="-1.68184">
        <ele>48</ele>
        <time>2023-11-01T15:48:23Z</time>
      </trkpt>
      <trkpt lat="47.23069" lon="-1.68206">
        <ele>48</ele>
        <time>2023-11-01T15:48:47Z</time>
      </trkpt>
      <trkpt lat="47.23078" lon="-1.68229">
        <ele>48</ele>
        <time>2023-11-01T15:49:12Z</time>
      </trkpt>
      <trkpt lat="47.23085" lon="-1.68254">
        <ele>48</ele>
        <time>2023-11-01T15:49:36Z</time>
      </trkpt>
      <trkpt lat="47.23093" lon="-1.68278">
        <ele>48</ele>
        <time>2023-11-01T15:50:00Z</time>
      </trkpt>
      <trkpt lat="47.23095" lon="-1.68305">
        <ele>47</ele>
        <time>2023-11-01T15:50:25Z</time>
      </trkpt>
      <trkpt lat="47.23099" lon="-1.68331">
        <ele>47</ele>
        <time>2023-11-01T15:50:49Z</time>
      </trkpt>
      <trkpt lat="47.23105" lon="-1.68357">
        <ele>47</ele>
        <time>2023-11-01T15:51:14Z</time>
      </trkpt>
      <trkpt lat="47.23106" lon="-1.68386">
        <ele>47</ele>
        <time>2023-11-01T15:51:40Z</time>
      </trkpt>
      <trkpt lat="47.2311" lon="-1.68442">
        <ele>47</ele>
        <time>2023-11-01T15:52:31Z</time>
      </trkpt>
      <trkpt lat="47.23112" lon="-1.68469">
        <ele>47</ele>
        <time>2023-11-01T15:52:56Z</time>
      </trkpt>
      <trkpt lat="47.23111" lon="-1.68497">
        <ele>47</ele>
        <time>2023-11-01T15:53:21Z</time>
      </trkpt>
      <trkpt lat="47.23112" lon="-1.68524">
        <ele>47</ele>
        <time>2023-11-01T15:53:46Z</time>
      </trkpt>
      <trkpt lat="47.23117" lon="-1.68551">
        <ele>47</ele>
        <time>2023-11-01T15:54:11Z</time>
      </trkpt>
      <trkpt lat="47.23127" lon="-1.68574">
        <ele>47</ele>
        <time>2023-11-01T15:54:36Z</time>
      </trkpt>
      <trkpt lat="47.23141" lon="-1.68594">
        <ele>47</ele>
        <time>2023-11-01T15:55:02Z</time>
      </trkpt>
      <trkpt lat="47.23153" lon="-1.68616">
        <ele>47</ele>
        <time>2023-11-01T15:55:27Z</time>
      </trkpt>
      <trkpt lat="47.23166" lon="-1.68635">
        <ele>47</ele>
        <time>2023-11-01T15:55:52Z</time>
      </trkpt>
      <trkpt lat="47.23176" lon="-1.68659">
        <ele>47</ele>
        <time>2023-11-01T15:56:17Z</time>
      </trkpt>
      <trkpt lat="47.23161" lon="-1.68677">
        <ele>47</ele>
        <time>2023-11-01T15:56:43Z</time>
      </trkpt>
      <trkpt lat="47.23143" lon="-1.68684">
        <ele>46</ele>
        <time>2023-11-01T15:57:08Z</time>
      </trkpt>
      <trkpt lat="47.23126" lon="-1.68695">
        <ele>45</ele>
        <time>2023-11-01T15:57:33Z</time>
      </trkpt>
      <trkpt lat="47.23108" lon="-1.68704">
        <ele>44</ele>
        <time>2023-11-01T15:57:58Z</time>
      </trkpt>
      <trkpt lat="47.23088" lon="-1.68712">
        <ele>44</ele>
        <time>2023-11-01T15:58:26Z</time>
      </trkpt>
      <trkpt lat="47.23071" lon="-1.68718">
        <ele>43</ele>
        <time>2023-11-01T15:58:49Z</time>
      </trkpt>
      <trkpt lat="47.23035" lon="-1.68734">
        <ele>42</ele>
        <time>2023-11-01T15:59:39Z</time>
      </trkpt>
      <trkpt lat="47.23018" lon="-1.68742">
        <ele>42</ele>
        <time>2023-11-01T16:00:03Z</time>
      </trkpt>
      <trkpt lat="47.2302" lon="-1.6877">
        <ele>41</ele>
        <time>2023-11-01T16:00:29Z</time>
      </trkpt>
      <trkpt lat="47.23034" lon="-1.68787">
        <ele>41</ele>
        <time>2023-11-01T16:00:53Z</time>
      </trkpt>
      <trkpt lat="47.23046" lon="-1.68809">
        <ele>41</ele>
        <time>2023-11-01T16:01:18Z</time>
      </trkpt>
      <trkpt lat="47.23055" lon="-1.68833">
        <ele>41</ele>
        <time>2023-11-01T16:01:43Z</time>
      </trkpt>
      <trkpt lat="47.23058" lon="-1.68861">
        <ele>41</ele>
        <time>2023-11-01T16:02:09Z</time>
      </trkpt>
      <trkpt lat="47.23064" lon="-1.68887">
        <ele>41</ele>
        <time>2023-11-01T16:02:34Z</time>
      </trkpt>
      <trkpt lat="47.23068" lon="-1.68914">
        <ele>41</ele>
        <time>2023-11-01T16:02:59Z</time>
      </trkpt>
      <trkpt lat="47.23073" lon="-1.68939">
        <ele>41</ele>
        <time>2023-11-01T16:03:23Z</time>
      </trkpt>
      <trkpt lat="47.2308" lon="-1.68965">
        <ele>40</ele>
        <time>2023-11-01T16:03:48Z</time>
      </trkpt>
      <trkpt lat="47.23086" lon="-1.68992">
        <ele>40</ele>
        <time>2023-11-01T16:04:14Z</time>
      </trkpt>
      <trkpt lat="47.23096" lon="-1.69015">
        <ele>40</ele>
        <time>2023-11-01T16:04:38Z</time>
      </trkpt>
      <trkpt lat="47.23104" lon="-1.6904">
        <ele>39</ele>
        <time>2023-11-01T16:05:03Z</time>
      </trkpt>
      <trkpt lat="47.2311" lon="-1.69066">
        <ele>39</ele>
        <time>2023-11-01T16:05:28Z</time>
      </trkpt>
      <trkpt lat="47.23122" lon="-1.69087">
        <ele>38</ele>
        <time>2023-11-01T16:05:53Z</time>
      </trkpt>
      <trkpt lat="47.23133" lon="-1.6911">
        <ele>38</ele>
        <time>2023-11-01T16:06:19Z</time>
      </trkpt>
      <trkpt lat="47.23124" lon="-1.69133">
        <ele>37</ele>
        <time>2023-11-01T16:06:43Z</time>
      </trkpt>
      <trkpt lat="47.2311" lon="-1.69151">
        <ele>37</ele>
        <time>2023-11-01T16:07:08Z</time>
      </trkpt>
      <trkpt lat="47.23096" lon="-1.69169">
        <ele>36</ele>
        <time>2023-11-01T16:07:32Z</time>
      </trkpt>
      <trkpt lat="47.23082" lon="-1.69187">
        <ele>36</ele>
        <time>2023-11-01T16:07:57Z</time>
      </trkpt>
      <trkpt lat="47.23068" lon="-1.69204">
        <ele>36</ele>
        <time>2023-11-01T16:08:21Z</time>
      </trkpt>
      <trkpt lat="47.23045" lon="-1.69247">
        <ele>35</ele>
        <time>2023-11-01T16:09:11Z</time>
      </trkpt>
      <trkpt lat="47.23034" lon="-1.69269">
        <ele>35</ele>
        <time>2023-11-01T16:09:36Z</time>
      </trkpt>
      <trkpt lat="47.23028" lon="-1.69295">
        <ele>35</ele>
        <time>2023-11-01T16:10:01Z</time>
      </trkpt>
      <trkpt lat="47.23024" lon="-1.69322">
        <ele>35</ele>
        <time>2023-11-01T16:10:26Z</time>
      </trkpt>
      <trkpt lat="47.23021" lon="-1.6935">
        <ele>35</ele>
        <time>2023-11-01T16:10:51Z</time>
      </trkpt>
      <trkpt lat="47.23013" lon="-1.69373">
        <ele>35</ele>
        <time>2023-11-01T16:11:15Z</time>
      </trkpt>
      <trkpt lat="47.23002" lon="-1.69397">
        <ele>34</ele>
        <time>2023-11-01T16:11:41Z</time>
      </trkpt>
      <trkpt lat="47.22992" lon="-1.69419">
        <ele>34</ele>
        <time>2023-11-01T16:12:05Z</time>
      </trkpt>
      <trkpt lat="47.22944" lon="-1.69467">
        <ele>30</ele>
        <time>2023-11-01T16:13:22Z</time>
      </trkpt>
      <trkpt lat="47.22929" lon="-1.69484">
        <ele>29</ele>
        <time>2023-11-01T16:13:48Z</time>
      </trkpt>
      <trkpt lat="47.229" lon="-1.69519">
        <ele>26</ele>
        <time>2023-11-01T16:14:38Z</time>
      </trkpt>
      <trkpt lat="47.22885" lon="-1.69536">
        <ele>25</ele>
        <time>2023-11-01T16:15:03Z</time>
      </trkpt>
      <trkpt lat="47.22871" lon="-1.69553">
        <ele>23</ele>
        <time>2023-11-01T16:15:27Z</time>
      </trkpt>
      <trkpt lat="47.22856" lon="-1.69569">
        <ele>22</ele>
        <time>2023-11-01T16:15:52Z</time>
      </trkpt>
      <trkpt lat="47.22842" lon="-1.69587">
        <ele>20</ele>
        <time>2023-11-01T16:16:17Z</time>
      </trkpt>
      <trkpt lat="47.22828" lon="-1.69606">
        <ele>18</ele>
        <time>2023-11-01T16:16:42Z</time>
      </trkpt>
      <trkpt lat="47.22814" lon="-1.69623">
        <ele>17</ele>
        <time>2023-11-01T16:17:06Z</time>
      </trkpt>
      <trkpt lat="47.22815" lon="-1.6965">
        <ele>15</ele>
        <time>2023-11-01T16:17:31Z</time>
      </trkpt>
      <trkpt lat="47.22822" lon="-1.69676">
        <ele>14</ele>
        <time>2023-11-01T16:17:56Z</time>
      </trkpt>
      <trkpt lat="47.22828" lon="-1.69702">
        <ele>14</ele>
        <time>2023-11-01T16:18:21Z</time>
      </trkpt>
      <trkpt lat="47.22839" lon="-1.69724">
        <ele>15</ele>
        <time>2023-11-01T16:18:46Z</time>
      </trkpt>
      <trkpt lat="47.22849" lon="-1.69748">
        <ele>15</ele>
        <time>2023-11-01T16:19:11Z</time>
      </trkpt>
      <trkpt lat="47.22864" lon="-1.69765">
        <ele>17</ele>
        <time>2023-11-01T16:19:37Z</time>
      </trkpt>
      <trkpt lat="47.2288" lon="-1.69777">
        <ele>18</ele>
        <time>2023-11-01T16:20:01Z</time>
      </trkpt>
      <trkpt lat="47.22852" lon="-1.69801">
        <ele>15</ele>
        <time>2023-11-01T16:20:44Z</time>
      </trkpt>
      <trkpt lat="47.22825" lon="-1.69827">
        <ele>13</ele>
        <time>2023-11-01T16:21:27Z</time>
      </trkpt>
      <trkpt lat="47.22793" lon="-1.69843">
        <ele>12</ele>
        <time>2023-11-01T16:22:12Z</time>
      </trkpt>
      <trkpt lat="47.22761" lon="-1.69868">
        <ele>10</ele>
        <time>2023-11-01T16:23:00Z</time>
      </trkpt>
      <trkpt lat="47.22743" lon="-1.69899">
        <ele>10</ele>
        <time>2023-11-01T16:23:37Z</time>
      </trkpt>
      <trkpt lat="47.22715" lon="-1.69916">
        <ele>9</ele>
        <time>2023-11-01T16:24:18Z</time>
      </trkpt>
      <trkpt lat="47.22681" lon="-1.6992">
        <ele>8</ele>
        <time>2023-11-01T16:25:03Z</time>
      </trkpt>
      <trkpt lat="47.2268" lon="-1.69968">
        <ele>7</ele>
        <time>2023-11-01T16:25:47Z</time>
      </trkpt>
      <trkpt lat="47.22677" lon="-1.70024">
        <ele>7</ele>
        <time>2023-11-01T16:26:38Z</time>
      </trkpt>
      <trkpt lat="47.22649" lon="-1.69984">
        <ele>7</ele>
        <time>2023-11-01T16:27:30Z</time>
      </trkpt>
      <trkpt lat="47.22651" lon="-1.69988">
        <ele>7</ele>
        <time>2023-11-01T16:27:34Z</time>
      </trkpt>
      <trkpt lat="47.22648" lon="-1.70004">
        <ele>7</ele>
        <time>2023-11-01T16:27:49Z</time>
      </trkpt>
      <trkpt lat="47.22661" lon="-1.70028">
        <ele>7</ele>
        <time>2023-11-01T16:28:17Z</time>
      </trkpt>
      <trkpt lat="47.22671" lon="-1.70063">
        <ele>6</ele>
        <time>2023-11-01T16:28:51Z</time>
      </trkpt>
      <trkpt lat="47.22675" lon="-1.70102">
        <ele>7</ele>
        <time>2023-11-01T16:29:27Z</time>
      </trkpt>
      <trkpt lat="47.22682" lon="-1.70159">
        <ele>7</ele>
        <time>2023-11-01T16:30:20Z</time>
      </trkpt>
      <trkpt lat="47.22688" lon="-1.70217">
        <ele>7</ele>
        <time>2023-11-01T16:31:13Z</time>
      </trkpt>
      <trkpt lat="47.22688" lon="-1.70255">
        <ele>7</ele>
        <time>2023-11-01T16:31:47Z</time>
      </trkpt>
      <trkpt lat="47.22693" lon="-1.70289">
        <ele>6</ele>
        <time>2023-11-01T16:32:19Z</time>
      </trkpt>
      <trkpt lat="47.22667" lon="-1.70301">
        <ele>5</ele>
        <time>2023-11-01T16:32:55Z</time>
      </trkpt>
      <trkpt lat="47.22649" lon="-1.70303">
        <ele>6</ele>
        <time>2023-11-01T16:33:19Z</time>
      </trkpt>
      <trkpt lat="47.22636" lon="-1.70285">
        <ele>6</ele>
        <time>2023-11-01T16:33:43Z</time>
      </trkpt>
      <trkpt lat="47.22619" lon="-1.70296">
        <ele>6</ele>
        <time>2023-11-01T16:34:08Z</time>
      </trkpt>
      <trkpt lat="47.226" lon="-1.70295">
        <ele>6</ele>
        <time>2023-11-01T16:34:33Z</time>
      </trkpt>
      <trkpt lat="47.22581" lon="-1.70293">
        <ele>7</ele>
        <time>2023-11-01T16:34:59Z</time>
      </trkpt>
      <trkpt lat="47.22563" lon="-1.70287">
        <ele>7</ele>
        <time>2023-11-01T16:35:23Z</time>
      </trkpt>
      <trkpt lat="47.22547" lon="-1.70274">
        <ele>6</ele>
        <time>2023-11-01T16:35:48Z</time>
      </trkpt>
      <trkpt lat="47.2253" lon="-1.70263">
        <ele>6</ele>
        <time>2023-11-01T16:36:12Z</time>
      </trkpt>
      <trkpt lat="47.22512" lon="-1.70256">
        <ele>6</ele>
        <time>2023-11-01T16:36:37Z</time>
      </trkpt>
      <trkpt lat="47.22497" lon="-1.7024">
        <ele>6</ele>
        <time>2023-11-01T16:37:02Z</time>
      </trkpt>
      <trkpt lat="47.22483" lon="-1.70222">
        <ele>7</ele>
        <time>2023-11-01T16:37:27Z</time>
      </trkpt>
      <trkpt lat="47.2247" lon="-1.70203">
        <ele>7</ele>
        <time>2023-11-01T16:37:51Z</time>
      </trkpt>
      <trkpt lat="47.22457" lon="-1.70184">
        <ele>8</ele>
        <time>2023-11-01T16:38:16Z</time>
      </trkpt>
      <trkpt lat="47.22446" lon="-1.70162">
        <ele>8</ele>
        <time>2023-11-01T16:38:40Z</time>
      </trkpt>
      <trkpt lat="47.22433" lon="-1.70142">
        <ele>7</ele>
        <time>2023-11-01T16:39:06Z</time>
      </trkpt>
      <trkpt lat="47.22418" lon="-1.70125">
        <ele>7</ele>
        <time>2023-11-01T16:39:31Z</time>
      </trkpt>
      <trkpt lat="47.224" lon="-1.70115">
        <ele>7</ele>
        <time>2023-11-01T16:39:56Z</time>
      </trkpt>
      <trkpt lat="47.22384" lon="-1.701">
        <ele>6</ele>
        <time>2023-11-01T16:40:22Z</time>
      </trkpt>
      <trkpt lat="47.22368" lon="-1.70087">
        <ele>6</ele>
        <time>2023-11-01T16:40:46Z</time>
      </trkpt>
      <trkpt lat="47.22351" lon="-1.70076">
        <ele>6</ele>
        <time>2023-11-01T16:41:11Z</time>
      </trkpt>
      <trkpt lat="47.22332" lon="-1.70069">
        <ele>7</ele>
        <time>2023-11-01T16:41:37Z</time>
      </trkpt>
      <trkpt lat="47.22314" lon="-1.70058">
        <ele>7</ele>
        <time>2023-11-01T16:42:03Z</time>
      </trkpt>
      <trkpt lat="47.22298" lon="-1.70041">
        <ele>6</ele>
        <time>2023-11-01T16:42:29Z</time>
      </trkpt>
      <trkpt lat="47.22286" lon="-1.70019">
        <ele>6</ele>
        <time>2023-11-01T16:42:55Z</time>
      </trkpt>
      <trkpt lat="47.22275" lon="-1.69997">
        <ele>6</ele>
        <time>2023-11-01T16:43:20Z</time>
      </trkpt>
      <trkpt lat="47.2226" lon="-1.69982">
        <ele>6</ele>
        <time>2023-11-01T16:43:44Z</time>
      </trkpt>
      <trkpt lat="47.22245" lon="-1.69967">
        <ele>6</ele>
        <time>2023-11-01T16:44:08Z</time>
      </trkpt>
      <trkpt lat="47.22228" lon="-1.69955">
        <ele>5</ele>
        <time>2023-11-01T16:44:33Z</time>
      </trkpt>
      <trkpt lat="47.22212" lon="-1.69943">
        <ele>5</ele>
        <time>2023-11-01T16:44:57Z</time>
      </trkpt>
      <trkpt lat="47.22193" lon="-1.6994">
        <ele>5</ele>
        <time>2023-11-01T16:45:23Z</time>
      </trkpt>
      <trkpt lat="47.22174" lon="-1.69942">
        <ele>5</ele>
        <time>2023-11-01T16:45:48Z</time>
      </trkpt>
      <trkpt lat="47.22156" lon="-1.69949">
        <ele>5</ele>
        <time>2023-11-01T16:46:13Z</time>
      </trkpt>
      <trkpt lat="47.22141" lon="-1.69969">
        <ele>5</ele>
        <time>2023-11-01T16:46:40Z</time>
      </trkpt>
      <trkpt lat="47.22103" lon="-1.70029">
        <ele>4</ele>
        <time>2023-11-01T16:47:54Z</time>
      </trkpt>
      <trkpt lat="47.22088" lon="-1.70045">
        <ele>3</ele>
        <time>2023-11-01T16:48:19Z</time>
      </trkpt>
      <trkpt lat="47.22079" lon="-1.70068">
        <ele>3</ele>
        <time>2023-11-01T16:48:43Z</time>
      </trkpt>
      <trkpt lat="47.22068" lon="-1.70091">
        <ele>3</ele>
        <time>2023-11-01T16:49:09Z</time>
      </trkpt>
      <trkpt lat="47.22062" lon="-1.70116">
        <ele>3</ele>
        <time>2023-11-01T16:49:33Z</time>
      </trkpt>
      <trkpt lat="47.22044" lon="-1.70119">
        <ele>3</ele>
        <time>2023-11-01T16:49:57Z</time>
      </trkpt>
      <trkpt lat="47.22034" lon="-1.70094">
        <ele>4</ele>
        <time>2023-11-01T16:50:23Z</time>
      </trkpt>
      <trkpt lat="47.22027" lon="-1.70069">
        <ele>5</ele>
        <time>2023-11-01T16:50:48Z</time>
      </trkpt>
      <trkpt lat="47.22017" lon="-1.70044">
        <ele>5</ele>
        <time>2023-11-01T16:51:14Z</time>
      </trkpt>
      <trkpt lat="47.22007" lon="-1.70021">
        <ele>6</ele>
        <time>2023-11-01T16:51:39Z</time>
      </trkpt>
      <trkpt lat="47.22003" lon="-1.69995">
        <ele>7</ele>
        <time>2023-11-01T16:52:03Z</time>
      </trkpt>
      <trkpt lat="47.22002" lon="-1.69967">
        <ele>9</ele>
        <time>2023-11-01T16:52:28Z</time>
      </trkpt>
      <trkpt lat="47.2201" lon="-1.69915">
        <ele>12</ele>
        <time>2023-11-01T16:53:17Z</time>
      </trkpt>
      <trkpt lat="47.22016" lon="-1.69889">
        <ele>14</ele>
        <time>2023-11-01T16:53:41Z</time>
      </trkpt>
      <trkpt lat="47.22034" lon="-1.69841">
        <ele>17</ele>
        <time>2023-11-01T16:54:31Z</time>
      </trkpt>
      <trkpt lat="47.22042" lon="-1.69816">
        <ele>17</ele>
        <time>2023-11-01T16:54:56Z</time>
      </trkpt>
      <trkpt lat="47.22053" lon="-1.69793">
        <ele>17</ele>
        <time>2023-11-01T16:55:22Z</time>
      </trkpt>
      <trkpt lat="47.2206" lon="-1.69768">
        <ele>17</ele>
        <time>2023-11-01T16:55:46Z</time>
      </trkpt>
      <trkpt lat="47.22042" lon="-1.69772">
        <ele>19</ele>
        <time>2023-11-01T16:56:11Z</time>
      </trkpt>
      <trkpt lat="47.22025" lon="-1.69783">
        <ele>20</ele>
        <time>2023-11-01T16:56:35Z</time>
      </trkpt>
      <trkpt lat="47.22007" lon="-1.69792">
        <ele>22</ele>
        <time>2023-11-01T16:57:01Z</time>
      </trkpt>
      <trkpt lat="47.21989" lon="-1.698">
        <ele>23</ele>
        <time>2023-11-01T16:57:26Z</time>
      </trkpt>
      <trkpt lat="47.21972" lon="-1.69812">
        <ele>23</ele>
        <time>2023-11-01T16:57:51Z</time>
      </trkpt>
      <trkpt lat="47.21955" lon="-1.69823">
        <ele>24</ele>
        <time>2023-11-01T16:58:16Z</time>
      </trkpt>
      <trkpt lat="47.21922" lon="-1.69852">
        <ele>24</ele>
        <time>2023-11-01T16:59:07Z</time>
      </trkpt>
      <trkpt lat="47.21906" lon="-1.69866">
        <ele>23</ele>
        <time>2023-11-01T16:59:32Z</time>
      </trkpt>
      <trkpt lat="47.21893" lon="-1.69885">
        <ele>23</ele>
        <time>2023-11-01T16:59:56Z</time>
      </trkpt>
      <trkpt lat="47.21879" lon="-1.69905">
        <ele>23</ele>
        <time>2023-11-01T17:00:22Z</time>
      </trkpt>
      <trkpt lat="47.21866" lon="-1.69925">
        <ele>22</ele>
        <time>2023-11-01T17:00:47Z</time>
      </trkpt>
      <trkpt lat="47.21851" lon="-1.69941">
        <ele>22</ele>
        <time>2023-11-01T17:01:12Z</time>
      </trkpt>
      <trkpt lat="47.21838" lon="-1.69961">
        <ele>22</ele>
        <time>2023-11-01T17:01:37Z</time>
      </trkpt>
      <trkpt lat="47.21824" lon="-1.69978">
        <ele>22</ele>
        <time>2023-11-01T17:02:01Z</time>
      </trkpt>
      <trkpt lat="47.21805" lon="-1.69974">
        <ele>23</ele>
        <time>2023-11-01T17:02:27Z</time>
      </trkpt>
      <trkpt lat="47.21799" lon="-1.69948">
        <ele>24</ele>
        <time>2023-11-01T17:02:52Z</time>
      </trkpt>
      <trkpt lat="47.21791" lon="-1.69924">
        <ele>26</ele>
        <time>2023-11-01T17:03:16Z</time>
      </trkpt>
      <trkpt lat="47.21785" lon="-1.69898">
        <ele>27</ele>
        <time>2023-11-01T17:03:41Z</time>
      </trkpt>
      <trkpt lat="47.2177" lon="-1.6988">
        <ele>27</ele>
        <time>2023-11-01T17:04:07Z</time>
      </trkpt>
      <trkpt lat="47.21763" lon="-1.698">
        <ele>30</ele>
        <time>2023-11-01T17:05:20Z</time>
      </trkpt>
      <trkpt lat="47.21761" lon="-1.69773">
        <ele>30</ele>
        <time>2023-11-01T17:05:45Z</time>
      </trkpt>
      <trkpt lat="47.21759" lon="-1.69746">
        <ele>31</ele>
        <time>2023-11-01T17:06:09Z</time>
      </trkpt>
      <trkpt lat="47.21757" lon="-1.69691">
        <ele>31</ele>
        <time>2023-11-01T17:06:59Z</time>
      </trkpt>
      <trkpt lat="47.21756" lon="-1.69662">
        <ele>31</ele>
        <time>2023-11-01T17:07:25Z</time>
      </trkpt>
      <trkpt lat="47.21768" lon="-1.69643">
        <ele>32</ele>
        <time>2023-11-01T17:07:49Z</time>
      </trkpt>
      <trkpt lat="47.21767" lon="-1.69616">
        <ele>32</ele>
        <time>2023-11-01T17:08:13Z</time>
      </trkpt>
      <trkpt lat="47.21761" lon="-1.69589">
        <ele>33</ele>
        <time>2023-11-01T17:08:39Z</time>
      </trkpt>
      <trkpt lat="47.21752" lon="-1.69534">
        <ele>31</ele>
        <time>2023-11-01T17:09:31Z</time>
      </trkpt>
      <trkpt lat="47.2175" lon="-1.69506">
        <ele>29</ele>
        <time>2023-11-01T17:09:56Z</time>
      </trkpt>
      <trkpt lat="47.21744" lon="-1.69481">
        <ele>28</ele>
        <time>2023-11-01T17:10:20Z</time>
      </trkpt>
      <trkpt lat="47.2174" lon="-1.69454">
        <ele>27</ele>
        <time>2023-11-01T17:10:45Z</time>
      </trkpt>
      <trkpt lat="47.21735" lon="-1.69427">
        <ele>27</ele>
        <time>2023-11-01T17:11:10Z</time>
      </trkpt>
      <trkpt lat="47.2173" lon="-1.694">
        <ele>26</ele>
        <time>2023-11-01T17:11:36Z</time>
      </trkpt>
      <trkpt lat="47.21727" lon="-1.69374">
        <ele>26</ele>
        <time>2023-11-01T17:12:00Z</time>
      </trkpt>
      <trkpt lat="47.21722" lon="-1.69348">
        <ele>26</ele>
        <time>2023-11-01T17:12:24Z</time>
      </trkpt>
      <trkpt lat="47.21715" lon="-1.69323">
        <ele>26</ele>
        <time>2023-11-01T17:12:49Z</time>
      </trkpt>
      <trkpt lat="47.2171" lon="-1.69297">
        <ele>26</ele>
        <time>2023-11-01T17:13:13Z</time>
      </trkpt>
      <trkpt lat="47.21704" lon="-1.69271">
        <ele>26</ele>
        <time>2023-11-01T17:13:38Z</time>
      </trkpt>
      <trkpt lat="47.21696" lon="-1.69247">
        <ele>27</ele>
        <time>2023-11-01T17:14:02Z</time>
      </trkpt>
      <trkpt lat="47.21679" lon="-1.69256">
        <ele>27</ele>
        <time>2023-11-01T17:14:26Z</time>
      </trkpt>
      <trkpt lat="47.21663" lon="-1.69272">
        <ele>27</ele>
        <time>2023-11-01T17:14:52Z</time>
      </trkpt>
      <trkpt lat="47.21647" lon="-1.69284">
        <ele>26</ele>
        <time>2023-11-01T17:15:16Z</time>
      </trkpt>
      <trkpt lat="47.21629" lon="-1.69287">
        <ele>26</ele>
        <time>2023-11-01T17:15:40Z</time>
      </trkpt>
      <trkpt lat="47.2162" lon="-1.69263">
        <ele>26</ele>
        <time>2023-11-01T17:16:05Z</time>
      </trkpt>
      <trkpt lat="47.21612" lon="-1.69239">
        <ele>26</ele>
        <time>2023-11-01T17:16:29Z</time>
      </trkpt>
      <trkpt lat="47.21606" lon="-1.69212">
        <ele>26</ele>
        <time>2023-11-01T17:16:55Z</time>
      </trkpt>
      <trkpt lat="47.21601" lon="-1.69186">
        <ele>27</ele>
        <time>2023-11-01T17:17:20Z</time>
      </trkpt>
      <trkpt lat="47.21585" lon="-1.69135">
        <ele>28</ele>
        <time>2023-11-01T17:18:11Z</time>
      </trkpt>
      <trkpt lat="47.21578" lon="-1.69111">
        <ele>28</ele>
        <time>2023-11-01T17:18:34Z</time>
      </trkpt>
      <trkpt lat="47.21571" lon="-1.69084">
        <ele>29</ele>
        <time>2023-11-01T17:19:01Z</time>
      </trkpt>
      <trkpt lat="47.21563" lon="-1.69059">
        <ele>30</ele>
        <time>2023-11-01T17:19:26Z</time>
      </trkpt>
      <trkpt lat="47.21557" lon="-1.69033">
        <ele>32</ele>
        <time>2023-11-01T17:19:50Z</time>
      </trkpt>
      <trkpt lat="47.2155" lon="-1.69008">
        <ele>33</ele>
        <time>2023-11-01T17:20:15Z</time>
      </trkpt>
      <trkpt lat="47.21538" lon="-1.68988">
        <ele>33</ele>
        <time>2023-11-01T17:20:39Z</time>
      </trkpt>
      <trkpt lat="47.21524" lon="-1.68968">
        <ele>33</ele>
        <time>2023-11-01T17:21:05Z</time>
      </trkpt>
      <trkpt lat="47.21507" lon="-1.68956">
        <ele>34</ele>
        <time>2023-11-01T17:21:30Z</time>
      </trkpt>
      <trkpt lat="47.21488" lon="-1.68953">
        <ele>33</ele>
        <time>2023-11-01T17:21:56Z</time>
      </trkpt>
      <trkpt lat="47.21469" lon="-1.68952">
        <ele>31</ele>
        <time>2023-11-01T17:22:21Z</time>
      </trkpt>
      <trkpt lat="47.2145" lon="-1.68953">
        <ele>30</ele>
        <time>2023-11-01T17:22:47Z</time>
      </trkpt>
      <trkpt lat="47.21432" lon="-1.68948">
        <ele>28</ele>
        <time>2023-11-01T17:23:11Z</time>
      </trkpt>
      <trkpt lat="47.21414" lon="-1.68942">
        <ele>26</ele>
        <time>2023-11-01T17:23:36Z</time>
      </trkpt>
      <trkpt lat="47.214" lon="-1.68959">
        <ele>25</ele>
        <time>2023-11-01T17:24:00Z</time>
      </trkpt>
      <trkpt lat="47.21386" lon="-1.68976">
        <ele>24</ele>
        <time>2023-11-01T17:24:24Z</time>
      </trkpt>
      <trkpt lat="47.21371" lon="-1.68992">
        <ele>23</ele>
        <time>2023-11-01T17:24:49Z</time>
      </trkpt>
      <trkpt lat="47.21353" lon="-1.68995">
        <ele>21</ele>
        <time>2023-11-01T17:25:13Z</time>
      </trkpt>
      <trkpt lat="47.21346" lon="-1.6897">
        <ele>19</ele>
        <time>2023-11-01T17:25:38Z</time>
      </trkpt>
      <trkpt lat="47.21342" lon="-1.68943">
        <ele>18</ele>
        <time>2023-11-01T17:26:03Z</time>
      </trkpt>
      <trkpt lat="47.21339" lon="-1.68887">
        <ele>17</ele>
        <time>2023-11-01T17:26:53Z</time>
      </trkpt>
      <trkpt lat="47.21338" lon="-1.6886">
        <ele>17</ele>
        <time>2023-11-01T17:27:18Z</time>
      </trkpt>
      <trkpt lat="47.21334" lon="-1.68833">
        <ele>16</ele>
        <time>2023-11-01T17:27:43Z</time>
      </trkpt>
      <trkpt lat="47.21332" lon="-1.68806">
        <ele>15</ele>
        <time>2023-11-01T17:28:08Z</time>
      </trkpt>
      <trkpt lat="47.21328" lon="-1.68779">
        <ele>14</ele>
        <time>2023-11-01T17:28:33Z</time>
      </trkpt>
      <trkpt lat="47.21325" lon="-1.68751">
        <ele>13</ele>
        <time>2023-11-01T17:28:58Z</time>
      </trkpt>
      <trkpt lat="47.21316" lon="-1.68727">
        <ele>12</ele>
        <time>2023-11-01T17:29:23Z</time>
      </trkpt>
      <trkpt lat="47.21305" lon="-1.68703">
        <ele>11</ele>
        <time>2023-11-01T17:29:49Z</time>
      </trkpt>
      <trkpt lat="47.21297" lon="-1.68678">
        <ele>10</ele>
        <time>2023-11-01T17:30:15Z</time>
      </trkpt>
      <trkpt lat="47.21286" lon="-1.68657">
        <ele>10</ele>
        <time>2023-11-01T17:30:39Z</time>
      </trkpt>
      <trkpt lat="47.21271" lon="-1.68639">
        <ele>9</ele>
        <time>2023-11-01T17:31:04Z</time>
      </trkpt>
      <trkpt lat="47.2126" lon="-1.68617">
        <ele>9</ele>
        <time>2023-11-01T17:31:29Z</time>
      </trkpt>
      <trkpt lat="47.21254" lon="-1.68591">
        <ele>9</ele>
        <time>2023-11-01T17:31:54Z</time>
      </trkpt>
      <trkpt lat="47.21265" lon="-1.68568">
        <ele>10</ele>
        <time>2023-11-01T17:32:20Z</time>
      </trkpt>
      <trkpt lat="47.21274" lon="-1.68544">
        <ele>11</ele>
        <time>2023-11-01T17:32:44Z</time>
      </trkpt>
      <trkpt lat="47.21283" lon="-1.6852">
        <ele>12</ele>
        <time>2023-11-01T17:33:09Z</time>
      </trkpt>
      <trkpt lat="47.21289" lon="-1.68495">
        <ele>13</ele>
        <time>2023-11-01T17:33:33Z</time>
      </trkpt>
      <trkpt lat="47.21289" lon="-1.68467">
        <ele>14</ele>
        <time>2023-11-01T17:33:59Z</time>
      </trkpt>
      <trkpt lat="47.21294" lon="-1.68442">
        <ele>16</ele>
        <time>2023-11-01T17:34:22Z</time>
      </trkpt>
      <trkpt lat="47.21313" lon="-1.68438">
        <ele>17</ele>
        <time>2023-11-01T17:34:48Z</time>
      </trkpt>
      <trkpt lat="47.21331" lon="-1.68431">
        <ele>18</ele>
        <time>2023-11-01T17:35:13Z</time>
      </trkpt>
      <trkpt lat="47.2135" lon="-1.68426">
        <ele>19</ele>
        <time>2023-11-01T17:35:39Z</time>
      </trkpt>
      <trkpt lat="47.21365" lon="-1.6841">
        <ele>20</ele>
        <time>2023-11-01T17:36:03Z</time>
      </trkpt>
      <trkpt lat="47.21381" lon="-1.68395">
        <ele>21</ele>
        <time>2023-11-01T17:36:29Z</time>
      </trkpt>
      <trkpt lat="47.21396" lon="-1.68378">
        <ele>22</ele>
        <time>2023-11-01T17:36:54Z</time>
      </trkpt>
      <trkpt lat="47.21423" lon="-1.68338">
        <ele>23</ele>
        <time>2023-11-01T17:37:45Z</time>
      </trkpt>
      <trkpt lat="47.21437" lon="-1.68322">
        <ele>24</ele>
        <time>2023-11-01T17:38:09Z</time>
      </trkpt>
      <trkpt lat="47.21443" lon="-1.68296">
        <ele>24</ele>
        <time>2023-11-01T17:38:33Z</time>
      </trkpt>
    </trkseg>
  </trk>
  <trk>
    <name><![CDATA[CoueronLoireLacBeaulieu_8.5km-9679440]]></name>
    <extensions>
      <line xmlns="http://www.topografix.com/GPX/gpx_style/0/2">
        <color>00FF00</color>
        <width>4</width>
      </line>
    </extensions>
    <trkseg>
      <trkpt lat="47.20853" lon="-1.71997">
        <ele>7</ele>
        <time>2023-11-01T14:50:24Z</time>
      </trkpt>
      <trkpt lat="47.20842" lon="-1.71807">
        <ele>4</ele>
        <time>2023-11-01T14:53:17Z</time>
      </trkpt>
      <trkpt lat="47.20834" lon="-1.7165">
        <ele>4</ele>
        <time>2023-11-01T14:55:40Z</time>
      </trkpt>
      <trkpt lat="47.2083" lon="-1.71425">
        <ele>4</ele>
        <time>2023-11-01T14:59:04Z</time>
      </trkpt>
      <trkpt lat="47.20835" lon="-1.71326">
        <ele>5</ele>
        <time>2023-11-01T15:00:34Z</time>
      </trkpt>
      <trkpt lat="47.20851" lon="-1.71288">
        <ele>4</ele>
        <time>2023-11-01T15:01:14Z</time>
      </trkpt>
      <trkpt lat="47.20896" lon="-1.7127">
        <ele>5</ele>
        <time>2023-11-01T15:02:16Z</time>
      </trkpt>
      <trkpt lat="47.20942" lon="-1.71238">
        <ele>6</ele>
        <time>2023-11-01T15:03:24Z</time>
      </trkpt>
      <trkpt lat="47.2098" lon="-1.71204">
        <ele>7</ele>
        <time>2023-11-01T15:04:24Z</time>
      </trkpt>
      <trkpt lat="47.21016" lon="-1.71136">
        <ele>8</ele>
        <time>2023-11-01T15:05:42Z</time>
      </trkpt>
      <trkpt lat="47.21107" lon="-1.70887">
        <ele>9</ele>
        <time>2023-11-01T15:09:58Z</time>
      </trkpt>
      <trkpt lat="47.21223" lon="-1.70501">
        <ele>7</ele>
        <time>2023-11-01T15:16:21Z</time>
      </trkpt>
      <trkpt lat="47.21278" lon="-1.70394">
        <ele>6</ele>
        <time>2023-11-01T15:18:22Z</time>
      </trkpt>
      <trkpt lat="47.21289" lon="-1.70341">
        <ele>7</ele>
        <time>2023-11-01T15:19:13Z</time>
      </trkpt>
      <trkpt lat="47.21291" lon="-1.70285">
        <ele>8</ele>
        <time>2023-11-01T15:20:03Z</time>
      </trkpt>
      <trkpt lat="47.21348" lon="-1.70395">
        <ele>8</ele>
        <time>2023-11-01T15:22:09Z</time>
      </trkpt>
      <trkpt lat="47.21359" lon="-1.70329">
        <ele>11</ele>
        <time>2023-11-01T15:23:10Z</time>
      </trkpt>
      <trkpt lat="47.21363" lon="-1.70306">
        <ele>12</ele>
        <time>2023-11-01T15:23:32Z</time>
      </trkpt>
      <trkpt lat="47.21374" lon="-1.70298">
        <ele>13</ele>
        <time>2023-11-01T15:23:48Z</time>
      </trkpt>
      <trkpt lat="47.21397" lon="-1.70286">
        <ele>15</ele>
        <time>2023-11-01T15:24:21Z</time>
      </trkpt>
      <trkpt lat="47.21435" lon="-1.70268">
        <ele>18</ele>
        <time>2023-11-01T15:25:14Z</time>
      </trkpt>
      <trkpt lat="47.21459" lon="-1.7026">
        <ele>20</ele>
        <time>2023-11-01T15:25:47Z</time>
      </trkpt>
      <trkpt lat="47.21531" lon="-1.70222">
        <ele>25</ele>
        <time>2023-11-01T15:27:29Z</time>
      </trkpt>
      <trkpt lat="47.21558" lon="-1.70199">
        <ele>26</ele>
        <time>2023-11-01T15:28:11Z</time>
      </trkpt>
      <trkpt lat="47.21576" lon="-1.70181">
        <ele>27</ele>
        <time>2023-11-01T15:28:40Z</time>
      </trkpt>
      <trkpt lat="47.21591" lon="-1.70163">
        <ele>27</ele>
        <time>2023-11-01T15:29:06Z</time>
      </trkpt>
      <trkpt lat="47.21598" lon="-1.7016">
        <ele>27</ele>
        <time>2023-11-01T15:29:15Z</time>
      </trkpt>
      <trkpt lat="47.21601" lon="-1.7014">
        <ele>27</ele>
        <time>2023-11-01T15:29:34Z</time>
      </trkpt>
      <trkpt lat="47.2162" lon="-1.70121">
        <ele>27</ele>
        <time>2023-11-01T15:30:04Z</time>
      </trkpt>
      <trkpt lat="47.21653" lon="-1.70106">
        <ele>26</ele>
        <time>2023-11-01T15:30:51Z</time>
      </trkpt>
      <trkpt lat="47.21678" lon="-1.70098">
        <ele>26</ele>
        <time>2023-11-01T15:31:25Z</time>
      </trkpt>
      <trkpt lat="47.21731" lon="-1.70076">
        <ele>24</ele>
        <time>2023-11-01T15:32:38Z</time>
      </trkpt>
      <trkpt lat="47.21786" lon="-1.70016">
        <ele>22</ele>
        <time>2023-11-01T15:34:10Z</time>
      </trkpt>
      <trkpt lat="47.21888" lon="-1.6988">
        <ele>23</ele>
        <time>2023-11-01T15:37:13Z</time>
      </trkpt>
      <trkpt lat="47.21925" lon="-1.69844">
        <ele>24</ele>
        <time>2023-11-01T15:38:12Z</time>
      </trkpt>
      <trkpt lat="47.2195" lon="-1.69825">
        <ele>24</ele>
        <time>2023-11-01T15:38:50Z</time>
      </trkpt>
      <trkpt lat="47.2199" lon="-1.69792">
        <ele>24</ele>
        <time>2023-11-01T15:39:51Z</time>
      </trkpt>
      <trkpt lat="47.22016" lon="-1.6978">
        <ele>22</ele>
        <time>2023-11-01T15:40:27Z</time>
      </trkpt>
      <trkpt lat="47.22066" lon="-1.69754">
        <ele>16</ele>
        <time>2023-11-01T15:41:38Z</time>
      </trkpt>
      <trkpt lat="47.22022" lon="-1.69878">
        <ele>14</ele>
        <time>2023-11-01T15:43:45Z</time>
      </trkpt>
      <trkpt lat="47.22006" lon="-1.69929">
        <ele>11</ele>
        <time>2023-11-01T15:44:36Z</time>
      </trkpt>
      <trkpt lat="47.22003" lon="-1.69981">
        <ele>8</ele>
        <time>2023-11-01T15:45:23Z</time>
      </trkpt>
      <trkpt lat="47.22033" lon="-1.69977">
        <ele>7</ele>
        <time>2023-11-01T15:46:03Z</time>
      </trkpt>
      <trkpt lat="47.22051" lon="-1.69964">
        <ele>6</ele>
        <time>2023-11-01T15:46:30Z</time>
      </trkpt>
      <trkpt lat="47.22094" lon="-1.7004">
        <ele>3</ele>
        <time>2023-11-01T15:48:00Z</time>
      </trkpt>
      <trkpt lat="47.2214" lon="-1.69972">
        <ele>5</ele>
        <time>2023-11-01T15:49:27Z</time>
      </trkpt>
      <trkpt lat="47.22167" lon="-1.69945">
        <ele>5</ele>
        <time>2023-11-01T15:50:10Z</time>
      </trkpt>
      <trkpt lat="47.22218" lon="-1.69949">
        <ele>5</ele>
        <time>2023-11-01T15:51:19Z</time>
      </trkpt>
      <trkpt lat="47.22261" lon="-1.69977">
        <ele>6</ele>
        <time>2023-11-01T15:52:21Z</time>
      </trkpt>
      <trkpt lat="47.22284" lon="-1.70007">
        <ele>6</ele>
        <time>2023-11-01T15:53:02Z</time>
      </trkpt>
      <trkpt lat="47.22301" lon="-1.7004">
        <ele>6</ele>
        <time>2023-11-01T15:53:40Z</time>
      </trkpt>
      <trkpt lat="47.22418" lon="-1.70122">
        <ele>7</ele>
        <time>2023-11-01T15:56:33Z</time>
      </trkpt>
      <trkpt lat="47.22432" lon="-1.70138">
        <ele>7</ele>
        <time>2023-11-01T15:56:56Z</time>
      </trkpt>
      <trkpt lat="47.22467" lon="-1.70192">
        <ele>7</ele>
        <time>2023-11-01T15:58:04Z</time>
      </trkpt>
      <trkpt lat="47.22511" lon="-1.70251">
        <ele>6</ele>
        <time>2023-11-01T15:59:23Z</time>
      </trkpt>
      <trkpt lat="47.2254" lon="-1.70261">
        <ele>6</ele>
        <time>2023-11-01T16:00:03Z</time>
      </trkpt>
      <trkpt lat="47.22569" lon="-1.70289">
        <ele>7</ele>
        <time>2023-11-01T16:00:49Z</time>
      </trkpt>
      <trkpt lat="47.22638" lon="-1.70289">
        <ele>6</ele>
        <time>2023-11-01T16:02:22Z</time>
      </trkpt>
      <trkpt lat="47.22677" lon="-1.70296">
        <ele>6</ele>
        <time>2023-11-01T16:03:14Z</time>
      </trkpt>
      <trkpt lat="47.22693" lon="-1.70291">
        <ele>6</ele>
        <time>2023-11-01T16:03:36Z</time>
      </trkpt>
      <trkpt lat="47.22699" lon="-1.70318">
        <ele>6</ele>
        <time>2023-11-01T16:04:02Z</time>
      </trkpt>
      <trkpt lat="47.22598" lon="-1.70326">
        <ele>7</ele>
        <time>2023-11-01T16:06:17Z</time>
      </trkpt>
      <trkpt lat="47.22495" lon="-1.70349">
        <ele>11</ele>
        <time>2023-11-01T16:08:36Z</time>
      </trkpt>
      <trkpt lat="47.22428" lon="-1.70356">
        <ele>15</ele>
        <time>2023-11-01T16:10:05Z</time>
      </trkpt>
      <trkpt lat="47.22303" lon="-1.70357">
        <ele>20</ele>
        <time>2023-11-01T16:12:52Z</time>
      </trkpt>
      <trkpt lat="47.22224" lon="-1.70385">
        <ele>17</ele>
        <time>2023-11-01T16:14:40Z</time>
      </trkpt>
      <trkpt lat="47.22159" lon="-1.70426">
        <ele>13</ele>
        <time>2023-11-01T16:16:15Z</time>
      </trkpt>
      <trkpt lat="47.22135" lon="-1.70433">
        <ele>11</ele>
        <time>2023-11-01T16:16:47Z</time>
      </trkpt>
      <trkpt lat="47.22105" lon="-1.70423">
        <ele>9</ele>
        <time>2023-11-01T16:17:28Z</time>
      </trkpt>
      <trkpt lat="47.22074" lon="-1.70432">
        <ele>7</ele>
        <time>2023-11-01T16:18:11Z</time>
      </trkpt>
      <trkpt lat="47.22057" lon="-1.70374">
        <ele>5</ele>
        <time>2023-11-01T16:19:08Z</time>
      </trkpt>
      <trkpt lat="47.22048" lon="-1.70341">
        <ele>4</ele>
        <time>2023-11-01T16:19:40Z</time>
      </trkpt>
      <trkpt lat="47.22046" lon="-1.70299">
        <ele>3</ele>
        <time>2023-11-01T16:20:18Z</time>
      </trkpt>
      <trkpt lat="47.22057" lon="-1.70241">
        <ele>2</ele>
        <time>2023-11-01T16:21:13Z</time>
      </trkpt>
      <trkpt lat="47.22056" lon="-1.702">
        <ele>3</ele>
        <time>2023-11-01T16:21:50Z</time>
      </trkpt>
      <trkpt lat="47.2204" lon="-1.70108">
        <ele>4</ele>
        <time>2023-11-01T16:23:16Z</time>
      </trkpt>
      <trkpt lat="47.22025" lon="-1.70058">
        <ele>5</ele>
        <time>2023-11-01T16:24:06Z</time>
      </trkpt>
      <trkpt lat="47.22003" lon="-1.70003">
        <ele>7</ele>
        <time>2023-11-01T16:25:04Z</time>
      </trkpt>
      <trkpt lat="47.22004" lon="-1.69977">
        <ele>8</ele>
        <time>2023-11-01T16:25:27Z</time>
      </trkpt>
      <trkpt lat="47.22009" lon="-1.69922">
        <ele>11</ele>
        <time>2023-11-01T16:26:17Z</time>
      </trkpt>
      <trkpt lat="47.22033" lon="-1.69854">
        <ele>16</ele>
        <time>2023-11-01T16:27:27Z</time>
      </trkpt>
      <trkpt lat="47.22065" lon="-1.69754">
        <ele>16</ele>
        <time>2023-11-01T16:29:07Z</time>
      </trkpt>
      <trkpt lat="47.21938" lon="-1.69829">
        <ele>24</ele>
        <time>2023-11-01T16:32:10Z</time>
      </trkpt>
      <trkpt lat="47.21746" lon="-1.70066">
        <ele>23</ele>
        <time>2023-11-01T16:37:44Z</time>
      </trkpt>
      <trkpt lat="47.21665" lon="-1.70102">
        <ele>26</ele>
        <time>2023-11-01T16:39:37Z</time>
      </trkpt>
      <trkpt lat="47.21602" lon="-1.7014">
        <ele>27</ele>
        <time>2023-11-01T16:41:08Z</time>
      </trkpt>
      <trkpt lat="47.21595" lon="-1.70161">
        <ele>27</ele>
        <time>2023-11-01T16:41:29Z</time>
      </trkpt>
      <trkpt lat="47.2154" lon="-1.70213">
        <ele>25</ele>
        <time>2023-11-01T16:42:56Z</time>
      </trkpt>
      <trkpt lat="47.21471" lon="-1.70251">
        <ele>21</ele>
        <time>2023-11-01T16:44:35Z</time>
      </trkpt>
      <trkpt lat="47.21361" lon="-1.70303">
        <ele>12</ele>
        <time>2023-11-01T16:47:09Z</time>
      </trkpt>
      <trkpt lat="47.2135" lon="-1.70392">
        <ele>9</ele>
        <time>2023-11-01T16:48:31Z</time>
      </trkpt>
      <trkpt lat="47.21369" lon="-1.70452">
        <ele>9</ele>
        <time>2023-11-01T16:49:31Z</time>
      </trkpt>
      <trkpt lat="47.21361" lon="-1.70613">
        <ele>14</ele>
        <time>2023-11-01T16:51:57Z</time>
      </trkpt>
      <trkpt lat="47.21352" lon="-1.70712">
        <ele>18</ele>
        <time>2023-11-01T16:53:28Z</time>
      </trkpt>
      <trkpt lat="47.21316" lon="-1.70815">
        <ele>23</ele>
        <time>2023-11-01T16:55:13Z</time>
      </trkpt>
      <trkpt lat="47.21288" lon="-1.70813">
        <ele>22</ele>
        <time>2023-11-01T16:55:50Z</time>
      </trkpt>
      <trkpt lat="47.21283" lon="-1.70885">
        <ele>25</ele>
        <time>2023-11-01T16:56:56Z</time>
      </trkpt>
      <trkpt lat="47.21281" lon="-1.70921">
        <ele>27</ele>
        <time>2023-11-01T16:57:28Z</time>
      </trkpt>
      <trkpt lat="47.21276" lon="-1.71055">
        <ele>28</ele>
        <time>2023-11-01T16:59:30Z</time>
      </trkpt>
      <trkpt lat="47.21246" lon="-1.71252">
        <ele>25</ele>
        <time>2023-11-01T17:02:33Z</time>
      </trkpt>
      <trkpt lat="47.21209" lon="-1.71257">
        <ele>24</ele>
        <time>2023-11-01T17:03:23Z</time>
      </trkpt>
      <trkpt lat="47.21176" lon="-1.71288">
        <ele>22</ele>
        <time>2023-11-01T17:04:15Z</time>
      </trkpt>
      <trkpt lat="47.21147" lon="-1.71309">
        <ele>21</ele>
        <time>2023-11-01T17:04:58Z</time>
      </trkpt>
      <trkpt lat="47.21125" lon="-1.71344">
        <ele>19</ele>
        <time>2023-11-01T17:05:41Z</time>
      </trkpt>
      <trkpt lat="47.21111" lon="-1.71382">
        <ele>17</ele>
        <time>2023-11-01T17:06:20Z</time>
      </trkpt>
      <trkpt lat="47.21111" lon="-1.71557">
        <ele>23</ele>
        <time>2023-11-01T17:08:59Z</time>
      </trkpt>
      <trkpt lat="47.2111" lon="-1.71712">
        <ele>28</ele>
        <time>2023-11-01T17:11:20Z</time>
      </trkpt>
      <trkpt lat="47.21101" lon="-1.71731">
        <ele>28</ele>
        <time>2023-11-01T17:11:41Z</time>
      </trkpt>
      <trkpt lat="47.21105" lon="-1.71829">
        <ele>28</ele>
        <time>2023-11-01T17:13:10Z</time>
      </trkpt>
      <trkpt lat="47.21113" lon="-1.7186">
        <ele>28</ele>
        <time>2023-11-01T17:13:40Z</time>
      </trkpt>
      <trkpt lat="47.21114" lon="-1.71946">
        <ele>27</ele>
        <time>2023-11-01T17:14:58Z</time>
      </trkpt>
      <trkpt lat="47.21008" lon="-1.71984">
        <ele>22</ele>
        <time>2023-11-01T17:17:23Z</time>
      </trkpt>
      <trkpt lat="47.2101" lon="-1.72049">
        <ele>20</ele>
        <time>2023-11-01T17:18:22Z</time>
      </trkpt>
      <trkpt lat="47.21009" lon="-1.72109">
        <ele>19</ele>
        <time>2023-11-01T17:19:17Z</time>
      </trkpt>
      <trkpt lat="47.21019" lon="-1.72166">
        <ele>20</ele>
        <time>2023-11-01T17:20:10Z</time>
      </trkpt>
      <trkpt lat="47.21033" lon="-1.72188">
        <ele>20</ele>
        <time>2023-11-01T17:20:37Z</time>
      </trkpt>
      <trkpt lat="47.21033" lon="-1.72196">
        <ele>20</ele>
        <time>2023-11-01T17:20:44Z</time>
      </trkpt>
      <trkpt lat="47.21019" lon="-1.72239">
        <ele>19</ele>
        <time>2023-11-01T17:21:28Z</time>
      </trkpt>
      <trkpt lat="47.21025" lon="-1.72399">
        <ele>19</ele>
        <time>2023-11-01T17:23:53Z</time>
      </trkpt>
      <trkpt lat="47.21042" lon="-1.7251">
        <ele>17</ele>
        <time>2023-11-01T17:25:36Z</time>
      </trkpt>
      <trkpt lat="47.21076" lon="-1.72584">
        <ele>17</ele>
        <time>2023-11-01T17:26:57Z</time>
      </trkpt>
      <trkpt lat="47.21093" lon="-1.72706">
        <ele>16</ele>
        <time>2023-11-01T17:28:50Z</time>
      </trkpt>
      <trkpt lat="47.21082" lon="-1.7274">
        <ele>16</ele>
        <time>2023-11-01T17:29:24Z</time>
      </trkpt>
      <trkpt lat="47.21026" lon="-1.72756">
        <ele>13</ele>
        <time>2023-11-01T17:30:40Z</time>
      </trkpt>
      <trkpt lat="47.20972" lon="-1.72774">
        <ele>10</ele>
        <time>2023-11-01T17:31:54Z</time>
      </trkpt>
      <trkpt lat="47.20914" lon="-1.72796">
        <ele>7</ele>
        <time>2023-11-01T17:33:14Z</time>
      </trkpt>
      <trkpt lat="47.20916" lon="-1.7282">
        <ele>6</ele>
        <time>2023-11-01T17:33:36Z</time>
      </trkpt>
      <trkpt lat="47.20891" lon="-1.72834">
        <ele>5</ele>
        <time>2023-11-01T17:34:12Z</time>
      </trkpt>
      <trkpt lat="47.20875" lon="-1.72714">
        <ele>4</ele>
        <time>2023-11-01T17:36:03Z</time>
      </trkpt>
      <trkpt lat="47.20885" lon="-1.72608">
        <ele>5</ele>
        <time>2023-11-01T17:37:40Z</time>
      </trkpt>
      <trkpt lat="47.20886" lon="-1.72556">
        <ele>6</ele>
        <time>2023-11-01T17:38:27Z</time>
      </trkpt>
      <trkpt lat="47.20869" lon="-1.72345">
        <ele>6</ele>
        <time>2023-11-01T17:41:39Z</time>
      </trkpt>
      <trkpt lat="47.20853" lon="-1.72032">
        <ele>7</ele>
        <time>2023-11-01T17:46:24Z</time>
      </trkpt>
    </trkseg>
  </trk>
  <trk>
    <name><![CDATA[Coueron_QuaiLacBeaulieuChabossiere_11km-6470759]]></name>
    <extensions>
      <line xmlns="http://www.topografix.com/GPX/gpx_style/0/2">
        <color>FF0000</color>
        <width>4</width>
      </line>
    </extensions>
    <trkseg>
      <trkpt lat="47.20968" lon="-1.731">
        <ele>5</ele>
        <time>2023-11-01T14:49:58Z</time>
      </trkpt>
      <trkpt lat="47.20962" lon="-1.73075">
        <ele>5</ele>
        <time>2023-11-01T14:50:22Z</time>
      </trkpt>
      <trkpt lat="47.20947" lon="-1.73058">
        <ele>4</ele>
        <time>2023-11-01T14:50:47Z</time>
      </trkpt>
      <trkpt lat="47.20937" lon="-1.73035">
        <ele>4</ele>
        <time>2023-11-01T14:51:12Z</time>
      </trkpt>
      <trkpt lat="47.20917" lon="-1.72958">
        <ele>4</ele>
        <time>2023-11-01T14:52:27Z</time>
      </trkpt>
      <trkpt lat="47.20908" lon="-1.72934">
        <ele>4</ele>
        <time>2023-11-01T14:52:52Z</time>
      </trkpt>
      <trkpt lat="47.20902" lon="-1.72908">
        <ele>4</ele>
        <time>2023-11-01T14:53:17Z</time>
      </trkpt>
      <trkpt lat="47.209" lon="-1.72881">
        <ele>4</ele>
        <time>2023-11-01T14:53:41Z</time>
      </trkpt>
      <trkpt lat="47.20913" lon="-1.72861">
        <ele>5</ele>
        <time>2023-11-01T14:54:06Z</time>
      </trkpt>
      <trkpt lat="47.20895" lon="-1.72813">
        <ele>5</ele>
        <time>2023-11-01T14:54:56Z</time>
      </trkpt>
      <trkpt lat="47.20884" lon="-1.72792">
        <ele>5</ele>
        <time>2023-11-01T14:55:20Z</time>
      </trkpt>
      <trkpt lat="47.20881" lon="-1.72766">
        <ele>5</ele>
        <time>2023-11-01T14:55:44Z</time>
      </trkpt>
      <trkpt lat="47.20881" lon="-1.72659">
        <ele>4</ele>
        <time>2023-11-01T14:57:21Z</time>
      </trkpt>
      <trkpt lat="47.20889" lon="-1.72606">
        <ele>6</ele>
        <time>2023-11-01T14:58:10Z</time>
      </trkpt>
      <trkpt lat="47.2089" lon="-1.72552">
        <ele>6</ele>
        <time>2023-11-01T14:58:59Z</time>
      </trkpt>
      <trkpt lat="47.20884" lon="-1.72499">
        <ele>7</ele>
        <time>2023-11-01T14:59:48Z</time>
      </trkpt>
      <trkpt lat="47.2087" lon="-1.7231">
        <ele>6</ele>
        <time>2023-11-01T15:02:40Z</time>
      </trkpt>
      <trkpt lat="47.2087" lon="-1.72281">
        <ele>6</ele>
        <time>2023-11-01T15:03:06Z</time>
      </trkpt>
      <trkpt lat="47.20866" lon="-1.72254">
        <ele>6</ele>
        <time>2023-11-01T15:03:31Z</time>
      </trkpt>
      <trkpt lat="47.20864" lon="-1.72199">
        <ele>6</ele>
        <time>2023-11-01T15:04:21Z</time>
      </trkpt>
      <trkpt lat="47.20856" lon="-1.72119">
        <ele>6</ele>
        <time>2023-11-01T15:05:35Z</time>
      </trkpt>
      <trkpt lat="47.20859" lon="-1.72092">
        <ele>6</ele>
        <time>2023-11-01T15:06:00Z</time>
      </trkpt>
      <trkpt lat="47.20853" lon="-1.71926">
        <ele>5</ele>
        <time>2023-11-01T15:08:30Z</time>
      </trkpt>
      <trkpt lat="47.20857" lon="-1.71899">
        <ele>5</ele>
        <time>2023-11-01T15:08:55Z</time>
      </trkpt>
      <trkpt lat="47.20847" lon="-1.7179">
        <ele>5</ele>
        <time>2023-11-01T15:10:35Z</time>
      </trkpt>
      <trkpt lat="47.20841" lon="-1.71763">
        <ele>4</ele>
        <time>2023-11-01T15:11:01Z</time>
      </trkpt>
      <trkpt lat="47.20829" lon="-1.71599">
        <ele>2</ele>
        <time>2023-11-01T15:13:30Z</time>
      </trkpt>
      <trkpt lat="47.20811" lon="-1.71592">
        <ele>2</ele>
        <time>2023-11-01T15:13:55Z</time>
      </trkpt>
      <trkpt lat="47.20815" lon="-1.71566">
        <ele>1</ele>
        <time>2023-11-01T15:14:19Z</time>
      </trkpt>
      <trkpt lat="47.20833" lon="-1.71559">
        <ele>2</ele>
        <time>2023-11-01T15:14:44Z</time>
      </trkpt>
      <trkpt lat="47.20838" lon="-1.71533">
        <ele>2</ele>
        <time>2023-11-01T15:15:09Z</time>
      </trkpt>
      <trkpt lat="47.20833" lon="-1.71423">
        <ele>4</ele>
        <time>2023-11-01T15:16:49Z</time>
      </trkpt>
      <trkpt lat="47.20828" lon="-1.71396">
        <ele>4</ele>
        <time>2023-11-01T15:17:14Z</time>
      </trkpt>
      <trkpt lat="47.20829" lon="-1.71368">
        <ele>4</ele>
        <time>2023-11-01T15:17:39Z</time>
      </trkpt>
      <trkpt lat="47.20836" lon="-1.71342">
        <ele>5</ele>
        <time>2023-11-01T15:18:05Z</time>
      </trkpt>
      <trkpt lat="47.20861" lon="-1.71301">
        <ele>5</ele>
        <time>2023-11-01T15:18:55Z</time>
      </trkpt>
      <trkpt lat="47.20894" lon="-1.71273">
        <ele>5</ele>
        <time>2023-11-01T15:19:45Z</time>
      </trkpt>
      <trkpt lat="47.20928" lon="-1.71251">
        <ele>5</ele>
        <time>2023-11-01T15:20:35Z</time>
      </trkpt>
      <trkpt lat="47.20961" lon="-1.71225">
        <ele>6</ele>
        <time>2023-11-01T15:21:25Z</time>
      </trkpt>
      <trkpt lat="47.20976" lon="-1.7121">
        <ele>7</ele>
        <time>2023-11-01T15:21:49Z</time>
      </trkpt>
      <trkpt lat="47.20985" lon="-1.71187">
        <ele>7</ele>
        <time>2023-11-01T15:22:13Z</time>
      </trkpt>
      <trkpt lat="47.21" lon="-1.7117">
        <ele>8</ele>
        <time>2023-11-01T15:22:39Z</time>
      </trkpt>
      <trkpt lat="47.21008" lon="-1.71146">
        <ele>8</ele>
        <time>2023-11-01T15:23:03Z</time>
      </trkpt>
      <trkpt lat="47.21026" lon="-1.71137">
        <ele>8</ele>
        <time>2023-11-01T15:23:28Z</time>
      </trkpt>
      <trkpt lat="47.21039" lon="-1.71117">
        <ele>8</ele>
        <time>2023-11-01T15:23:53Z</time>
      </trkpt>
      <trkpt lat="47.21055" lon="-1.71105">
        <ele>9</ele>
        <time>2023-11-01T15:24:17Z</time>
      </trkpt>
      <trkpt lat="47.21053" lon="-1.71079">
        <ele>8</ele>
        <time>2023-11-01T15:24:41Z</time>
      </trkpt>
      <trkpt lat="47.21061" lon="-1.71026">
        <ele>8</ele>
        <time>2023-11-01T15:25:30Z</time>
      </trkpt>
      <trkpt lat="47.21097" lon="-1.70871">
        <ele>7</ele>
        <time>2023-11-01T15:27:59Z</time>
      </trkpt>
      <trkpt lat="47.21106" lon="-1.70846">
        <ele>8</ele>
        <time>2023-11-01T15:28:24Z</time>
      </trkpt>
      <trkpt lat="47.21129" lon="-1.70804">
        <ele>10</ele>
        <time>2023-11-01T15:29:13Z</time>
      </trkpt>
      <trkpt lat="47.21148" lon="-1.70728">
        <ele>10</ele>
        <time>2023-11-01T15:30:27Z</time>
      </trkpt>
      <trkpt lat="47.21179" lon="-1.70628">
        <ele>10</ele>
        <time>2023-11-01T15:32:06Z</time>
      </trkpt>
      <trkpt lat="47.212" lon="-1.70584">
        <ele>10</ele>
        <time>2023-11-01T15:32:55Z</time>
      </trkpt>
      <trkpt lat="47.21227" lon="-1.70512">
        <ele>8</ele>
        <time>2023-11-01T15:34:10Z</time>
      </trkpt>
      <trkpt lat="47.2126" lon="-1.70446">
        <ele>6</ele>
        <time>2023-11-01T15:35:24Z</time>
      </trkpt>
      <trkpt lat="47.21267" lon="-1.70421">
        <ele>6</ele>
        <time>2023-11-01T15:35:48Z</time>
      </trkpt>
      <trkpt lat="47.2128" lon="-1.70401">
        <ele>6</ele>
        <time>2023-11-01T15:36:13Z</time>
      </trkpt>
      <trkpt lat="47.21292" lon="-1.70321">
        <ele>7</ele>
        <time>2023-11-01T15:37:28Z</time>
      </trkpt>
      <trkpt lat="47.21298" lon="-1.70296">
        <ele>8</ele>
        <time>2023-11-01T15:37:52Z</time>
      </trkpt>
      <trkpt lat="47.21323" lon="-1.70336">
        <ele>8</ele>
        <time>2023-11-01T15:38:41Z</time>
      </trkpt>
      <trkpt lat="47.21332" lon="-1.70359">
        <ele>9</ele>
        <time>2023-11-01T15:39:05Z</time>
      </trkpt>
      <trkpt lat="47.2137" lon="-1.7042">
        <ele>8</ele>
        <time>2023-11-01T15:40:20Z</time>
      </trkpt>
      <trkpt lat="47.2138" lon="-1.70444">
        <ele>8</ele>
        <time>2023-11-01T15:40:46Z</time>
      </trkpt>
      <trkpt lat="47.21371" lon="-1.70553">
        <ele>12</ele>
        <time>2023-11-01T15:42:25Z</time>
      </trkpt>
      <trkpt lat="47.21363" lon="-1.70577">
        <ele>13</ele>
        <time>2023-11-01T15:42:49Z</time>
      </trkpt>
      <trkpt lat="47.2135" lon="-1.70557">
        <ele>12</ele>
        <time>2023-11-01T15:43:14Z</time>
      </trkpt>
      <trkpt lat="47.21342" lon="-1.70532">
        <ele>12</ele>
        <time>2023-11-01T15:43:39Z</time>
      </trkpt>
      <trkpt lat="47.21339" lon="-1.70506">
        <ele>11</ele>
        <time>2023-11-01T15:44:03Z</time>
      </trkpt>
      <trkpt lat="47.21341" lon="-1.70479">
        <ele>10</ele>
        <time>2023-11-01T15:44:28Z</time>
      </trkpt>
      <trkpt lat="47.21366" lon="-1.70317">
        <ele>12</ele>
        <time>2023-11-01T15:46:59Z</time>
      </trkpt>
      <trkpt lat="47.21381" lon="-1.70301">
        <ele>13</ele>
        <time>2023-11-01T15:47:23Z</time>
      </trkpt>
      <trkpt lat="47.21434" lon="-1.70275">
        <ele>17</ele>
        <time>2023-11-01T15:48:38Z</time>
      </trkpt>
      <trkpt lat="47.21467" lon="-1.70252">
        <ele>21</ele>
        <time>2023-11-01T15:49:27Z</time>
      </trkpt>
      <trkpt lat="47.21536" lon="-1.70216">
        <ele>25</ele>
        <time>2023-11-01T15:51:04Z</time>
      </trkpt>
      <trkpt lat="47.21586" lon="-1.70177">
        <ele>27</ele>
        <time>2023-11-01T15:52:20Z</time>
      </trkpt>
      <trkpt lat="47.2161" lon="-1.70137">
        <ele>27</ele>
        <time>2023-11-01T15:53:08Z</time>
      </trkpt>
      <trkpt lat="47.21644" lon="-1.70112">
        <ele>26</ele>
        <time>2023-11-01T15:53:59Z</time>
      </trkpt>
      <trkpt lat="47.21661" lon="-1.70103">
        <ele>26</ele>
        <time>2023-11-01T15:54:23Z</time>
      </trkpt>
      <trkpt lat="47.21681" lon="-1.701">
        <ele>25</ele>
        <time>2023-11-01T15:54:50Z</time>
      </trkpt>
      <trkpt lat="47.21699" lon="-1.70094">
        <ele>24</ele>
        <time>2023-11-01T15:55:14Z</time>
      </trkpt>
      <trkpt lat="47.21751" lon="-1.70062">
        <ele>23</ele>
        <time>2023-11-01T15:56:30Z</time>
      </trkpt>
      <trkpt lat="47.21839" lon="-1.69964">
        <ele>22</ele>
        <time>2023-11-01T15:58:57Z</time>
      </trkpt>
      <trkpt lat="47.21856" lon="-1.69951">
        <ele>21</ele>
        <time>2023-11-01T15:59:22Z</time>
      </trkpt>
      <trkpt lat="47.2187" lon="-1.69934">
        <ele>21</ele>
        <time>2023-11-01T15:59:47Z</time>
      </trkpt>
      <trkpt lat="47.21879" lon="-1.69911">
        <ele>22</ele>
        <time>2023-11-01T16:00:11Z</time>
      </trkpt>
      <trkpt lat="47.21891" lon="-1.6989">
        <ele>23</ele>
        <time>2023-11-01T16:00:36Z</time>
      </trkpt>
      <trkpt lat="47.21968" lon="-1.69819">
        <ele>23</ele>
        <time>2023-11-01T16:02:37Z</time>
      </trkpt>
      <trkpt lat="47.22002" lon="-1.69795">
        <ele>23</ele>
        <time>2023-11-01T16:03:27Z</time>
      </trkpt>
      <trkpt lat="47.2202" lon="-1.69787">
        <ele>21</ele>
        <time>2023-11-01T16:03:52Z</time>
      </trkpt>
      <trkpt lat="47.22054" lon="-1.69765">
        <ele>17</ele>
        <time>2023-11-01T16:04:42Z</time>
      </trkpt>
      <trkpt lat="47.22072" lon="-1.69768">
        <ele>15</ele>
        <time>2023-11-01T16:05:06Z</time>
      </trkpt>
      <trkpt lat="47.2209" lon="-1.69766">
        <ele>13</ele>
        <time>2023-11-01T16:05:30Z</time>
      </trkpt>
      <trkpt lat="47.22109" lon="-1.69767">
        <ele>11</ele>
        <time>2023-11-01T16:05:55Z</time>
      </trkpt>
      <trkpt lat="47.22127" lon="-1.69771">
        <ele>9</ele>
        <time>2023-11-01T16:06:20Z</time>
      </trkpt>
      <trkpt lat="47.22139" lon="-1.69751">
        <ele>8</ele>
        <time>2023-11-01T16:06:44Z</time>
      </trkpt>
      <trkpt lat="47.22148" lon="-1.69726">
        <ele>8</ele>
        <time>2023-11-01T16:07:10Z</time>
      </trkpt>
      <trkpt lat="47.22173" lon="-1.69684">
        <ele>6</ele>
        <time>2023-11-01T16:08:00Z</time>
      </trkpt>
      <trkpt lat="47.22183" lon="-1.69662">
        <ele>7</ele>
        <time>2023-11-01T16:08:24Z</time>
      </trkpt>
      <trkpt lat="47.2219" lon="-1.69636">
        <ele>7</ele>
        <time>2023-11-01T16:08:50Z</time>
      </trkpt>
      <trkpt lat="47.22192" lon="-1.69581">
        <ele>8</ele>
        <time>2023-11-01T16:09:39Z</time>
      </trkpt>
      <trkpt lat="47.22208" lon="-1.6953">
        <ele>7</ele>
        <time>2023-11-01T16:10:30Z</time>
      </trkpt>
      <trkpt lat="47.22217" lon="-1.69507">
        <ele>7</ele>
        <time>2023-11-01T16:10:54Z</time>
      </trkpt>
      <trkpt lat="47.22229" lon="-1.69485">
        <ele>7</ele>
        <time>2023-11-01T16:11:20Z</time>
      </trkpt>
      <trkpt lat="47.22245" lon="-1.69471">
        <ele>6</ele>
        <time>2023-11-01T16:11:45Z</time>
      </trkpt>
      <trkpt lat="47.22263" lon="-1.69466">
        <ele>6</ele>
        <time>2023-11-01T16:12:09Z</time>
      </trkpt>
      <trkpt lat="47.22281" lon="-1.69456">
        <ele>6</ele>
        <time>2023-11-01T16:12:35Z</time>
      </trkpt>
      <trkpt lat="47.22299" lon="-1.69454">
        <ele>6</ele>
        <time>2023-11-01T16:12:59Z</time>
      </trkpt>
      <trkpt lat="47.22318" lon="-1.69445">
        <ele>7</ele>
        <time>2023-11-01T16:13:26Z</time>
      </trkpt>
      <trkpt lat="47.22337" lon="-1.69444">
        <ele>7</ele>
        <time>2023-11-01T16:13:51Z</time>
      </trkpt>
      <trkpt lat="47.22373" lon="-1.6945">
        <ele>7</ele>
        <time>2023-11-01T16:14:39Z</time>
      </trkpt>
      <trkpt lat="47.22401" lon="-1.69488">
        <ele>5</ele>
        <time>2023-11-01T16:15:30Z</time>
      </trkpt>
      <trkpt lat="47.22409" lon="-1.69513">
        <ele>5</ele>
        <time>2023-11-01T16:15:55Z</time>
      </trkpt>
      <trkpt lat="47.22424" lon="-1.69529">
        <ele>6</ele>
        <time>2023-11-01T16:16:20Z</time>
      </trkpt>
      <trkpt lat="47.22474" lon="-1.69612">
        <ele>6</ele>
        <time>2023-11-01T16:18:01Z</time>
      </trkpt>
      <trkpt lat="47.22503" lon="-1.69649">
        <ele>6</ele>
        <time>2023-11-01T16:18:52Z</time>
      </trkpt>
      <trkpt lat="47.22534" lon="-1.69748">
        <ele>5</ele>
        <time>2023-11-01T16:20:31Z</time>
      </trkpt>
      <trkpt lat="47.22539" lon="-1.69774">
        <ele>5</ele>
        <time>2023-11-01T16:20:55Z</time>
      </trkpt>
      <trkpt lat="47.22551" lon="-1.69796">
        <ele>5</ele>
        <time>2023-11-01T16:21:21Z</time>
      </trkpt>
      <trkpt lat="47.22557" lon="-1.69823">
        <ele>6</ele>
        <time>2023-11-01T16:21:46Z</time>
      </trkpt>
      <trkpt lat="47.22566" lon="-1.69846">
        <ele>6</ele>
        <time>2023-11-01T16:22:10Z</time>
      </trkpt>
      <trkpt lat="47.22576" lon="-1.6987">
        <ele>6</ele>
        <time>2023-11-01T16:22:36Z</time>
      </trkpt>
      <trkpt lat="47.22589" lon="-1.6989">
        <ele>6</ele>
        <time>2023-11-01T16:23:01Z</time>
      </trkpt>
      <trkpt lat="47.22604" lon="-1.69905">
        <ele>6</ele>
        <time>2023-11-01T16:23:25Z</time>
      </trkpt>
      <trkpt lat="47.22615" lon="-1.69926">
        <ele>6</ele>
        <time>2023-11-01T16:23:49Z</time>
      </trkpt>
      <trkpt lat="47.22623" lon="-1.6995">
        <ele>6</ele>
        <time>2023-11-01T16:24:13Z</time>
      </trkpt>
      <trkpt lat="47.22665" lon="-1.70042">
        <ele>6</ele>
        <time>2023-11-01T16:25:54Z</time>
      </trkpt>
      <trkpt lat="47.2267" lon="-1.70067">
        <ele>6</ele>
        <time>2023-11-01T16:26:18Z</time>
      </trkpt>
      <trkpt lat="47.22679" lon="-1.70148">
        <ele>7</ele>
        <time>2023-11-01T16:27:32Z</time>
      </trkpt>
      <trkpt lat="47.22685" lon="-1.70174">
        <ele>7</ele>
        <time>2023-11-01T16:27:57Z</time>
      </trkpt>
      <trkpt lat="47.22689" lon="-1.70256">
        <ele>7</ele>
        <time>2023-11-01T16:29:11Z</time>
      </trkpt>
      <trkpt lat="47.22683" lon="-1.70282">
        <ele>6</ele>
        <time>2023-11-01T16:29:36Z</time>
      </trkpt>
      <trkpt lat="47.22681" lon="-1.7031">
        <ele>6</ele>
        <time>2023-11-01T16:30:02Z</time>
      </trkpt>
      <trkpt lat="47.22699" lon="-1.70306">
        <ele>6</ele>
        <time>2023-11-01T16:30:26Z</time>
      </trkpt>
      <trkpt lat="47.22712" lon="-1.70325">
        <ele>7</ele>
        <time>2023-11-01T16:30:50Z</time>
      </trkpt>
      <trkpt lat="47.22733" lon="-1.70371">
        <ele>8</ele>
        <time>2023-11-01T16:31:41Z</time>
      </trkpt>
      <trkpt lat="47.22744" lon="-1.70424">
        <ele>10</ele>
        <time>2023-11-01T16:32:31Z</time>
      </trkpt>
      <trkpt lat="47.22758" lon="-1.70441">
        <ele>11</ele>
        <time>2023-11-01T16:32:55Z</time>
      </trkpt>
      <trkpt lat="47.22777" lon="-1.70445">
        <ele>12</ele>
        <time>2023-11-01T16:33:21Z</time>
      </trkpt>
      <trkpt lat="47.22794" lon="-1.70453">
        <ele>12</ele>
        <time>2023-11-01T16:33:45Z</time>
      </trkpt>
      <trkpt lat="47.22811" lon="-1.70465">
        <ele>13</ele>
        <time>2023-11-01T16:34:10Z</time>
      </trkpt>
      <trkpt lat="47.22829" lon="-1.70471">
        <ele>14</ele>
        <time>2023-11-01T16:34:34Z</time>
      </trkpt>
      <trkpt lat="47.22885" lon="-1.70481">
        <ele>16</ele>
        <time>2023-11-01T16:35:50Z</time>
      </trkpt>
      <trkpt lat="47.22903" lon="-1.70482">
        <ele>17</ele>
        <time>2023-11-01T16:36:14Z</time>
      </trkpt>
      <trkpt lat="47.22975" lon="-1.70498">
        <ele>24</ele>
        <time>2023-11-01T16:37:51Z</time>
      </trkpt>
      <trkpt lat="47.2299" lon="-1.70482">
        <ele>24</ele>
        <time>2023-11-01T16:38:16Z</time>
      </trkpt>
      <trkpt lat="47.22998" lon="-1.70457">
        <ele>24</ele>
        <time>2023-11-01T16:38:41Z</time>
      </trkpt>
      <trkpt lat="47.2301" lon="-1.70351">
        <ele>24</ele>
        <time>2023-11-01T16:40:18Z</time>
      </trkpt>
      <trkpt lat="47.23028" lon="-1.70342">
        <ele>25</ele>
        <time>2023-11-01T16:40:43Z</time>
      </trkpt>
      <trkpt lat="47.23047" lon="-1.70336">
        <ele>27</ele>
        <time>2023-11-01T16:41:09Z</time>
      </trkpt>
      <trkpt lat="47.23039" lon="-1.70283">
        <ele>26</ele>
        <time>2023-11-01T16:41:58Z</time>
      </trkpt>
      <trkpt lat="47.23032" lon="-1.70258">
        <ele>25</ele>
        <time>2023-11-01T16:42:23Z</time>
      </trkpt>
      <trkpt lat="47.23029" lon="-1.70232">
        <ele>25</ele>
        <time>2023-11-01T16:42:47Z</time>
      </trkpt>
      <trkpt lat="47.23016" lon="-1.70182">
        <ele>24</ele>
        <time>2023-11-01T16:43:35Z</time>
      </trkpt>
      <trkpt lat="47.23013" lon="-1.70154">
        <ele>24</ele>
        <time>2023-11-01T16:44:01Z</time>
      </trkpt>
      <trkpt lat="47.22996" lon="-1.70076">
        <ele>23</ele>
        <time>2023-11-01T16:45:15Z</time>
      </trkpt>
      <trkpt lat="47.22993" lon="-1.7005">
        <ele>22</ele>
        <time>2023-11-01T16:45:39Z</time>
      </trkpt>
      <trkpt lat="47.2298" lon="-1.69998">
        <ele>21</ele>
        <time>2023-11-01T16:46:29Z</time>
      </trkpt>
      <trkpt lat="47.22956" lon="-1.69922">
        <ele>22</ele>
        <time>2023-11-01T16:47:45Z</time>
      </trkpt>
      <trkpt lat="47.22946" lon="-1.69899">
        <ele>22</ele>
        <time>2023-11-01T16:48:10Z</time>
      </trkpt>
      <trkpt lat="47.22939" lon="-1.69874">
        <ele>22</ele>
        <time>2023-11-01T16:48:35Z</time>
      </trkpt>
      <trkpt lat="47.22908" lon="-1.69803">
        <ele>20</ele>
        <time>2023-11-01T16:49:51Z</time>
      </trkpt>
      <trkpt lat="47.22876" lon="-1.69772">
        <ele>17</ele>
        <time>2023-11-01T16:50:42Z</time>
      </trkpt>
      <trkpt lat="47.22859" lon="-1.69762">
        <ele>16</ele>
        <time>2023-11-01T16:51:07Z</time>
      </trkpt>
      <trkpt lat="47.22843" lon="-1.69748">
        <ele>15</ele>
        <time>2023-11-01T16:51:31Z</time>
      </trkpt>
      <trkpt lat="47.22815" lon="-1.69675">
        <ele>14</ele>
        <time>2023-11-01T16:52:47Z</time>
      </trkpt>
      <trkpt lat="47.22809" lon="-1.69649">
        <ele>15</ele>
        <time>2023-11-01T16:53:12Z</time>
      </trkpt>
      <trkpt lat="47.2279" lon="-1.69602">
        <ele>17</ele>
        <time>2023-11-01T16:54:02Z</time>
      </trkpt>
      <trkpt lat="47.22756" lon="-1.69539">
        <ele>19</ele>
        <time>2023-11-01T16:55:15Z</time>
      </trkpt>
      <trkpt lat="47.22719" lon="-1.6948">
        <ele>19</ele>
        <time>2023-11-01T16:56:28Z</time>
      </trkpt>
      <trkpt lat="47.22705" lon="-1.69462">
        <ele>19</ele>
        <time>2023-11-01T16:56:52Z</time>
      </trkpt>
      <trkpt lat="47.22694" lon="-1.69441">
        <ele>19</ele>
        <time>2023-11-01T16:57:16Z</time>
      </trkpt>
      <trkpt lat="47.22683" lon="-1.69418">
        <ele>19</ele>
        <time>2023-11-01T16:57:42Z</time>
      </trkpt>
      <trkpt lat="47.22658" lon="-1.69344">
        <ele>20</ele>
        <time>2023-11-01T16:58:57Z</time>
      </trkpt>
      <trkpt lat="47.22647" lon="-1.69323">
        <ele>21</ele>
        <time>2023-11-01T16:59:21Z</time>
      </trkpt>
      <trkpt lat="47.22632" lon="-1.6934">
        <ele>20</ele>
        <time>2023-11-01T16:59:46Z</time>
      </trkpt>
      <trkpt lat="47.22615" lon="-1.6935">
        <ele>19</ele>
        <time>2023-11-01T17:00:11Z</time>
      </trkpt>
      <trkpt lat="47.2258" lon="-1.69333">
        <ele>19</ele>
        <time>2023-11-01T17:01:00Z</time>
      </trkpt>
      <trkpt lat="47.2258" lon="-1.69306">
        <ele>21</ele>
        <time>2023-11-01T17:01:24Z</time>
      </trkpt>
      <trkpt lat="47.22573" lon="-1.6928">
        <ele>22</ele>
        <time>2023-11-01T17:01:50Z</time>
      </trkpt>
      <trkpt lat="47.22502" lon="-1.69253">
        <ele>21</ele>
        <time>2023-11-01T17:03:27Z</time>
      </trkpt>
      <trkpt lat="47.22484" lon="-1.69249">
        <ele>20</ele>
        <time>2023-11-01T17:03:52Z</time>
      </trkpt>
      <trkpt lat="47.22467" lon="-1.69261">
        <ele>19</ele>
        <time>2023-11-01T17:04:17Z</time>
      </trkpt>
      <trkpt lat="47.22433" lon="-1.69325">
        <ele>16</ele>
        <time>2023-11-01T17:05:31Z</time>
      </trkpt>
      <trkpt lat="47.22417" lon="-1.69339">
        <ele>15</ele>
        <time>2023-11-01T17:05:55Z</time>
      </trkpt>
      <trkpt lat="47.22381" lon="-1.69349">
        <ele>12</ele>
        <time>2023-11-01T17:06:44Z</time>
      </trkpt>
      <trkpt lat="47.22362" lon="-1.69343">
        <ele>12</ele>
        <time>2023-11-01T17:07:10Z</time>
      </trkpt>
      <trkpt lat="47.22325" lon="-1.69343">
        <ele>11</ele>
        <time>2023-11-01T17:08:00Z</time>
      </trkpt>
      <trkpt lat="47.22252" lon="-1.69352">
        <ele>9</ele>
        <time>2023-11-01T17:09:37Z</time>
      </trkpt>
      <trkpt lat="47.22233" lon="-1.69351">
        <ele>10</ele>
        <time>2023-11-01T17:10:03Z</time>
      </trkpt>
      <trkpt lat="47.22216" lon="-1.69344">
        <ele>11</ele>
        <time>2023-11-01T17:10:26Z</time>
      </trkpt>
      <trkpt lat="47.22183" lon="-1.69369">
        <ele>12</ele>
        <time>2023-11-01T17:11:16Z</time>
      </trkpt>
      <trkpt lat="47.22171" lon="-1.69391">
        <ele>12</ele>
        <time>2023-11-01T17:11:41Z</time>
      </trkpt>
      <trkpt lat="47.22156" lon="-1.69408">
        <ele>14</ele>
        <time>2023-11-01T17:12:07Z</time>
      </trkpt>
      <trkpt lat="47.22146" lon="-1.69431">
        <ele>14</ele>
        <time>2023-11-01T17:12:31Z</time>
      </trkpt>
      <trkpt lat="47.22132" lon="-1.69447">
        <ele>15</ele>
        <time>2023-11-01T17:12:55Z</time>
      </trkpt>
      <trkpt lat="47.22098" lon="-1.6947">
        <ele>19</ele>
        <time>2023-11-01T17:13:45Z</time>
      </trkpt>
      <trkpt lat="47.22084" lon="-1.69487">
        <ele>21</ele>
        <time>2023-11-01T17:14:09Z</time>
      </trkpt>
      <trkpt lat="47.22049" lon="-1.69502">
        <ele>22</ele>
        <time>2023-11-01T17:14:58Z</time>
      </trkpt>
      <trkpt lat="47.22032" lon="-1.69514">
        <ele>22</ele>
        <time>2023-11-01T17:15:23Z</time>
      </trkpt>
      <trkpt lat="47.22013" lon="-1.69518">
        <ele>23</ele>
        <time>2023-11-01T17:15:49Z</time>
      </trkpt>
      <trkpt lat="47.21995" lon="-1.69515">
        <ele>23</ele>
        <time>2023-11-01T17:16:13Z</time>
      </trkpt>
      <trkpt lat="47.21978" lon="-1.69522">
        <ele>24</ele>
        <time>2023-11-01T17:16:36Z</time>
      </trkpt>
      <trkpt lat="47.21913" lon="-1.6958">
        <ele>28</ele>
        <time>2023-11-01T17:18:18Z</time>
      </trkpt>
      <trkpt lat="47.21895" lon="-1.69586">
        <ele>29</ele>
        <time>2023-11-01T17:18:42Z</time>
      </trkpt>
      <trkpt lat="47.21878" lon="-1.69596">
        <ele>30</ele>
        <time>2023-11-01T17:19:07Z</time>
      </trkpt>
      <trkpt lat="47.21862" lon="-1.6961">
        <ele>31</ele>
        <time>2023-11-01T17:19:32Z</time>
      </trkpt>
      <trkpt lat="47.21846" lon="-1.6962">
        <ele>31</ele>
        <time>2023-11-01T17:19:55Z</time>
      </trkpt>
      <trkpt lat="47.21828" lon="-1.69628">
        <ele>31</ele>
        <time>2023-11-01T17:20:20Z</time>
      </trkpt>
      <trkpt lat="47.21809" lon="-1.69625">
        <ele>32</ele>
        <time>2023-11-01T17:20:45Z</time>
      </trkpt>
      <trkpt lat="47.21791" lon="-1.69631">
        <ele>32</ele>
        <time>2023-11-01T17:21:10Z</time>
      </trkpt>
      <trkpt lat="47.21774" lon="-1.69641">
        <ele>32</ele>
        <time>2023-11-01T17:21:34Z</time>
      </trkpt>
      <trkpt lat="47.21758" lon="-1.69654">
        <ele>31</ele>
        <time>2023-11-01T17:21:59Z</time>
      </trkpt>
      <trkpt lat="47.2176" lon="-1.69737">
        <ele>31</ele>
        <time>2023-11-01T17:23:14Z</time>
      </trkpt>
      <trkpt lat="47.2177" lon="-1.69873">
        <ele>27</ele>
        <time>2023-11-01T17:25:18Z</time>
      </trkpt>
      <trkpt lat="47.2178" lon="-1.69896">
        <ele>27</ele>
        <time>2023-11-01T17:25:43Z</time>
      </trkpt>
      <trkpt lat="47.21793" lon="-1.69915">
        <ele>26</ele>
        <time>2023-11-01T17:26:07Z</time>
      </trkpt>
      <trkpt lat="47.21803" lon="-1.69966">
        <ele>23</ele>
        <time>2023-11-01T17:26:55Z</time>
      </trkpt>
      <trkpt lat="47.21801" lon="-1.69993">
        <ele>22</ele>
        <time>2023-11-01T17:27:20Z</time>
      </trkpt>
      <trkpt lat="47.21771" lon="-1.70027">
        <ele>22</ele>
        <time>2023-11-01T17:28:11Z</time>
      </trkpt>
      <trkpt lat="47.21758" lon="-1.70046">
        <ele>22</ele>
        <time>2023-11-01T17:28:35Z</time>
      </trkpt>
      <trkpt lat="47.21726" lon="-1.70076">
        <ele>24</ele>
        <time>2023-11-01T17:29:26Z</time>
      </trkpt>
      <trkpt lat="47.2169" lon="-1.70095">
        <ele>25</ele>
        <time>2023-11-01T17:30:17Z</time>
      </trkpt>
      <trkpt lat="47.21654" lon="-1.70104">
        <ele>27</ele>
        <time>2023-11-01T17:31:05Z</time>
      </trkpt>
      <trkpt lat="47.21636" lon="-1.70113">
        <ele>27</ele>
        <time>2023-11-01T17:31:31Z</time>
      </trkpt>
      <trkpt lat="47.21603" lon="-1.70138">
        <ele>27</ele>
        <time>2023-11-01T17:32:20Z</time>
      </trkpt>
      <trkpt lat="47.21592" lon="-1.70161">
        <ele>27</ele>
        <time>2023-11-01T17:32:46Z</time>
      </trkpt>
      <trkpt lat="47.21578" lon="-1.70179">
        <ele>27</ele>
        <time>2023-11-01T17:33:11Z</time>
      </trkpt>
      <trkpt lat="47.21543" lon="-1.70201">
        <ele>26</ele>
        <time>2023-11-01T17:34:01Z</time>
      </trkpt>
      <trkpt lat="47.21527" lon="-1.70214">
        <ele>25</ele>
        <time>2023-11-01T17:34:26Z</time>
      </trkpt>
      <trkpt lat="47.21509" lon="-1.70222">
        <ele>25</ele>
        <time>2023-11-01T17:34:51Z</time>
      </trkpt>
      <trkpt lat="47.21492" lon="-1.70233">
        <ele>24</ele>
        <time>2023-11-01T17:35:16Z</time>
      </trkpt>
      <trkpt lat="47.21458" lon="-1.70257">
        <ele>20</ele>
        <time>2023-11-01T17:36:06Z</time>
      </trkpt>
      <trkpt lat="47.21424" lon="-1.70276">
        <ele>17</ele>
        <time>2023-11-01T17:36:54Z</time>
      </trkpt>
      <trkpt lat="47.21372" lon="-1.703">
        <ele>13</ele>
        <time>2023-11-01T17:38:07Z</time>
      </trkpt>
      <trkpt lat="47.21363" lon="-1.70323">
        <ele>11</ele>
        <time>2023-11-01T17:38:31Z</time>
      </trkpt>
      <trkpt lat="47.21346" lon="-1.70429">
        <ele>8</ele>
        <time>2023-11-01T17:40:10Z</time>
      </trkpt>
      <trkpt lat="47.21336" lon="-1.70508">
        <ele>11</ele>
        <time>2023-11-01T17:41:23Z</time>
      </trkpt>
      <trkpt lat="47.21338" lon="-1.70536">
        <ele>12</ele>
        <time>2023-11-01T17:41:48Z</time>
      </trkpt>
      <trkpt lat="47.21344" lon="-1.70563">
        <ele>12</ele>
        <time>2023-11-01T17:42:14Z</time>
      </trkpt>
      <trkpt lat="47.21353" lon="-1.70588">
        <ele>13</ele>
        <time>2023-11-01T17:42:40Z</time>
      </trkpt>
      <trkpt lat="47.21357" lon="-1.70614">
        <ele>14</ele>
        <time>2023-11-01T17:43:04Z</time>
      </trkpt>
      <trkpt lat="47.21359" lon="-1.70641">
        <ele>15</ele>
        <time>2023-11-01T17:43:29Z</time>
      </trkpt>
      <trkpt lat="47.21358" lon="-1.70669">
        <ele>16</ele>
        <time>2023-11-01T17:43:54Z</time>
      </trkpt>
      <trkpt lat="47.21353" lon="-1.70695">
        <ele>17</ele>
        <time>2023-11-01T17:44:18Z</time>
      </trkpt>
      <trkpt lat="47.21335" lon="-1.70743">
        <ele>20</ele>
        <time>2023-11-01T17:45:08Z</time>
      </trkpt>
      <trkpt lat="47.2132" lon="-1.70793">
        <ele>22</ele>
        <time>2023-11-01T17:45:58Z</time>
      </trkpt>
      <trkpt lat="47.21318" lon="-1.7082">
        <ele>23</ele>
        <time>2023-11-01T17:46:22Z</time>
      </trkpt>
      <trkpt lat="47.213" lon="-1.70867">
        <ele>24</ele>
        <time>2023-11-01T17:47:11Z</time>
      </trkpt>
      <trkpt lat="47.21304" lon="-1.70894">
        <ele>25</ele>
        <time>2023-11-01T17:47:36Z</time>
      </trkpt>
      <trkpt lat="47.21293" lon="-1.70916">
        <ele>26</ele>
        <time>2023-11-01T17:48:01Z</time>
      </trkpt>
      <trkpt lat="47.21279" lon="-1.70933">
        <ele>27</ele>
        <time>2023-11-01T17:48:25Z</time>
      </trkpt>
      <trkpt lat="47.21273" lon="-1.70989">
        <ele>28</ele>
        <time>2023-11-01T17:49:17Z</time>
      </trkpt>
      <trkpt lat="47.21273" lon="-1.71043">
        <ele>28</ele>
        <time>2023-11-01T17:50:06Z</time>
      </trkpt>
      <trkpt lat="47.21267" lon="-1.71097">
        <ele>28</ele>
        <time>2023-11-01T17:50:55Z</time>
      </trkpt>
      <trkpt lat="47.21261" lon="-1.71122">
        <ele>28</ele>
        <time>2023-11-01T17:51:19Z</time>
      </trkpt>
      <trkpt lat="47.21246" lon="-1.71228">
        <ele>25</ele>
        <time>2023-11-01T17:52:57Z</time>
      </trkpt>
      <trkpt lat="47.21233" lon="-1.71246">
        <ele>24</ele>
        <time>2023-11-01T17:53:21Z</time>
      </trkpt>
      <trkpt lat="47.21198" lon="-1.71262">
        <ele>23</ele>
        <time>2023-11-01T17:54:10Z</time>
      </trkpt>
      <trkpt lat="47.21167" lon="-1.71294">
        <ele>22</ele>
        <time>2023-11-01T17:55:01Z</time>
      </trkpt>
      <trkpt lat="47.21149" lon="-1.71303">
        <ele>21</ele>
        <time>2023-11-01T17:55:26Z</time>
      </trkpt>
      <trkpt lat="47.21138" lon="-1.71324">
        <ele>20</ele>
        <time>2023-11-01T17:55:50Z</time>
      </trkpt>
      <trkpt lat="47.21112" lon="-1.71362">
        <ele>18</ele>
        <time>2023-11-01T17:56:39Z</time>
      </trkpt>
      <trkpt lat="47.21106" lon="-1.71389">
        <ele>17</ele>
        <time>2023-11-01T17:57:05Z</time>
      </trkpt>
      <trkpt lat="47.21102" lon="-1.71606">
        <ele>25</ele>
        <time>2023-11-01T18:00:21Z</time>
      </trkpt>
      <trkpt lat="47.21103" lon="-1.71687">
        <ele>28</ele>
        <time>2023-11-01T18:01:35Z</time>
      </trkpt>
      <trkpt lat="47.21099" lon="-1.71714">
        <ele>28</ele>
        <time>2023-11-01T18:02:00Z</time>
      </trkpt>
      <trkpt lat="47.21099" lon="-1.7177">
        <ele>28</ele>
        <time>2023-11-01T18:02:51Z</time>
      </trkpt>
      <trkpt lat="47.21111" lon="-1.71879">
        <ele>27</ele>
        <time>2023-11-01T18:04:31Z</time>
      </trkpt>
      <trkpt lat="47.21105" lon="-1.71906">
        <ele>27</ele>
        <time>2023-11-01T18:04:57Z</time>
      </trkpt>
      <trkpt lat="47.21036" lon="-1.7195">
        <ele>24</ele>
        <time>2023-11-01T18:06:37Z</time>
      </trkpt>
      <trkpt lat="47.2103" lon="-1.71976">
        <ele>23</ele>
        <time>2023-11-01T18:07:02Z</time>
      </trkpt>
      <trkpt lat="47.21015" lon="-1.71994">
        <ele>23</ele>
        <time>2023-11-01T18:07:28Z</time>
      </trkpt>
      <trkpt lat="47.21009" lon="-1.72019">
        <ele>21</ele>
        <time>2023-11-01T18:07:52Z</time>
      </trkpt>
      <trkpt lat="47.21008" lon="-1.72046">
        <ele>20</ele>
        <time>2023-11-01T18:08:16Z</time>
      </trkpt>
      <trkpt lat="47.21011" lon="-1.72099">
        <ele>19</ele>
        <time>2023-11-01T18:09:04Z</time>
      </trkpt>
      <trkpt lat="47.21015" lon="-1.72127">
        <ele>19</ele>
        <time>2023-11-01T18:09:30Z</time>
      </trkpt>
      <trkpt lat="47.21028" lon="-1.72179">
        <ele>20</ele>
        <time>2023-11-01T18:10:21Z</time>
      </trkpt>
      <trkpt lat="47.21026" lon="-1.72208">
        <ele>20</ele>
        <time>2023-11-01T18:10:47Z</time>
      </trkpt>
      <trkpt lat="47.21017" lon="-1.72232">
        <ele>19</ele>
        <time>2023-11-01T18:11:12Z</time>
      </trkpt>
      <trkpt lat="47.21022" lon="-1.72314">
        <ele>18</ele>
        <time>2023-11-01T18:12:26Z</time>
      </trkpt>
      <trkpt lat="47.21026" lon="-1.72341">
        <ele>19</ele>
        <time>2023-11-01T18:12:51Z</time>
      </trkpt>
      <trkpt lat="47.21024" lon="-1.72368">
        <ele>19</ele>
        <time>2023-11-01T18:13:16Z</time>
      </trkpt>
      <trkpt lat="47.21026" lon="-1.72395">
        <ele>19</ele>
        <time>2023-11-01T18:13:41Z</time>
      </trkpt>
      <trkpt lat="47.21032" lon="-1.72421">
        <ele>19</ele>
        <time>2023-11-01T18:14:06Z</time>
      </trkpt>
      <trkpt lat="47.21033" lon="-1.72448">
        <ele>18</ele>
        <time>2023-11-01T18:14:30Z</time>
      </trkpt>
      <trkpt lat="47.21045" lon="-1.72501">
        <ele>17</ele>
        <time>2023-11-01T18:15:21Z</time>
      </trkpt>
      <trkpt lat="47.21053" lon="-1.72525">
        <ele>17</ele>
        <time>2023-11-01T18:15:45Z</time>
      </trkpt>
      <trkpt lat="47.21068" lon="-1.72541">
        <ele>18</ele>
        <time>2023-11-01T18:16:10Z</time>
      </trkpt>
      <trkpt lat="47.2108" lon="-1.72562">
        <ele>18</ele>
        <time>2023-11-01T18:16:35Z</time>
      </trkpt>
      <trkpt lat="47.21081" lon="-1.72617">
        <ele>17</ele>
        <time>2023-11-01T18:17:24Z</time>
      </trkpt>
      <trkpt lat="47.21087" lon="-1.72643">
        <ele>16</ele>
        <time>2023-11-01T18:17:49Z</time>
      </trkpt>
      <trkpt lat="47.21096" lon="-1.72667">
        <ele>16</ele>
        <time>2023-11-01T18:18:14Z</time>
      </trkpt>
      <trkpt lat="47.21095" lon="-1.72694">
        <ele>16</ele>
        <time>2023-11-01T18:18:39Z</time>
      </trkpt>
      <trkpt lat="47.21091" lon="-1.7272">
        <ele>16</ele>
        <time>2023-11-01T18:19:03Z</time>
      </trkpt>
      <trkpt lat="47.21079" lon="-1.72742">
        <ele>16</ele>
        <time>2023-11-01T18:19:28Z</time>
      </trkpt>
      <trkpt lat="47.21043" lon="-1.72752">
        <ele>14</ele>
        <time>2023-11-01T18:20:17Z</time>
      </trkpt>
      <trkpt lat="47.21023" lon="-1.72752">
        <ele>13</ele>
        <time>2023-11-01T18:20:44Z</time>
      </trkpt>
      <trkpt lat="47.21006" lon="-1.72762">
        <ele>12</ele>
        <time>2023-11-01T18:21:08Z</time>
      </trkpt>
      <trkpt lat="47.20988" lon="-1.72762">
        <ele>11</ele>
        <time>2023-11-01T18:21:33Z</time>
      </trkpt>
      <trkpt lat="47.20973" lon="-1.72776">
        <ele>11</ele>
        <time>2023-11-01T18:21:56Z</time>
      </trkpt>
      <trkpt lat="47.20954" lon="-1.7278">
        <ele>9</ele>
        <time>2023-11-01T18:22:22Z</time>
      </trkpt>
      <trkpt lat="47.20937" lon="-1.7279">
        <ele>8</ele>
        <time>2023-11-01T18:22:46Z</time>
      </trkpt>
      <trkpt lat="47.20924" lon="-1.72809">
        <ele>7</ele>
        <time>2023-11-01T18:23:11Z</time>
      </trkpt>
      <trkpt lat="47.20873" lon="-1.72845">
        <ele>4</ele>
        <time>2023-11-01T18:24:26Z</time>
      </trkpt>
      <trkpt lat="47.20858" lon="-1.7286">
        <ele>3</ele>
        <time>2023-11-01T18:24:50Z</time>
      </trkpt>
      <trkpt lat="47.20859" lon="-1.72887">
        <ele>2</ele>
        <time>2023-11-01T18:25:15Z</time>
      </trkpt>
      <trkpt lat="47.20867" lon="-1.72912">
        <ele>2</ele>
        <time>2023-11-01T18:25:40Z</time>
      </trkpt>
      <trkpt lat="47.20885" lon="-1.72921">
        <ele>3</ele>
        <time>2023-11-01T18:26:05Z</time>
      </trkpt>
      <trkpt lat="47.20903" lon="-1.72914">
        <ele>4</ele>
        <time>2023-11-01T18:26:30Z</time>
      </trkpt>
      <trkpt lat="47.20923" lon="-1.7296">
        <ele>4</ele>
        <time>2023-11-01T18:27:20Z</time>
      </trkpt>
      <trkpt lat="47.20935" lon="-1.7301">
        <ele>4</ele>
        <time>2023-11-01T18:28:08Z</time>
      </trkpt>
      <trkpt lat="47.20952" lon="-1.73059">
        <ele>5</ele>
        <time>2023-11-01T18:28:58Z</time>
      </trkpt>
    </trkseg>
  </trk>
  <trk>
    <name><![CDATA[CoueronChabossiereEssai_8km-9678719]]></name>
    <extensions>
      <line xmlns="http://www.topografix.com/GPX/gpx_style/0/2">
        <color>00FFFF</color>
        <width>4</width>
      </line>
    </extensions>
    <trkseg>
      <trkpt lat="47.21544" lon="-1.68263">
        <ele>27</ele>
        <time>2023-11-02T10:01:54Z</time>
      </trkpt>
      <trkpt lat="47.21529" lon="-1.68152">
        <ele>28</ele>
        <time>2023-11-02T10:03:37Z</time>
      </trkpt>
      <trkpt lat="47.21568" lon="-1.67944">
        <ele>30</ele>
        <time>2023-11-02T10:06:52Z</time>
      </trkpt>
      <trkpt lat="47.21662" lon="-1.67951">
        <ele>29</ele>
        <time>2023-11-02T10:08:58Z</time>
      </trkpt>
      <trkpt lat="47.21719" lon="-1.67968">
        <ele>29</ele>
        <time>2023-11-02T10:10:15Z</time>
      </trkpt>
      <trkpt lat="47.21738" lon="-1.67607">
        <ele>21</ele>
        <time>2023-11-02T10:15:44Z</time>
      </trkpt>
      <trkpt lat="47.218" lon="-1.67607">
        <ele>20</ele>
        <time>2023-11-02T10:17:06Z</time>
      </trkpt>
      <trkpt lat="47.21801" lon="-1.67579">
        <ele>19</ele>
        <time>2023-11-02T10:17:32Z</time>
      </trkpt>
      <trkpt lat="47.21778" lon="-1.67546">
        <ele>18</ele>
        <time>2023-11-02T10:18:15Z</time>
      </trkpt>
      <trkpt lat="47.21738" lon="-1.67527">
        <ele>17</ele>
        <time>2023-11-02T10:19:11Z</time>
      </trkpt>
      <trkpt lat="47.21752" lon="-1.67429">
        <ele>13</ele>
        <time>2023-11-02T10:20:41Z</time>
      </trkpt>
      <trkpt lat="47.21839" lon="-1.67484">
        <ele>18</ele>
        <time>2023-11-02T10:22:48Z</time>
      </trkpt>
      <trkpt lat="47.2193" lon="-1.67437">
        <ele>22</ele>
        <time>2023-11-02T10:24:56Z</time>
      </trkpt>
      <trkpt lat="47.22072" lon="-1.67408">
        <ele>21</ele>
        <time>2023-11-02T10:28:08Z</time>
      </trkpt>
      <trkpt lat="47.22116" lon="-1.67447">
        <ele>20</ele>
        <time>2023-11-02T10:29:16Z</time>
      </trkpt>
      <trkpt lat="47.22184" lon="-1.67432">
        <ele>18</ele>
        <time>2023-11-02T10:30:48Z</time>
      </trkpt>
      <trkpt lat="47.22269" lon="-1.67481">
        <ele>21</ele>
        <time>2023-11-02T10:32:50Z</time>
      </trkpt>
      <trkpt lat="47.22289" lon="-1.67459">
        <ele>21</ele>
        <time>2023-11-02T10:33:23Z</time>
      </trkpt>
      <trkpt lat="47.22376" lon="-1.6744">
        <ele>25</ele>
        <time>2023-11-02T10:35:21Z</time>
      </trkpt>
      <trkpt lat="47.22446" lon="-1.67405">
        <ele>27</ele>
        <time>2023-11-02T10:36:59Z</time>
      </trkpt>
      <trkpt lat="47.2254" lon="-1.67401">
        <ele>30</ele>
        <time>2023-11-02T10:39:05Z</time>
      </trkpt>
      <trkpt lat="47.22629" lon="-1.6741">
        <ele>34</ele>
        <time>2023-11-02T10:41:04Z</time>
      </trkpt>
      <trkpt lat="47.22718" lon="-1.67452">
        <ele>39</ele>
        <time>2023-11-02T10:43:08Z</time>
      </trkpt>
      <trkpt lat="47.22793" lon="-1.67529">
        <ele>44</ele>
        <time>2023-11-02T10:45:10Z</time>
      </trkpt>
      <trkpt lat="47.22816" lon="-1.67634">
        <ele>45</ele>
        <time>2023-11-02T10:46:50Z</time>
      </trkpt>
      <trkpt lat="47.22861" lon="-1.67702">
        <ele>47</ele>
        <time>2023-11-02T10:48:17Z</time>
      </trkpt>
      <trkpt lat="47.22955" lon="-1.67818">
        <ele>49</ele>
        <time>2023-11-02T10:51:00Z</time>
      </trkpt>
      <trkpt lat="47.22994" lon="-1.67868">
        <ele>49</ele>
        <time>2023-11-02T10:52:09Z</time>
      </trkpt>
      <trkpt lat="47.23035" lon="-1.68028">
        <ele>50</ele>
        <time>2023-11-02T10:54:44Z</time>
      </trkpt>
      <trkpt lat="47.23047" lon="-1.68104">
        <ele>49</ele>
        <time>2023-11-02T10:55:55Z</time>
      </trkpt>
      <trkpt lat="47.23058" lon="-1.68149">
        <ele>48</ele>
        <time>2023-11-02T10:56:38Z</time>
      </trkpt>
      <trkpt lat="47.23071" lon="-1.6819">
        <ele>48</ele>
        <time>2023-11-02T10:57:19Z</time>
      </trkpt>
      <trkpt lat="47.23093" lon="-1.68271">
        <ele>48</ele>
        <time>2023-11-02T10:58:38Z</time>
      </trkpt>
      <trkpt lat="47.23114" lon="-1.6834">
        <ele>47</ele>
        <time>2023-11-02T10:59:47Z</time>
      </trkpt>
      <trkpt lat="47.23118" lon="-1.68485">
        <ele>47</ele>
        <time>2023-11-02T11:01:58Z</time>
      </trkpt>
      <trkpt lat="47.23116" lon="-1.68545">
        <ele>47</ele>
        <time>2023-11-02T11:02:53Z</time>
      </trkpt>
      <trkpt lat="47.23182" lon="-1.68655">
        <ele>47</ele>
        <time>2023-11-02T11:05:06Z</time>
      </trkpt>
      <trkpt lat="47.23099" lon="-1.68702">
        <ele>44</ele>
        <time>2023-11-02T11:07:04Z</time>
      </trkpt>
      <trkpt lat="47.2301" lon="-1.68748">
        <ele>41</ele>
        <time>2023-11-02T11:09:10Z</time>
      </trkpt>
      <trkpt lat="47.23061" lon="-1.68856">
        <ele>41</ele>
        <time>2023-11-02T11:11:09Z</time>
      </trkpt>
      <trkpt lat="47.23079" lon="-1.68953">
        <ele>40</ele>
        <time>2023-11-02T11:12:41Z</time>
      </trkpt>
      <trkpt lat="47.23096" lon="-1.69018">
        <ele>40</ele>
        <time>2023-11-02T11:13:44Z</time>
      </trkpt>
      <trkpt lat="47.23134" lon="-1.69111">
        <ele>38</ele>
        <time>2023-11-02T11:15:22Z</time>
      </trkpt>
      <trkpt lat="47.23092" lon="-1.69164">
        <ele>36</ele>
        <time>2023-11-02T11:16:36Z</time>
      </trkpt>
      <trkpt lat="47.23032" lon="-1.6925">
        <ele>35</ele>
        <time>2023-11-02T11:18:28Z</time>
      </trkpt>
      <trkpt lat="47.23017" lon="-1.69367">
        <ele>35</ele>
        <time>2023-11-02T11:20:15Z</time>
      </trkpt>
      <trkpt lat="47.22993" lon="-1.69405">
        <ele>34</ele>
        <time>2023-11-02T11:21:03Z</time>
      </trkpt>
      <trkpt lat="47.2293" lon="-1.69483">
        <ele>29</ele>
        <time>2023-11-02T11:22:52Z</time>
      </trkpt>
      <trkpt lat="47.22781" lon="-1.69322">
        <ele>29</ele>
        <time>2023-11-02T11:26:59Z</time>
      </trkpt>
      <trkpt lat="47.2275" lon="-1.69245">
        <ele>29</ele>
        <time>2023-11-02T11:28:20Z</time>
      </trkpt>
      <trkpt lat="47.22728" lon="-1.69246">
        <ele>28</ele>
        <time>2023-11-02T11:28:49Z</time>
      </trkpt>
      <trkpt lat="47.22705" lon="-1.69299">
        <ele>25</ele>
        <time>2023-11-02T11:29:46Z</time>
      </trkpt>
      <trkpt lat="47.22666" lon="-1.6935">
        <ele>20</ele>
        <time>2023-11-02T11:30:56Z</time>
      </trkpt>
      <trkpt lat="47.22688" lon="-1.6942">
        <ele>19</ele>
        <time>2023-11-02T11:32:06Z</time>
      </trkpt>
      <trkpt lat="47.22736" lon="-1.69499">
        <ele>20</ele>
        <time>2023-11-02T11:33:42Z</time>
      </trkpt>
      <trkpt lat="47.22802" lon="-1.69608">
        <ele>17</ele>
        <time>2023-11-02T11:35:54Z</time>
      </trkpt>
      <trkpt lat="47.22819" lon="-1.69714">
        <ele>14</ele>
        <time>2023-11-02T11:37:33Z</time>
      </trkpt>
      <trkpt lat="47.22882" lon="-1.69788">
        <ele>18</ele>
        <time>2023-11-02T11:39:21Z</time>
      </trkpt>
      <trkpt lat="47.22825" lon="-1.69829">
        <ele>13</ele>
        <time>2023-11-02T11:40:45Z</time>
      </trkpt>
      <trkpt lat="47.2277" lon="-1.69861">
        <ele>10</ele>
        <time>2023-11-02T11:42:04Z</time>
      </trkpt>
      <trkpt lat="47.22738" lon="-1.6991">
        <ele>9</ele>
        <time>2023-11-02T11:43:06Z</time>
      </trkpt>
      <trkpt lat="47.22675" lon="-1.69923">
        <ele>7</ele>
        <time>2023-11-02T11:44:31Z</time>
      </trkpt>
      <trkpt lat="47.22683" lon="-1.70052">
        <ele>7</ele>
        <time>2023-11-02T11:46:28Z</time>
      </trkpt>
      <trkpt lat="47.22639" lon="-1.69957">
        <ele>7</ele>
        <time>2023-11-02T11:48:12Z</time>
      </trkpt>
      <trkpt lat="47.22568" lon="-1.69856">
        <ele>6</ele>
        <time>2023-11-02T11:50:24Z</time>
      </trkpt>
      <trkpt lat="47.22525" lon="-1.69726">
        <ele>5</ele>
        <time>2023-11-02T11:52:35Z</time>
      </trkpt>
      <trkpt lat="47.2245" lon="-1.69578">
        <ele>6</ele>
        <time>2023-11-02T11:55:22Z</time>
      </trkpt>
      <trkpt lat="47.22394" lon="-1.69466">
        <ele>6</ele>
        <time>2023-11-02T11:57:28Z</time>
      </trkpt>
      <trkpt lat="47.22351" lon="-1.69446">
        <ele>7</ele>
        <time>2023-11-02T11:58:29Z</time>
      </trkpt>
      <trkpt lat="47.22336" lon="-1.69348">
        <ele>11</ele>
        <time>2023-11-02T12:00:00Z</time>
      </trkpt>
      <trkpt lat="47.22422" lon="-1.69331">
        <ele>15</ele>
        <time>2023-11-02T12:01:55Z</time>
      </trkpt>
      <trkpt lat="47.22447" lon="-1.69297">
        <ele>17</ele>
        <time>2023-11-02T12:02:41Z</time>
      </trkpt>
      <trkpt lat="47.2249" lon="-1.69236">
        <ele>21</ele>
        <time>2023-11-02T12:04:01Z</time>
      </trkpt>
      <trkpt lat="47.2256" lon="-1.6927">
        <ele>23</ele>
        <time>2023-11-02T12:05:39Z</time>
      </trkpt>
      <trkpt lat="47.22592" lon="-1.69267">
        <ele>24</ele>
        <time>2023-11-02T12:06:22Z</time>
      </trkpt>
      <trkpt lat="47.22609" lon="-1.69235">
        <ele>25</ele>
        <time>2023-11-02T12:06:59Z</time>
      </trkpt>
      <trkpt lat="47.22607" lon="-1.69172">
        <ele>26</ele>
        <time>2023-11-02T12:07:56Z</time>
      </trkpt>
      <trkpt lat="47.22566" lon="-1.69114">
        <ele>24</ele>
        <time>2023-11-02T12:09:12Z</time>
      </trkpt>
      <trkpt lat="47.22471" lon="-1.69158">
        <ele>21</ele>
        <time>2023-11-02T12:11:24Z</time>
      </trkpt>
      <trkpt lat="47.22322" lon="-1.69115">
        <ele>20</ele>
        <time>2023-11-02T12:14:47Z</time>
      </trkpt>
      <trkpt lat="47.22269" lon="-1.69023">
        <ele>22</ele>
        <time>2023-11-02T12:16:36Z</time>
      </trkpt>
      <trkpt lat="47.22229" lon="-1.68942">
        <ele>22</ele>
        <time>2023-11-02T12:18:07Z</time>
      </trkpt>
      <trkpt lat="47.22183" lon="-1.6892">
        <ele>24</ele>
        <time>2023-11-02T12:19:12Z</time>
      </trkpt>
      <trkpt lat="47.22063" lon="-1.68852">
        <ele>25</ele>
        <time>2023-11-02T12:22:03Z</time>
      </trkpt>
      <trkpt lat="47.22042" lon="-1.68836">
        <ele>24</ele>
        <time>2023-11-02T12:22:35Z</time>
      </trkpt>
      <trkpt lat="47.22017" lon="-1.68755">
        <ele>26</ele>
        <time>2023-11-02T12:23:56Z</time>
      </trkpt>
      <trkpt lat="47.21999" lon="-1.68674">
        <ele>26</ele>
        <time>2023-11-02T12:25:13Z</time>
      </trkpt>
      <trkpt lat="47.21995" lon="-1.68545">
        <ele>27</ele>
        <time>2023-11-02T12:27:10Z</time>
      </trkpt>
      <trkpt lat="47.21886" lon="-1.68376">
        <ele>28</ele>
        <time>2023-11-02T12:30:41Z</time>
      </trkpt>
      <trkpt lat="47.21857" lon="-1.68337">
        <ele>28</ele>
        <time>2023-11-02T12:31:33Z</time>
      </trkpt>
      <trkpt lat="47.21797" lon="-1.68235">
        <ele>30</ele>
        <time>2023-11-02T12:33:36Z</time>
      </trkpt>
      <trkpt lat="47.21677" lon="-1.68198">
        <ele>32</ele>
        <time>2023-11-02T12:36:19Z</time>
      </trkpt>
      <trkpt lat="47.21532" lon="-1.68175">
        <ele>28</ele>
        <time>2023-11-02T12:39:34Z</time>
      </trkpt>
      <trkpt lat="47.21562" lon="-1.68283">
        <ele>28</ele>
        <time>2023-11-02T12:41:20Z</time>
      </trkpt>
    </trkseg>
  </trk>
  <trk>
    <name><![CDATA[Coueron_LacBeaulieuBourgD1_11km]]></name>
    <desc><![CDATA[D1 le 17/03/24 <p>Heure de départ: 03/17/2024 08:56<br/>Heure d'arrivée: 03/17/2024 12:10<br/>Distance: 11,1 km (02:37)<br/>Temps déplacement: 02:17<br/>Vitesse moyenne: 4,23 km/h<br/>Vitesse moyenne mouv.: 4,86 km/h<br/>Vitesse Max.: 6,8 km/h<br/>Altitude minimale: 1 m<br/>Altitude maximale: 33 m<br/>Vitesse de montée: 120,3 m/h<br/>Vitesse de descente: -102,4 m/h<br/>Gain d'altitude: 123 m<br/>Perte d'altitude: -125 m<br/>Temps de montée: 01:01<br/>Temps de descente: 01:13<br/></p><hr align="center" width="480" style="height: 2px; width: 517px"/>]]></desc>
    <extensions>
      <line xmlns="http://www.topografix.com/GPX/gpx_style/0/2">
        <color>800080</color>
        <width>4</width>
      </line>
    </extensions>
    <trkseg>
      <trkpt lat="47.2089" lon="-1.71941">
        <ele>11</ele>
        <time>2024-03-17T07:56:37Z</time>
      </trkpt>
      <trkpt lat="47.20869" lon="-1.71926">
        <ele>11</ele>
        <time>2024-03-17T07:56:57Z</time>
      </trkpt>
      <trkpt lat="47.20853" lon="-1.71906">
        <ele>9.18</ele>
        <time>2024-03-17T07:57:21Z</time>
      </trkpt>
      <trkpt lat="47.20848" lon="-1.71878">
        <ele>9</ele>
        <time>2024-03-17T07:57:49Z</time>
      </trkpt>
      <trkpt lat="47.2085" lon="-1.7185">
        <ele>9</ele>
        <time>2024-03-17T07:58:05Z</time>
      </trkpt>
      <trkpt lat="47.20846" lon="-1.71823">
        <ele>7.18</ele>
        <time>2024-03-17T07:58:21Z</time>
      </trkpt>
      <trkpt lat="47.20843" lon="-1.71795">
        <ele>7</ele>
        <time>2024-03-17T07:58:37Z</time>
      </trkpt>
      <trkpt lat="47.20839" lon="-1.71765">
        <ele>7</ele>
        <time>2024-03-17T07:58:53Z</time>
      </trkpt>
      <trkpt lat="47.20841" lon="-1.71734">
        <ele>7.97</ele>
        <time>2024-03-17T07:59:09Z</time>
      </trkpt>
      <trkpt lat="47.20841" lon="-1.71708">
        <ele>8</ele>
        <time>2024-03-17T07:59:25Z</time>
      </trkpt>
      <trkpt lat="47.20839" lon="-1.7168">
        <ele>8</ele>
        <time>2024-03-17T07:59:41Z</time>
      </trkpt>
      <trkpt lat="47.20839" lon="-1.7165">
        <ele>8</ele>
        <time>2024-03-17T07:59:58Z</time>
      </trkpt>
      <trkpt lat="47.20832" lon="-1.7162">
        <ele>5.9</ele>
        <time>2024-03-17T08:00:14Z</time>
      </trkpt>
      <trkpt lat="47.20833" lon="-1.71589">
        <ele>5.01</ele>
        <time>2024-03-17T08:00:30Z</time>
      </trkpt>
      <trkpt lat="47.20831" lon="-1.7156">
        <ele>2.02</ele>
        <time>2024-03-17T08:00:46Z</time>
      </trkpt>
      <trkpt lat="47.20835" lon="-1.71533">
        <ele>6.87</ele>
        <time>2024-03-17T08:01:02Z</time>
      </trkpt>
      <trkpt lat="47.20836" lon="-1.71503">
        <ele>7</ele>
        <time>2024-03-17T08:01:18Z</time>
      </trkpt>
      <trkpt lat="47.20833" lon="-1.71476">
        <ele>2.22</ele>
        <time>2024-03-17T08:01:34Z</time>
      </trkpt>
      <trkpt lat="47.20833" lon="-1.71448">
        <ele>1.01</ele>
        <time>2024-03-17T08:01:50Z</time>
      </trkpt>
      <trkpt lat="47.20834" lon="-1.71418">
        <ele>4.89</ele>
        <time>2024-03-17T08:02:14Z</time>
      </trkpt>
      <trkpt lat="47.20835" lon="-1.71386">
        <ele>5</ele>
        <time>2024-03-17T08:02:30Z</time>
      </trkpt>
      <trkpt lat="47.20833" lon="-1.71355">
        <ele>4.3</ele>
        <time>2024-03-17T08:02:46Z</time>
      </trkpt>
      <trkpt lat="47.2084" lon="-1.71329">
        <ele>5.7</ele>
        <time>2024-03-17T08:03:06Z</time>
      </trkpt>
      <trkpt lat="47.20855" lon="-1.71306">
        <ele>6</ele>
        <time>2024-03-17T08:03:22Z</time>
      </trkpt>
      <trkpt lat="47.20871" lon="-1.71292">
        <ele>6</ele>
        <time>2024-03-17T08:03:38Z</time>
      </trkpt>
      <trkpt lat="47.20887" lon="-1.71276">
        <ele>6</ele>
        <time>2024-03-17T08:03:54Z</time>
      </trkpt>
      <trkpt lat="47.20906" lon="-1.71264">
        <ele>6</ele>
        <time>2024-03-17T08:04:10Z</time>
      </trkpt>
      <trkpt lat="47.20927" lon="-1.71246">
        <ele>7.88</ele>
        <time>2024-03-17T08:04:30Z</time>
      </trkpt>
      <trkpt lat="47.20947" lon="-1.71235">
        <ele>8</ele>
        <time>2024-03-17T08:04:46Z</time>
      </trkpt>
      <trkpt lat="47.20965" lon="-1.71224">
        <ele>8</ele>
        <time>2024-03-17T08:05:02Z</time>
      </trkpt>
      <trkpt lat="47.20979" lon="-1.71203">
        <ele>8</ele>
        <time>2024-03-17T08:05:18Z</time>
      </trkpt>
      <trkpt lat="47.20993" lon="-1.7118">
        <ele>8</ele>
        <time>2024-03-17T08:05:38Z</time>
      </trkpt>
      <trkpt lat="47.21003" lon="-1.71154">
        <ele>10.8</ele>
        <time>2024-03-17T08:05:54Z</time>
      </trkpt>
      <trkpt lat="47.2102" lon="-1.71135">
        <ele>11.99</ele>
        <time>2024-03-17T08:06:10Z</time>
      </trkpt>
      <trkpt lat="47.21038" lon="-1.71119">
        <ele>12</ele>
        <time>2024-03-17T08:06:30Z</time>
      </trkpt>
      <trkpt lat="47.21054" lon="-1.711">
        <ele>12</ele>
        <time>2024-03-17T08:06:50Z</time>
      </trkpt>
      <trkpt lat="47.21055" lon="-1.71066">
        <ele>9.08</ele>
        <time>2024-03-17T08:07:10Z</time>
      </trkpt>
      <trkpt lat="47.21054" lon="-1.71036">
        <ele>9</ele>
        <time>2024-03-17T08:07:26Z</time>
      </trkpt>
      <trkpt lat="47.21063" lon="-1.71008">
        <ele>9</ele>
        <time>2024-03-17T08:07:46Z</time>
      </trkpt>
      <trkpt lat="47.21068" lon="-1.70977">
        <ele>8.03</ele>
        <time>2024-03-17T08:08:02Z</time>
      </trkpt>
      <trkpt lat="47.21075" lon="-1.7095">
        <ele>8</ele>
        <time>2024-03-17T08:08:19Z</time>
      </trkpt>
      <trkpt lat="47.2108" lon="-1.70925">
        <ele>8</ele>
        <time>2024-03-17T08:08:35Z</time>
      </trkpt>
      <trkpt lat="47.21085" lon="-1.70899">
        <ele>18.76</ele>
        <time>2024-03-17T08:08:51Z</time>
      </trkpt>
      <trkpt lat="47.21092" lon="-1.70873">
        <ele>19.99</ele>
        <time>2024-03-17T08:09:07Z</time>
      </trkpt>
      <trkpt lat="47.21103" lon="-1.70846">
        <ele>20</ele>
        <time>2024-03-17T08:09:27Z</time>
      </trkpt>
      <trkpt lat="47.21114" lon="-1.70823">
        <ele>16.11</ele>
        <time>2024-03-17T08:09:43Z</time>
      </trkpt>
      <trkpt lat="47.21124" lon="-1.70797">
        <ele>16</ele>
        <time>2024-03-17T08:09:59Z</time>
      </trkpt>
      <trkpt lat="47.21135" lon="-1.70775">
        <ele>16</ele>
        <time>2024-03-17T08:10:15Z</time>
      </trkpt>
      <trkpt lat="47.21142" lon="-1.70747">
        <ele>13.9</ele>
        <time>2024-03-17T08:10:31Z</time>
      </trkpt>
      <trkpt lat="47.21152" lon="-1.70718">
        <ele>13.01</ele>
        <time>2024-03-17T08:10:47Z</time>
      </trkpt>
      <trkpt lat="47.2116" lon="-1.70693">
        <ele>13</ele>
        <time>2024-03-17T08:11:04Z</time>
      </trkpt>
      <trkpt lat="47.2117" lon="-1.70661">
        <ele>16.04</ele>
        <time>2024-03-17T08:11:24Z</time>
      </trkpt>
      <trkpt lat="47.21179" lon="-1.70632">
        <ele>15.01</ele>
        <time>2024-03-17T08:11:40Z</time>
      </trkpt>
      <trkpt lat="47.21188" lon="-1.70608">
        <ele>15</ele>
        <time>2024-03-17T08:11:56Z</time>
      </trkpt>
      <trkpt lat="47.21201" lon="-1.70585">
        <ele>15</ele>
        <time>2024-03-17T08:12:16Z</time>
      </trkpt>
      <trkpt lat="47.2121" lon="-1.70559">
        <ele>11.03</ele>
        <time>2024-03-17T08:12:32Z</time>
      </trkpt>
      <trkpt lat="47.21222" lon="-1.70534">
        <ele>11</ele>
        <time>2024-03-17T08:12:48Z</time>
      </trkpt>
      <trkpt lat="47.21231" lon="-1.7051">
        <ele>11</ele>
        <time>2024-03-17T08:13:04Z</time>
      </trkpt>
      <trkpt lat="47.21239" lon="-1.70484">
        <ele>8.08</ele>
        <time>2024-03-17T08:13:20Z</time>
      </trkpt>
      <trkpt lat="47.2125" lon="-1.70462">
        <ele>10.1</ele>
        <time>2024-03-17T08:13:36Z</time>
      </trkpt>
      <trkpt lat="47.2126" lon="-1.70438">
        <ele>10.99</ele>
        <time>2024-03-17T08:13:52Z</time>
      </trkpt>
      <trkpt lat="47.21271" lon="-1.70415">
        <ele>8.9</ele>
        <time>2024-03-17T08:14:08Z</time>
      </trkpt>
      <trkpt lat="47.2128" lon="-1.70389">
        <ele>8.01</ele>
        <time>2024-03-17T08:14:24Z</time>
      </trkpt>
      <trkpt lat="47.21287" lon="-1.70362">
        <ele>8</ele>
        <time>2024-03-17T08:14:40Z</time>
      </trkpt>
      <trkpt lat="47.2129" lon="-1.7033">
        <ele>8.7</ele>
        <time>2024-03-17T08:14:56Z</time>
      </trkpt>
      <trkpt lat="47.21293" lon="-1.703">
        <ele>9</ele>
        <time>2024-03-17T08:15:12Z</time>
      </trkpt>
      <trkpt lat="47.21311" lon="-1.70317">
        <ele>9</ele>
        <time>2024-03-17T08:15:32Z</time>
      </trkpt>
      <trkpt lat="47.2132" lon="-1.70342">
        <ele>8.09</ele>
        <time>2024-03-17T08:15:48Z</time>
      </trkpt>
      <trkpt lat="47.21332" lon="-1.70365">
        <ele>8</ele>
        <time>2024-03-17T08:16:04Z</time>
      </trkpt>
      <trkpt lat="47.21342" lon="-1.70389">
        <ele>8</ele>
        <time>2024-03-17T08:16:20Z</time>
      </trkpt>
      <trkpt lat="47.21356" lon="-1.70416">
        <ele>8</ele>
        <time>2024-03-17T08:16:36Z</time>
      </trkpt>
      <trkpt lat="47.21366" lon="-1.70441">
        <ele>8</ele>
        <time>2024-03-17T08:16:52Z</time>
      </trkpt>
      <trkpt lat="47.21365" lon="-1.70469">
        <ele>8</ele>
        <time>2024-03-17T08:17:08Z</time>
      </trkpt>
      <trkpt lat="47.21362" lon="-1.70501">
        <ele>11.5</ele>
        <time>2024-03-17T08:17:28Z</time>
      </trkpt>
      <trkpt lat="47.21364" lon="-1.70529">
        <ele>12.99</ele>
        <time>2024-03-17T08:17:44Z</time>
      </trkpt>
      <trkpt lat="47.21362" lon="-1.70558">
        <ele>13</ele>
        <time>2024-03-17T08:17:56Z</time>
      </trkpt>
      <trkpt lat="47.21341" lon="-1.70568">
        <ele>13</ele>
        <time>2024-03-17T08:18:20Z</time>
      </trkpt>
      <trkpt lat="47.21331" lon="-1.70546">
        <ele>13</ele>
        <time>2024-03-17T08:18:32Z</time>
      </trkpt>
      <trkpt lat="47.21328" lon="-1.70515">
        <ele>13</ele>
        <time>2024-03-17T08:18:48Z</time>
      </trkpt>
      <trkpt lat="47.21334" lon="-1.70485">
        <ele>8.95</ele>
        <time>2024-03-17T08:19:04Z</time>
      </trkpt>
      <trkpt lat="47.2134" lon="-1.70455">
        <ele>8.01</ele>
        <time>2024-03-17T08:19:20Z</time>
      </trkpt>
      <trkpt lat="47.21346" lon="-1.70423">
        <ele>8</ele>
        <time>2024-03-17T08:19:36Z</time>
      </trkpt>
      <trkpt lat="47.21349" lon="-1.70396">
        <ele>8</ele>
        <time>2024-03-17T08:19:52Z</time>
      </trkpt>
      <trkpt lat="47.21353" lon="-1.70368">
        <ele>8</ele>
        <time>2024-03-17T08:20:08Z</time>
      </trkpt>
      <trkpt lat="47.21358" lon="-1.70336">
        <ele>8</ele>
        <time>2024-03-17T08:20:24Z</time>
      </trkpt>
      <trkpt lat="47.21362" lon="-1.70308">
        <ele>13.95</ele>
        <time>2024-03-17T08:20:40Z</time>
      </trkpt>
      <trkpt lat="47.21378" lon="-1.70295">
        <ele>14</ele>
        <time>2024-03-17T08:20:56Z</time>
      </trkpt>
      <trkpt lat="47.21396" lon="-1.70288">
        <ele>14</ele>
        <time>2024-03-17T08:21:08Z</time>
      </trkpt>
      <trkpt lat="47.21415" lon="-1.70279">
        <ele>14</ele>
        <time>2024-03-17T08:21:28Z</time>
      </trkpt>
      <trkpt lat="47.21435" lon="-1.7027">
        <ele>16</ele>
        <time>2024-03-17T08:21:48Z</time>
      </trkpt>
      <trkpt lat="47.21453" lon="-1.70257">
        <ele>16</ele>
        <time>2024-03-17T08:22:04Z</time>
      </trkpt>
      <trkpt lat="47.2147" lon="-1.70245">
        <ele>23.28</ele>
        <time>2024-03-17T08:22:20Z</time>
      </trkpt>
      <trkpt lat="47.21489" lon="-1.70236">
        <ele>23.99</ele>
        <time>2024-03-17T08:22:37Z</time>
      </trkpt>
      <trkpt lat="47.21507" lon="-1.70224">
        <ele>23.09</ele>
        <time>2024-03-17T08:22:53Z</time>
      </trkpt>
      <trkpt lat="47.21528" lon="-1.70217">
        <ele>23</ele>
        <time>2024-03-17T08:23:13Z</time>
      </trkpt>
      <trkpt lat="47.21546" lon="-1.70203">
        <ele>23</ele>
        <time>2024-03-17T08:23:29Z</time>
      </trkpt>
      <trkpt lat="47.21563" lon="-1.70189">
        <ele>23</ele>
        <time>2024-03-17T08:23:45Z</time>
      </trkpt>
      <trkpt lat="47.2158" lon="-1.70175">
        <ele>23</ele>
        <time>2024-03-17T08:24:01Z</time>
      </trkpt>
      <trkpt lat="47.21595" lon="-1.7015">
        <ele>19.96</ele>
        <time>2024-03-17T08:24:21Z</time>
      </trkpt>
      <trkpt lat="47.21608" lon="-1.70126">
        <ele>20</ele>
        <time>2024-03-17T08:24:41Z</time>
      </trkpt>
      <trkpt lat="47.21628" lon="-1.70117">
        <ele>20</ele>
        <time>2024-03-17T08:24:53Z</time>
      </trkpt>
      <trkpt lat="47.21648" lon="-1.70108">
        <ele>20</ele>
        <time>2024-03-17T08:25:13Z</time>
      </trkpt>
      <trkpt lat="47.21666" lon="-1.70099">
        <ele>20</ele>
        <time>2024-03-17T08:25:29Z</time>
      </trkpt>
      <trkpt lat="47.21684" lon="-1.70093">
        <ele>11.07</ele>
        <time>2024-03-17T08:25:45Z</time>
      </trkpt>
      <trkpt lat="47.21703" lon="-1.70085">
        <ele>11</ele>
        <time>2024-03-17T08:26:01Z</time>
      </trkpt>
      <trkpt lat="47.21721" lon="-1.70076">
        <ele>21.7</ele>
        <time>2024-03-17T08:26:13Z</time>
      </trkpt>
      <trkpt lat="47.21741" lon="-1.70065">
        <ele>22</ele>
        <time>2024-03-17T08:26:29Z</time>
      </trkpt>
      <trkpt lat="47.2176" lon="-1.7005">
        <ele>10.17</ele>
        <time>2024-03-17T08:26:45Z</time>
      </trkpt>
      <trkpt lat="47.21774" lon="-1.70028">
        <ele>9</ele>
        <time>2024-03-17T08:27:05Z</time>
      </trkpt>
      <trkpt lat="47.2179" lon="-1.70008">
        <ele>9</ele>
        <time>2024-03-17T08:27:25Z</time>
      </trkpt>
      <trkpt lat="47.21807" lon="-1.69988">
        <ele>19.7</ele>
        <time>2024-03-17T08:27:41Z</time>
      </trkpt>
      <trkpt lat="47.21825" lon="-1.69971">
        <ele>20</ele>
        <time>2024-03-17T08:27:57Z</time>
      </trkpt>
      <trkpt lat="47.21838" lon="-1.69951">
        <ele>12.72</ele>
        <time>2024-03-17T08:28:13Z</time>
      </trkpt>
      <trkpt lat="47.21856" lon="-1.69931">
        <ele>12.01</ele>
        <time>2024-03-17T08:28:29Z</time>
      </trkpt>
      <trkpt lat="47.21871" lon="-1.69913">
        <ele>17.6</ele>
        <time>2024-03-17T08:28:45Z</time>
      </trkpt>
      <trkpt lat="47.21885" lon="-1.69892">
        <ele>19.98</ele>
        <time>2024-03-17T08:29:01Z</time>
      </trkpt>
      <trkpt lat="47.21899" lon="-1.6987">
        <ele>20</ele>
        <time>2024-03-17T08:29:21Z</time>
      </trkpt>
      <trkpt lat="47.21914" lon="-1.69854">
        <ele>20</ele>
        <time>2024-03-17T08:29:41Z</time>
      </trkpt>
      <trkpt lat="47.21934" lon="-1.69841">
        <ele>12.06</ele>
        <time>2024-03-17T08:29:57Z</time>
      </trkpt>
      <trkpt lat="47.21948" lon="-1.69824">
        <ele>20.19</ele>
        <time>2024-03-17T08:30:09Z</time>
      </trkpt>
      <trkpt lat="47.21968" lon="-1.69809">
        <ele>21</ele>
        <time>2024-03-17T08:30:29Z</time>
      </trkpt>
      <trkpt lat="47.21987" lon="-1.69798">
        <ele>21</ele>
        <time>2024-03-17T08:30:45Z</time>
      </trkpt>
      <trkpt lat="47.22005" lon="-1.69791">
        <ele>14.7</ele>
        <time>2024-03-17T08:31:01Z</time>
      </trkpt>
      <trkpt lat="47.22024" lon="-1.69781">
        <ele>12.02</ele>
        <time>2024-03-17T08:31:17Z</time>
      </trkpt>
      <trkpt lat="47.22042" lon="-1.6977">
        <ele>12</ele>
        <time>2024-03-17T08:31:33Z</time>
      </trkpt>
      <trkpt lat="47.22059" lon="-1.69759">
        <ele>12</ele>
        <time>2024-03-17T08:31:57Z</time>
      </trkpt>
      <trkpt lat="47.22059" lon="-1.69787">
        <ele>12</ele>
        <time>2024-03-17T08:36:24Z</time>
      </trkpt>
      <trkpt lat="47.22048" lon="-1.69809">
        <ele>12</ele>
        <time>2024-03-17T08:36:40Z</time>
      </trkpt>
      <trkpt lat="47.22039" lon="-1.69833">
        <ele>12</ele>
        <time>2024-03-17T08:36:56Z</time>
      </trkpt>
      <trkpt lat="47.22034" lon="-1.69862">
        <ele>7.01</ele>
        <time>2024-03-17T08:37:16Z</time>
      </trkpt>
      <trkpt lat="47.22023" lon="-1.69885">
        <ele>7</ele>
        <time>2024-03-17T08:37:32Z</time>
      </trkpt>
      <trkpt lat="47.22016" lon="-1.69912">
        <ele>7</ele>
        <time>2024-03-17T08:37:48Z</time>
      </trkpt>
      <trkpt lat="47.22029" lon="-1.69941">
        <ele>3.01</ele>
        <time>2024-03-17T08:38:08Z</time>
      </trkpt>
      <trkpt lat="47.22044" lon="-1.69961">
        <ele>3</ele>
        <time>2024-03-17T08:38:28Z</time>
      </trkpt>
      <trkpt lat="47.22058" lon="-1.69982">
        <ele>3</ele>
        <time>2024-03-17T08:38:44Z</time>
      </trkpt>
      <trkpt lat="47.22073" lon="-1.7">
        <ele>3</ele>
        <time>2024-03-17T08:39:00Z</time>
      </trkpt>
      <trkpt lat="47.22086" lon="-1.7002">
        <ele>5.73</ele>
        <time>2024-03-17T08:39:16Z</time>
      </trkpt>
      <trkpt lat="47.22106" lon="-1.70017">
        <ele>6</ele>
        <time>2024-03-17T08:39:40Z</time>
      </trkpt>
      <trkpt lat="47.22121" lon="-1.69996">
        <ele>5.3</ele>
        <time>2024-03-17T08:39:56Z</time>
      </trkpt>
      <trkpt lat="47.22137" lon="-1.69974">
        <ele>5</ele>
        <time>2024-03-17T08:40:16Z</time>
      </trkpt>
      <trkpt lat="47.2215" lon="-1.69953">
        <ele>5</ele>
        <time>2024-03-17T08:40:32Z</time>
      </trkpt>
      <trkpt lat="47.22167" lon="-1.69946">
        <ele>5.7</ele>
        <time>2024-03-17T08:40:44Z</time>
      </trkpt>
      <trkpt lat="47.22186" lon="-1.69941">
        <ele>6</ele>
        <time>2024-03-17T08:41:00Z</time>
      </trkpt>
      <trkpt lat="47.22205" lon="-1.69945">
        <ele>6</ele>
        <time>2024-03-17T08:41:16Z</time>
      </trkpt>
      <trkpt lat="47.22225" lon="-1.69948">
        <ele>6</ele>
        <time>2024-03-17T08:41:32Z</time>
      </trkpt>
      <trkpt lat="47.22242" lon="-1.69965">
        <ele>6</ele>
        <time>2024-03-17T08:41:48Z</time>
      </trkpt>
      <trkpt lat="47.22263" lon="-1.69979">
        <ele>5.03</ele>
        <time>2024-03-17T08:42:04Z</time>
      </trkpt>
      <trkpt lat="47.2228" lon="-1.69997">
        <ele>5</ele>
        <time>2024-03-17T08:42:20Z</time>
      </trkpt>
      <trkpt lat="47.22289" lon="-1.70021">
        <ele>6.98</ele>
        <time>2024-03-17T08:42:36Z</time>
      </trkpt>
      <trkpt lat="47.22301" lon="-1.70042">
        <ele>7</ele>
        <time>2024-03-17T08:42:52Z</time>
      </trkpt>
      <trkpt lat="47.22315" lon="-1.70058">
        <ele>7</ele>
        <time>2024-03-17T08:43:08Z</time>
      </trkpt>
      <trkpt lat="47.22337" lon="-1.70071">
        <ele>5.6</ele>
        <time>2024-03-17T08:43:24Z</time>
      </trkpt>
      <trkpt lat="47.22354" lon="-1.70082">
        <ele>5</ele>
        <time>2024-03-17T08:43:40Z</time>
      </trkpt>
      <trkpt lat="47.22371" lon="-1.70095">
        <ele>8.97</ele>
        <time>2024-03-17T08:43:56Z</time>
      </trkpt>
      <trkpt lat="47.2239" lon="-1.70106">
        <ele>9</ele>
        <time>2024-03-17T08:44:12Z</time>
      </trkpt>
      <trkpt lat="47.2241" lon="-1.70119">
        <ele>9</ele>
        <time>2024-03-17T08:44:28Z</time>
      </trkpt>
      <trkpt lat="47.22428" lon="-1.70136">
        <ele>6.08</ele>
        <time>2024-03-17T08:44:44Z</time>
      </trkpt>
      <trkpt lat="47.22444" lon="-1.70157">
        <ele>6</ele>
        <time>2024-03-17T08:45:00Z</time>
      </trkpt>
      <trkpt lat="47.22458" lon="-1.7018">
        <ele>6</ele>
        <time>2024-03-17T08:45:20Z</time>
      </trkpt>
      <trkpt lat="47.22473" lon="-1.70202">
        <ele>6</ele>
        <time>2024-03-17T08:45:36Z</time>
      </trkpt>
      <trkpt lat="47.22491" lon="-1.70219">
        <ele>6</ele>
        <time>2024-03-17T08:45:52Z</time>
      </trkpt>
      <trkpt lat="47.22508" lon="-1.70242">
        <ele>5.03</ele>
        <time>2024-03-17T08:46:12Z</time>
      </trkpt>
      <trkpt lat="47.22528" lon="-1.70259">
        <ele>7.98</ele>
        <time>2024-03-17T08:46:32Z</time>
      </trkpt>
      <trkpt lat="47.22546" lon="-1.70272">
        <ele>8</ele>
        <time>2024-03-17T08:46:48Z</time>
      </trkpt>
      <trkpt lat="47.22566" lon="-1.70284">
        <ele>8</ele>
        <time>2024-03-17T08:47:05Z</time>
      </trkpt>
      <trkpt lat="47.22586" lon="-1.70292">
        <ele>5.9</ele>
        <time>2024-03-17T08:47:21Z</time>
      </trkpt>
      <trkpt lat="47.22605" lon="-1.70293">
        <ele>5.01</ele>
        <time>2024-03-17T08:47:37Z</time>
      </trkpt>
      <trkpt lat="47.22624" lon="-1.70292">
        <ele>5</ele>
        <time>2024-03-17T08:47:53Z</time>
      </trkpt>
      <trkpt lat="47.22645" lon="-1.70296">
        <ele>5</ele>
        <time>2024-03-17T08:48:09Z</time>
      </trkpt>
      <trkpt lat="47.22665" lon="-1.70295">
        <ele>5</ele>
        <time>2024-03-17T08:48:25Z</time>
      </trkpt>
      <trkpt lat="47.22686" lon="-1.70299">
        <ele>7.99</ele>
        <time>2024-03-17T08:48:45Z</time>
      </trkpt>
      <trkpt lat="47.22706" lon="-1.7031">
        <ele>8</ele>
        <time>2024-03-17T08:50:05Z</time>
      </trkpt>
      <trkpt lat="47.2272" lon="-1.70336">
        <ele>9.4</ele>
        <time>2024-03-17T08:50:25Z</time>
      </trkpt>
      <trkpt lat="47.22729" lon="-1.7036">
        <ele>10</ele>
        <time>2024-03-17T08:50:41Z</time>
      </trkpt>
      <trkpt lat="47.22738" lon="-1.70386">
        <ele>10</ele>
        <time>2024-03-17T08:50:57Z</time>
      </trkpt>
      <trkpt lat="47.22744" lon="-1.70415">
        <ele>10</ele>
        <time>2024-03-17T08:51:13Z</time>
      </trkpt>
      <trkpt lat="47.22751" lon="-1.70442">
        <ele>13.09</ele>
        <time>2024-03-17T08:51:29Z</time>
      </trkpt>
      <trkpt lat="47.22769" lon="-1.70447">
        <ele>14</ele>
        <time>2024-03-17T08:51:49Z</time>
      </trkpt>
      <trkpt lat="47.22791" lon="-1.70453">
        <ele>14</ele>
        <time>2024-03-17T08:52:09Z</time>
      </trkpt>
      <trkpt lat="47.22809" lon="-1.70462">
        <ele>14</ele>
        <time>2024-03-17T08:52:25Z</time>
      </trkpt>
      <trkpt lat="47.22828" lon="-1.70472">
        <ele>14</ele>
        <time>2024-03-17T08:52:45Z</time>
      </trkpt>
      <trkpt lat="47.22847" lon="-1.70476">
        <ele>17.97</ele>
        <time>2024-03-17T08:53:05Z</time>
      </trkpt>
      <trkpt lat="47.22867" lon="-1.7048">
        <ele>18</ele>
        <time>2024-03-17T08:53:21Z</time>
      </trkpt>
      <trkpt lat="47.22888" lon="-1.70483">
        <ele>18</ele>
        <time>2024-03-17T08:53:41Z</time>
      </trkpt>
      <trkpt lat="47.22907" lon="-1.70487">
        <ele>18</ele>
        <time>2024-03-17T08:54:01Z</time>
      </trkpt>
      <trkpt lat="47.22928" lon="-1.70492">
        <ele>25.94</ele>
        <time>2024-03-17T08:54:25Z</time>
      </trkpt>
      <trkpt lat="47.2295" lon="-1.70494">
        <ele>26</ele>
        <time>2024-03-17T08:54:45Z</time>
      </trkpt>
      <trkpt lat="47.22969" lon="-1.70497">
        <ele>26</ele>
        <time>2024-03-17T08:55:09Z</time>
      </trkpt>
      <trkpt lat="47.22987" lon="-1.70505">
        <ele>26.7</ele>
        <time>2024-03-17T08:55:29Z</time>
      </trkpt>
      <trkpt lat="47.23002" lon="-1.70521">
        <ele>30.5</ele>
        <time>2024-03-17T08:55:49Z</time>
      </trkpt>
      <trkpt lat="47.23021" lon="-1.70534">
        <ele>32</ele>
        <time>2024-03-17T08:56:13Z</time>
      </trkpt>
      <trkpt lat="47.23037" lon="-1.70547">
        <ele>32</ele>
        <time>2024-03-17T08:56:33Z</time>
      </trkpt>
      <trkpt lat="47.23055" lon="-1.70552">
        <ele>32</ele>
        <time>2024-03-17T08:56:57Z</time>
      </trkpt>
      <trkpt lat="47.23074" lon="-1.70566">
        <ele>32</ele>
        <time>2024-03-17T08:57:37Z</time>
      </trkpt>
      <trkpt lat="47.23098" lon="-1.70575">
        <ele>32.97</ele>
        <time>2024-03-17T08:57:53Z</time>
      </trkpt>
      <trkpt lat="47.23117" lon="-1.7058">
        <ele>33</ele>
        <time>2024-03-17T08:58:05Z</time>
      </trkpt>
      <trkpt lat="47.23138" lon="-1.70578">
        <ele>33</ele>
        <time>2024-03-17T08:58:21Z</time>
      </trkpt>
      <trkpt lat="47.23157" lon="-1.70582">
        <ele>33</ele>
        <time>2024-03-17T08:58:53Z</time>
      </trkpt>
      <trkpt lat="47.23168" lon="-1.70605">
        <ele>33.3</ele>
        <time>2024-03-17T08:59:13Z</time>
      </trkpt>
      <trkpt lat="47.23176" lon="-1.70632">
        <ele>33</ele>
        <time>2024-03-17T08:59:37Z</time>
      </trkpt>
      <trkpt lat="47.23187" lon="-1.70655">
        <ele>33</ele>
        <time>2024-03-17T08:59:57Z</time>
      </trkpt>
      <trkpt lat="47.23195" lon="-1.7068">
        <ele>33.97</ele>
        <time>2024-03-17T09:00:13Z</time>
      </trkpt>
      <trkpt lat="47.23204" lon="-1.70707">
        <ele>34</ele>
        <time>2024-03-17T09:00:33Z</time>
      </trkpt>
      <trkpt lat="47.23212" lon="-1.70731">
        <ele>34</ele>
        <time>2024-03-17T09:00:49Z</time>
      </trkpt>
      <trkpt lat="47.23224" lon="-1.70758">
        <ele>34</ele>
        <time>2024-03-17T09:01:09Z</time>
      </trkpt>
      <trkpt lat="47.23234" lon="-1.70788">
        <ele>34</ele>
        <time>2024-03-17T09:01:29Z</time>
      </trkpt>
      <trkpt lat="47.23245" lon="-1.70816">
        <ele>34</ele>
        <time>2024-03-17T09:01:49Z</time>
      </trkpt>
      <trkpt lat="47.23254" lon="-1.70841">
        <ele>32.12</ele>
        <time>2024-03-17T09:02:09Z</time>
      </trkpt>
      <trkpt lat="47.23267" lon="-1.70868">
        <ele>32</ele>
        <time>2024-03-17T09:02:29Z</time>
      </trkpt>
      <trkpt lat="47.23284" lon="-1.70893">
        <ele>32</ele>
        <time>2024-03-17T09:02:49Z</time>
      </trkpt>
      <trkpt lat="47.23298" lon="-1.70912">
        <ele>32</ele>
        <time>2024-03-17T09:03:09Z</time>
      </trkpt>
      <trkpt lat="47.23316" lon="-1.70928">
        <ele>31.01</ele>
        <time>2024-03-17T09:03:29Z</time>
      </trkpt>
      <trkpt lat="47.23333" lon="-1.70946">
        <ele>31</ele>
        <time>2024-03-17T09:03:49Z</time>
      </trkpt>
      <trkpt lat="47.23323" lon="-1.70974">
        <ele>31</ele>
        <time>2024-03-17T09:04:17Z</time>
      </trkpt>
      <trkpt lat="47.23316" lon="-1.70999">
        <ele>31</ele>
        <time>2024-03-17T09:04:33Z</time>
      </trkpt>
      <trkpt lat="47.23308" lon="-1.7103">
        <ele>32</ele>
        <time>2024-03-17T09:04:53Z</time>
      </trkpt>
      <trkpt lat="47.23299" lon="-1.71059">
        <ele>32</ele>
        <time>2024-03-17T09:05:09Z</time>
      </trkpt>
      <trkpt lat="47.2329" lon="-1.71087">
        <ele>31.3</ele>
        <time>2024-03-17T09:05:25Z</time>
      </trkpt>
      <trkpt lat="47.23282" lon="-1.71114">
        <ele>31</ele>
        <time>2024-03-17T09:05:41Z</time>
      </trkpt>
      <trkpt lat="47.23274" lon="-1.71144">
        <ele>31</ele>
        <time>2024-03-17T09:05:57Z</time>
      </trkpt>
      <trkpt lat="47.23265" lon="-1.71172">
        <ele>29.6</ele>
        <time>2024-03-17T09:06:13Z</time>
      </trkpt>
      <trkpt lat="47.23257" lon="-1.71197">
        <ele>29</ele>
        <time>2024-03-17T09:06:29Z</time>
      </trkpt>
      <trkpt lat="47.23248" lon="-1.71221">
        <ele>28.3</ele>
        <time>2024-03-17T09:06:41Z</time>
      </trkpt>
      <trkpt lat="47.23239" lon="-1.71249">
        <ele>28</ele>
        <time>2024-03-17T09:06:57Z</time>
      </trkpt>
      <trkpt lat="47.23235" lon="-1.71279">
        <ele>28</ele>
        <time>2024-03-17T09:07:13Z</time>
      </trkpt>
      <trkpt lat="47.23229" lon="-1.71309">
        <ele>28</ele>
        <time>2024-03-17T09:07:29Z</time>
      </trkpt>
      <trkpt lat="47.23221" lon="-1.71339">
        <ele>28</ele>
        <time>2024-03-17T09:07:45Z</time>
      </trkpt>
      <trkpt lat="47.23214" lon="-1.71372">
        <ele>28</ele>
        <time>2024-03-17T09:08:02Z</time>
      </trkpt>
      <trkpt lat="47.23209" lon="-1.71409">
        <ele>28</ele>
        <time>2024-03-17T09:08:22Z</time>
      </trkpt>
      <trkpt lat="47.23203" lon="-1.71437">
        <ele>28.99</ele>
        <time>2024-03-17T09:08:42Z</time>
      </trkpt>
      <trkpt lat="47.23196" lon="-1.7147">
        <ele>29</ele>
        <time>2024-03-17T09:08:58Z</time>
      </trkpt>
      <trkpt lat="47.23193" lon="-1.71497">
        <ele>29</ele>
        <time>2024-03-17T09:09:14Z</time>
      </trkpt>
      <trkpt lat="47.23187" lon="-1.71525">
        <ele>28.01</ele>
        <time>2024-03-17T09:09:34Z</time>
      </trkpt>
      <trkpt lat="47.23182" lon="-1.71552">
        <ele>28</ele>
        <time>2024-03-17T09:10:02Z</time>
      </trkpt>
      <trkpt lat="47.23181" lon="-1.7158">
        <ele>28</ele>
        <time>2024-03-17T09:10:26Z</time>
      </trkpt>
      <trkpt lat="47.23181" lon="-1.71611">
        <ele>26.02</ele>
        <time>2024-03-17T09:10:42Z</time>
      </trkpt>
      <trkpt lat="47.23182" lon="-1.71643">
        <ele>26</ele>
        <time>2024-03-17T09:10:58Z</time>
      </trkpt>
      <trkpt lat="47.23184" lon="-1.71672">
        <ele>23.2</ele>
        <time>2024-03-17T09:11:14Z</time>
      </trkpt>
      <trkpt lat="47.23183" lon="-1.71698">
        <ele>22.01</ele>
        <time>2024-03-17T09:11:30Z</time>
      </trkpt>
      <trkpt lat="47.23186" lon="-1.71729">
        <ele>22</ele>
        <time>2024-03-17T09:11:46Z</time>
      </trkpt>
      <trkpt lat="47.2319" lon="-1.71757">
        <ele>22</ele>
        <time>2024-03-17T09:12:02Z</time>
      </trkpt>
      <trkpt lat="47.23188" lon="-1.71786">
        <ele>22</ele>
        <time>2024-03-17T09:12:14Z</time>
      </trkpt>
      <trkpt lat="47.23188" lon="-1.71815">
        <ele>22</ele>
        <time>2024-03-17T09:12:26Z</time>
      </trkpt>
      <trkpt lat="47.2319" lon="-1.71844">
        <ele>21.09</ele>
        <time>2024-03-17T09:12:42Z</time>
      </trkpt>
      <trkpt lat="47.23193" lon="-1.71871">
        <ele>21</ele>
        <time>2024-03-17T09:13:02Z</time>
      </trkpt>
      <trkpt lat="47.23196" lon="-1.71898">
        <ele>21</ele>
        <time>2024-03-17T09:13:18Z</time>
      </trkpt>
      <trkpt lat="47.23195" lon="-1.71926">
        <ele>18.27</ele>
        <time>2024-03-17T09:13:34Z</time>
      </trkpt>
      <trkpt lat="47.23195" lon="-1.71955">
        <ele>18</ele>
        <time>2024-03-17T09:14:03Z</time>
      </trkpt>
      <trkpt lat="47.23198" lon="-1.71983">
        <ele>18</ele>
        <time>2024-03-17T09:14:19Z</time>
      </trkpt>
      <trkpt lat="47.23198" lon="-1.72011">
        <ele>16.18</ele>
        <time>2024-03-17T09:14:35Z</time>
      </trkpt>
      <trkpt lat="47.23198" lon="-1.72041">
        <ele>16</ele>
        <time>2024-03-17T09:14:51Z</time>
      </trkpt>
      <trkpt lat="47.23199" lon="-1.72069">
        <ele>16</ele>
        <time>2024-03-17T09:15:07Z</time>
      </trkpt>
      <trkpt lat="47.23203" lon="-1.721">
        <ele>15.09</ele>
        <time>2024-03-17T09:15:23Z</time>
      </trkpt>
      <trkpt lat="47.23207" lon="-1.72132">
        <ele>15</ele>
        <time>2024-03-17T09:15:43Z</time>
      </trkpt>
      <trkpt lat="47.23213" lon="-1.72158">
        <ele>15</ele>
        <time>2024-03-17T09:15:59Z</time>
      </trkpt>
      <trkpt lat="47.23231" lon="-1.72164">
        <ele>15</ele>
        <time>2024-03-17T09:17:15Z</time>
      </trkpt>
      <trkpt lat="47.23214" lon="-1.72181">
        <ele>15</ele>
        <time>2024-03-17T09:24:36Z</time>
      </trkpt>
      <trkpt lat="47.23221" lon="-1.7221">
        <ele>15</ele>
        <time>2024-03-17T09:25:00Z</time>
      </trkpt>
      <trkpt lat="47.2323" lon="-1.72234">
        <ele>15</ele>
        <time>2024-03-17T09:25:36Z</time>
      </trkpt>
      <trkpt lat="47.23233" lon="-1.7226">
        <ele>15</ele>
        <time>2024-03-17T09:25:52Z</time>
      </trkpt>
      <trkpt lat="47.23238" lon="-1.7229">
        <ele>15</ele>
        <time>2024-03-17T09:26:12Z</time>
      </trkpt>
      <trkpt lat="47.23244" lon="-1.7232">
        <ele>15</ele>
        <time>2024-03-17T09:26:28Z</time>
      </trkpt>
      <trkpt lat="47.23248" lon="-1.72347">
        <ele>15</ele>
        <time>2024-03-17T09:26:44Z</time>
      </trkpt>
      <trkpt lat="47.23254" lon="-1.7238">
        <ele>13.02</ele>
        <time>2024-03-17T09:27:04Z</time>
      </trkpt>
      <trkpt lat="47.23259" lon="-1.72411">
        <ele>13</ele>
        <time>2024-03-17T09:27:24Z</time>
      </trkpt>
      <trkpt lat="47.23266" lon="-1.72442">
        <ele>11</ele>
        <time>2024-03-17T09:27:44Z</time>
      </trkpt>
      <trkpt lat="47.23272" lon="-1.7247">
        <ele>11</ele>
        <time>2024-03-17T09:28:00Z</time>
      </trkpt>
      <trkpt lat="47.23279" lon="-1.72499">
        <ele>11</ele>
        <time>2024-03-17T09:28:16Z</time>
      </trkpt>
      <trkpt lat="47.23287" lon="-1.72527">
        <ele>11</ele>
        <time>2024-03-17T09:28:32Z</time>
      </trkpt>
      <trkpt lat="47.23294" lon="-1.72553">
        <ele>11</ele>
        <time>2024-03-17T09:28:48Z</time>
      </trkpt>
      <trkpt lat="47.233" lon="-1.7258">
        <ele>11</ele>
        <time>2024-03-17T09:29:04Z</time>
      </trkpt>
      <trkpt lat="47.23305" lon="-1.72606">
        <ele>11.99</ele>
        <time>2024-03-17T09:29:20Z</time>
      </trkpt>
      <trkpt lat="47.23309" lon="-1.72632">
        <ele>12</ele>
        <time>2024-03-17T09:29:36Z</time>
      </trkpt>
      <trkpt lat="47.23291" lon="-1.72652">
        <ele>12</ele>
        <time>2024-03-17T09:29:56Z</time>
      </trkpt>
      <trkpt lat="47.23274" lon="-1.72673">
        <ele>12.91</ele>
        <time>2024-03-17T09:30:16Z</time>
      </trkpt>
      <trkpt lat="47.23263" lon="-1.72699">
        <ele>13</ele>
        <time>2024-03-17T09:30:36Z</time>
      </trkpt>
      <trkpt lat="47.23255" lon="-1.7273">
        <ele>13</ele>
        <time>2024-03-17T09:30:56Z</time>
      </trkpt>
      <trkpt lat="47.23249" lon="-1.72757">
        <ele>14.4</ele>
        <time>2024-03-17T09:31:12Z</time>
      </trkpt>
      <trkpt lat="47.23242" lon="-1.72786">
        <ele>15</ele>
        <time>2024-03-17T09:31:28Z</time>
      </trkpt>
      <trkpt lat="47.23235" lon="-1.72812">
        <ele>15</ele>
        <time>2024-03-17T09:31:44Z</time>
      </trkpt>
      <trkpt lat="47.23227" lon="-1.72839">
        <ele>17.8</ele>
        <time>2024-03-17T09:32:00Z</time>
      </trkpt>
      <trkpt lat="47.23223" lon="-1.72867">
        <ele>18.99</ele>
        <time>2024-03-17T09:32:17Z</time>
      </trkpt>
      <trkpt lat="47.23214" lon="-1.72894">
        <ele>19</ele>
        <time>2024-03-17T09:32:34Z</time>
      </trkpt>
      <trkpt lat="47.23209" lon="-1.72921">
        <ele>20.4</ele>
        <time>2024-03-17T09:32:54Z</time>
      </trkpt>
      <trkpt lat="47.23201" lon="-1.72949">
        <ele>21</ele>
        <time>2024-03-17T09:33:42Z</time>
      </trkpt>
      <trkpt lat="47.23196" lon="-1.7298">
        <ele>21</ele>
        <time>2024-03-17T09:33:58Z</time>
      </trkpt>
      <trkpt lat="47.23193" lon="-1.73011">
        <ele>21</ele>
        <time>2024-03-17T09:34:14Z</time>
      </trkpt>
      <trkpt lat="47.23195" lon="-1.73042">
        <ele>21</ele>
        <time>2024-03-17T09:34:30Z</time>
      </trkpt>
      <trkpt lat="47.23196" lon="-1.73069">
        <ele>21</ele>
        <time>2024-03-17T09:34:42Z</time>
      </trkpt>
      <trkpt lat="47.23199" lon="-1.731">
        <ele>21.97</ele>
        <time>2024-03-17T09:34:58Z</time>
      </trkpt>
      <trkpt lat="47.23199" lon="-1.73134">
        <ele>22</ele>
        <time>2024-03-17T09:35:14Z</time>
      </trkpt>
      <trkpt lat="47.23194" lon="-1.73165">
        <ele>22</ele>
        <time>2024-03-17T09:35:30Z</time>
      </trkpt>
      <trkpt lat="47.23184" lon="-1.73195">
        <ele>22</ele>
        <time>2024-03-17T09:35:46Z</time>
      </trkpt>
      <trkpt lat="47.23174" lon="-1.73222">
        <ele>22</ele>
        <time>2024-03-17T09:36:02Z</time>
      </trkpt>
      <trkpt lat="47.23165" lon="-1.7325">
        <ele>20.6</ele>
        <time>2024-03-17T09:36:18Z</time>
      </trkpt>
      <trkpt lat="47.23156" lon="-1.7328">
        <ele>21</ele>
        <time>2024-03-17T09:36:38Z</time>
      </trkpt>
      <trkpt lat="47.23148" lon="-1.73309">
        <ele>21</ele>
        <time>2024-03-17T09:36:54Z</time>
      </trkpt>
      <trkpt lat="47.2314" lon="-1.73336">
        <ele>19.6</ele>
        <time>2024-03-17T09:37:10Z</time>
      </trkpt>
      <trkpt lat="47.23132" lon="-1.73367">
        <ele>19</ele>
        <time>2024-03-17T09:37:30Z</time>
      </trkpt>
      <trkpt lat="47.2312" lon="-1.7339">
        <ele>19</ele>
        <time>2024-03-17T09:37:46Z</time>
      </trkpt>
      <trkpt lat="47.23105" lon="-1.7341">
        <ele>19</ele>
        <time>2024-03-17T09:38:02Z</time>
      </trkpt>
      <trkpt lat="47.23088" lon="-1.73423">
        <ele>17.18</ele>
        <time>2024-03-17T09:38:18Z</time>
      </trkpt>
      <trkpt lat="47.23069" lon="-1.73427">
        <ele>17.99</ele>
        <time>2024-03-17T09:38:34Z</time>
      </trkpt>
      <trkpt lat="47.23052" lon="-1.7344">
        <ele>18</ele>
        <time>2024-03-17T09:38:50Z</time>
      </trkpt>
      <trkpt lat="47.23046" lon="-1.73467">
        <ele>18</ele>
        <time>2024-03-17T09:39:06Z</time>
      </trkpt>
      <trkpt lat="47.23039" lon="-1.73493">
        <ele>18</ele>
        <time>2024-03-17T09:39:22Z</time>
      </trkpt>
      <trkpt lat="47.23025" lon="-1.7351">
        <ele>17.03</ele>
        <time>2024-03-17T09:39:38Z</time>
      </trkpt>
      <trkpt lat="47.23006" lon="-1.73519">
        <ele>17</ele>
        <time>2024-03-17T09:39:54Z</time>
      </trkpt>
      <trkpt lat="47.22989" lon="-1.73537">
        <ele>15.02</ele>
        <time>2024-03-17T09:40:14Z</time>
      </trkpt>
      <trkpt lat="47.22979" lon="-1.73565">
        <ele>15</ele>
        <time>2024-03-17T09:40:34Z</time>
      </trkpt>
      <trkpt lat="47.22969" lon="-1.7359">
        <ele>15</ele>
        <time>2024-03-17T09:40:50Z</time>
      </trkpt>
      <trkpt lat="47.22959" lon="-1.73613">
        <ele>15</ele>
        <time>2024-03-17T09:41:06Z</time>
      </trkpt>
      <trkpt lat="47.22948" lon="-1.73635">
        <ele>15</ele>
        <time>2024-03-17T09:41:54Z</time>
      </trkpt>
      <trkpt lat="47.22931" lon="-1.73654">
        <ele>15</ele>
        <time>2024-03-17T09:43:30Z</time>
      </trkpt>
      <trkpt lat="47.22915" lon="-1.73673">
        <ele>14.09</ele>
        <time>2024-03-17T09:43:50Z</time>
      </trkpt>
      <trkpt lat="47.22901" lon="-1.73692">
        <ele>14</ele>
        <time>2024-03-17T09:44:06Z</time>
      </trkpt>
      <trkpt lat="47.22887" lon="-1.73714">
        <ele>14</ele>
        <time>2024-03-17T09:44:22Z</time>
      </trkpt>
      <trkpt lat="47.2288" lon="-1.73743">
        <ele>14</ele>
        <time>2024-03-17T09:44:38Z</time>
      </trkpt>
      <trkpt lat="47.22879" lon="-1.73771">
        <ele>14.99</ele>
        <time>2024-03-17T09:44:54Z</time>
      </trkpt>
      <trkpt lat="47.22875" lon="-1.73802">
        <ele>15</ele>
        <time>2024-03-17T09:45:10Z</time>
      </trkpt>
      <trkpt lat="47.22872" lon="-1.73832">
        <ele>15</ele>
        <time>2024-03-17T09:45:26Z</time>
      </trkpt>
      <trkpt lat="47.22866" lon="-1.73861">
        <ele>14.01</ele>
        <time>2024-03-17T09:45:42Z</time>
      </trkpt>
      <trkpt lat="47.22863" lon="-1.7389">
        <ele>14</ele>
        <time>2024-03-17T09:45:58Z</time>
      </trkpt>
      <trkpt lat="47.22857" lon="-1.73918">
        <ele>11.9</ele>
        <time>2024-03-17T09:46:14Z</time>
      </trkpt>
      <trkpt lat="47.22854" lon="-1.73945">
        <ele>11.01</ele>
        <time>2024-03-17T09:46:30Z</time>
      </trkpt>
      <trkpt lat="47.22854" lon="-1.73981">
        <ele>11</ele>
        <time>2024-03-17T09:46:51Z</time>
      </trkpt>
      <trkpt lat="47.22856" lon="-1.74011">
        <ele>11</ele>
        <time>2024-03-17T09:47:07Z</time>
      </trkpt>
      <trkpt lat="47.22858" lon="-1.74038">
        <ele>11</ele>
        <time>2024-03-17T09:47:23Z</time>
      </trkpt>
      <trkpt lat="47.22863" lon="-1.74065">
        <ele>11</ele>
        <time>2024-03-17T09:47:39Z</time>
      </trkpt>
      <trkpt lat="47.22866" lon="-1.74097">
        <ele>10.09</ele>
        <time>2024-03-17T09:47:55Z</time>
      </trkpt>
      <trkpt lat="47.22868" lon="-1.74125">
        <ele>10</ele>
        <time>2024-03-17T09:48:11Z</time>
      </trkpt>
      <trkpt lat="47.22872" lon="-1.74154">
        <ele>10</ele>
        <time>2024-03-17T09:48:27Z</time>
      </trkpt>
      <trkpt lat="47.22861" lon="-1.74179">
        <ele>9.03</ele>
        <time>2024-03-17T09:48:43Z</time>
      </trkpt>
      <trkpt lat="47.22842" lon="-1.74187">
        <ele>9</ele>
        <time>2024-03-17T09:48:59Z</time>
      </trkpt>
      <trkpt lat="47.22825" lon="-1.74196">
        <ele>9</ele>
        <time>2024-03-17T09:49:15Z</time>
      </trkpt>
      <trkpt lat="47.22804" lon="-1.74206">
        <ele>9</ele>
        <time>2024-03-17T09:49:31Z</time>
      </trkpt>
      <trkpt lat="47.22787" lon="-1.74216">
        <ele>9</ele>
        <time>2024-03-17T09:49:47Z</time>
      </trkpt>
      <trkpt lat="47.22767" lon="-1.74232">
        <ele>9</ele>
        <time>2024-03-17T09:50:07Z</time>
      </trkpt>
      <trkpt lat="47.2275" lon="-1.74244">
        <ele>9</ele>
        <time>2024-03-17T09:50:23Z</time>
      </trkpt>
      <trkpt lat="47.22732" lon="-1.74257">
        <ele>9.04</ele>
        <time>2024-03-17T09:50:39Z</time>
      </trkpt>
      <trkpt lat="47.22714" lon="-1.7427">
        <ele>9</ele>
        <time>2024-03-17T09:50:55Z</time>
      </trkpt>
      <trkpt lat="47.22697" lon="-1.74281">
        <ele>9</ele>
        <time>2024-03-17T09:51:11Z</time>
      </trkpt>
      <trkpt lat="47.22677" lon="-1.74295">
        <ele>9</ele>
        <time>2024-03-17T09:51:31Z</time>
      </trkpt>
      <trkpt lat="47.22657" lon="-1.74304">
        <ele>9</ele>
        <time>2024-03-17T09:51:47Z</time>
      </trkpt>
      <trkpt lat="47.2264" lon="-1.74314">
        <ele>9</ele>
        <time>2024-03-17T09:52:03Z</time>
      </trkpt>
      <trkpt lat="47.2262" lon="-1.74324">
        <ele>9</ele>
        <time>2024-03-17T09:52:19Z</time>
      </trkpt>
      <trkpt lat="47.226" lon="-1.74333">
        <ele>9</ele>
        <time>2024-03-17T09:52:35Z</time>
      </trkpt>
      <trkpt lat="47.22577" lon="-1.74338">
        <ele>8.01</ele>
        <time>2024-03-17T09:52:51Z</time>
      </trkpt>
      <trkpt lat="47.22557" lon="-1.74329">
        <ele>8</ele>
        <time>2024-03-17T09:53:07Z</time>
      </trkpt>
      <trkpt lat="47.22537" lon="-1.74321">
        <ele>8</ele>
        <time>2024-03-17T09:53:23Z</time>
      </trkpt>
      <trkpt lat="47.22518" lon="-1.74307">
        <ele>8</ele>
        <time>2024-03-17T09:53:39Z</time>
      </trkpt>
      <trkpt lat="47.22504" lon="-1.7429">
        <ele>8</ele>
        <time>2024-03-17T09:53:55Z</time>
      </trkpt>
      <trkpt lat="47.22482" lon="-1.74284">
        <ele>7</ele>
        <time>2024-03-17T09:54:15Z</time>
      </trkpt>
      <trkpt lat="47.22461" lon="-1.74284">
        <ele>7</ele>
        <time>2024-03-17T09:54:31Z</time>
      </trkpt>
      <trkpt lat="47.22438" lon="-1.74286">
        <ele>7</ele>
        <time>2024-03-17T09:54:51Z</time>
      </trkpt>
      <trkpt lat="47.22419" lon="-1.74288">
        <ele>7</ele>
        <time>2024-03-17T09:55:07Z</time>
      </trkpt>
      <trkpt lat="47.224" lon="-1.74289">
        <ele>9.98</ele>
        <time>2024-03-17T09:55:23Z</time>
      </trkpt>
      <trkpt lat="47.22379" lon="-1.7429">
        <ele>10</ele>
        <time>2024-03-17T09:55:43Z</time>
      </trkpt>
      <trkpt lat="47.2236" lon="-1.74288">
        <ele>10</ele>
        <time>2024-03-17T09:55:59Z</time>
      </trkpt>
      <trkpt lat="47.22341" lon="-1.74284">
        <ele>10</ele>
        <time>2024-03-17T09:56:19Z</time>
      </trkpt>
      <trkpt lat="47.22322" lon="-1.74277">
        <ele>10.97</ele>
        <time>2024-03-17T09:56:39Z</time>
      </trkpt>
      <trkpt lat="47.22303" lon="-1.74273">
        <ele>11</ele>
        <time>2024-03-17T09:56:55Z</time>
      </trkpt>
      <trkpt lat="47.22284" lon="-1.74268">
        <ele>11</ele>
        <time>2024-03-17T09:57:11Z</time>
      </trkpt>
      <trkpt lat="47.22263" lon="-1.74254">
        <ele>11</ele>
        <time>2024-03-17T09:57:31Z</time>
      </trkpt>
      <trkpt lat="47.22251" lon="-1.74232">
        <ele>11</ele>
        <time>2024-03-17T09:57:47Z</time>
      </trkpt>
      <trkpt lat="47.2224" lon="-1.74208">
        <ele>10.01</ele>
        <time>2024-03-17T09:58:03Z</time>
      </trkpt>
      <trkpt lat="47.22222" lon="-1.74208">
        <ele>10</ele>
        <time>2024-03-17T09:58:19Z</time>
      </trkpt>
      <trkpt lat="47.222" lon="-1.74214">
        <ele>10</ele>
        <time>2024-03-17T09:58:35Z</time>
      </trkpt>
      <trkpt lat="47.22182" lon="-1.74218">
        <ele>10</ele>
        <time>2024-03-17T09:58:51Z</time>
      </trkpt>
      <trkpt lat="47.22162" lon="-1.74225">
        <ele>10</ele>
        <time>2024-03-17T09:59:07Z</time>
      </trkpt>
      <trkpt lat="47.22142" lon="-1.74234">
        <ele>10</ele>
        <time>2024-03-17T09:59:23Z</time>
      </trkpt>
      <trkpt lat="47.22121" lon="-1.74238">
        <ele>10</ele>
        <time>2024-03-17T09:59:39Z</time>
      </trkpt>
      <trkpt lat="47.22103" lon="-1.74243">
        <ele>10</ele>
        <time>2024-03-17T09:59:55Z</time>
      </trkpt>
      <trkpt lat="47.22082" lon="-1.74243">
        <ele>11.4</ele>
        <time>2024-03-17T10:00:11Z</time>
      </trkpt>
      <trkpt lat="47.22064" lon="-1.74225">
        <ele>12</ele>
        <time>2024-03-17T10:00:27Z</time>
      </trkpt>
      <trkpt lat="47.22054" lon="-1.74199">
        <ele>12</ele>
        <time>2024-03-17T10:00:47Z</time>
      </trkpt>
      <trkpt lat="47.22035" lon="-1.74179">
        <ele>12</ele>
        <time>2024-03-17T10:01:03Z</time>
      </trkpt>
      <trkpt lat="47.22018" lon="-1.74165">
        <ele>12</ele>
        <time>2024-03-17T10:01:27Z</time>
      </trkpt>
      <trkpt lat="47.22001" lon="-1.74154">
        <ele>12</ele>
        <time>2024-03-17T10:01:43Z</time>
      </trkpt>
      <trkpt lat="47.21981" lon="-1.74137">
        <ele>11.01</ele>
        <time>2024-03-17T10:01:59Z</time>
      </trkpt>
      <trkpt lat="47.21966" lon="-1.74119">
        <ele>11</ele>
        <time>2024-03-17T10:02:15Z</time>
      </trkpt>
      <trkpt lat="47.21951" lon="-1.74102">
        <ele>11</ele>
        <time>2024-03-17T10:02:31Z</time>
      </trkpt>
      <trkpt lat="47.21935" lon="-1.74084">
        <ele>11</ele>
        <time>2024-03-17T10:02:47Z</time>
      </trkpt>
      <trkpt lat="47.21921" lon="-1.74067">
        <ele>12.98</ele>
        <time>2024-03-17T10:03:03Z</time>
      </trkpt>
      <trkpt lat="47.21905" lon="-1.74051">
        <ele>12.03</ele>
        <time>2024-03-17T10:03:19Z</time>
      </trkpt>
      <trkpt lat="47.21887" lon="-1.74042">
        <ele>12</ele>
        <time>2024-03-17T10:03:35Z</time>
      </trkpt>
      <trkpt lat="47.21876" lon="-1.74015">
        <ele>12</ele>
        <time>2024-03-17T10:03:55Z</time>
      </trkpt>
      <trkpt lat="47.2186" lon="-1.73996">
        <ele>12.91</ele>
        <time>2024-03-17T10:04:15Z</time>
      </trkpt>
      <trkpt lat="47.21842" lon="-1.73985">
        <ele>13</ele>
        <time>2024-03-17T10:04:31Z</time>
      </trkpt>
      <trkpt lat="47.21826" lon="-1.73972">
        <ele>12.09</ele>
        <time>2024-03-17T10:04:47Z</time>
      </trkpt>
      <trkpt lat="47.21807" lon="-1.73966">
        <ele>12</ele>
        <time>2024-03-17T10:05:07Z</time>
      </trkpt>
      <trkpt lat="47.21789" lon="-1.73979">
        <ele>12</ele>
        <time>2024-03-17T10:05:43Z</time>
      </trkpt>
      <trkpt lat="47.21774" lon="-1.73997">
        <ele>12</ele>
        <time>2024-03-17T10:05:59Z</time>
      </trkpt>
      <trkpt lat="47.21755" lon="-1.74012">
        <ele>11.01</ele>
        <time>2024-03-17T10:06:23Z</time>
      </trkpt>
      <trkpt lat="47.21738" lon="-1.74023">
        <ele>11.97</ele>
        <time>2024-03-17T10:06:39Z</time>
      </trkpt>
      <trkpt lat="47.2172" lon="-1.74017">
        <ele>12</ele>
        <time>2024-03-17T10:06:55Z</time>
      </trkpt>
      <trkpt lat="47.21709" lon="-1.7399">
        <ele>12.91</ele>
        <time>2024-03-17T10:07:11Z</time>
      </trkpt>
      <trkpt lat="47.21696" lon="-1.73966">
        <ele>13</ele>
        <time>2024-03-17T10:07:51Z</time>
      </trkpt>
      <trkpt lat="47.21685" lon="-1.73941">
        <ele>13</ele>
        <time>2024-03-17T10:08:11Z</time>
      </trkpt>
      <trkpt lat="47.21673" lon="-1.73917">
        <ele>13</ele>
        <time>2024-03-17T10:08:27Z</time>
      </trkpt>
      <trkpt lat="47.21663" lon="-1.73891">
        <ele>13.16</ele>
        <time>2024-03-17T10:08:43Z</time>
      </trkpt>
      <trkpt lat="47.21651" lon="-1.73871">
        <ele>13</ele>
        <time>2024-03-17T10:09:59Z</time>
      </trkpt>
      <trkpt lat="47.21641" lon="-1.73843">
        <ele>13</ele>
        <time>2024-03-17T10:10:27Z</time>
      </trkpt>
      <trkpt lat="47.2163" lon="-1.73815">
        <ele>13.97</ele>
        <time>2024-03-17T10:10:44Z</time>
      </trkpt>
      <trkpt lat="47.2162" lon="-1.73791">
        <ele>14</ele>
        <time>2024-03-17T10:11:00Z</time>
      </trkpt>
      <trkpt lat="47.21607" lon="-1.73767">
        <ele>14</ele>
        <time>2024-03-17T10:11:16Z</time>
      </trkpt>
      <trkpt lat="47.21602" lon="-1.73737">
        <ele>14</ele>
        <time>2024-03-17T10:11:32Z</time>
      </trkpt>
      <trkpt lat="47.21587" lon="-1.73721">
        <ele>14</ele>
        <time>2024-03-17T10:12:08Z</time>
      </trkpt>
      <trkpt lat="47.21571" lon="-1.73705">
        <ele>14</ele>
        <time>2024-03-17T10:12:28Z</time>
      </trkpt>
      <trkpt lat="47.21556" lon="-1.73687">
        <ele>14</ele>
        <time>2024-03-17T10:12:44Z</time>
      </trkpt>
      <trkpt lat="47.2154" lon="-1.73665">
        <ele>14.7</ele>
        <time>2024-03-17T10:13:04Z</time>
      </trkpt>
      <trkpt lat="47.21524" lon="-1.73645">
        <ele>15</ele>
        <time>2024-03-17T10:13:24Z</time>
      </trkpt>
      <trkpt lat="47.21502" lon="-1.73641">
        <ele>15</ele>
        <time>2024-03-17T10:13:52Z</time>
      </trkpt>
      <trkpt lat="47.21481" lon="-1.7365">
        <ele>14.01</ele>
        <time>2024-03-17T10:14:08Z</time>
      </trkpt>
      <trkpt lat="47.21461" lon="-1.73657">
        <ele>14</ele>
        <time>2024-03-17T10:14:24Z</time>
      </trkpt>
      <trkpt lat="47.21443" lon="-1.73669">
        <ele>12.18</ele>
        <time>2024-03-17T10:14:44Z</time>
      </trkpt>
      <trkpt lat="47.21469" lon="-1.73649">
        <ele>14</ele>
        <time>2024-03-17T10:50:50Z</time>
      </trkpt>
      <trkpt lat="47.21489" lon="-1.73644">
        <ele>14</ele>
        <time>2024-03-17T10:51:15Z</time>
      </trkpt>
      <trkpt lat="47.21508" lon="-1.73634">
        <ele>14.91</ele>
        <time>2024-03-17T10:51:31Z</time>
      </trkpt>
      <trkpt lat="47.215" lon="-1.73606">
        <ele>15</ele>
        <time>2024-03-17T10:51:51Z</time>
      </trkpt>
      <trkpt lat="47.21485" lon="-1.73593">
        <ele>14.03</ele>
        <time>2024-03-17T10:52:03Z</time>
      </trkpt>
      <trkpt lat="47.21465" lon="-1.73578">
        <ele>15.95</ele>
        <time>2024-03-17T10:52:19Z</time>
      </trkpt>
      <trkpt lat="47.21444" lon="-1.73566">
        <ele>16</ele>
        <time>2024-03-17T10:52:35Z</time>
      </trkpt>
      <trkpt lat="47.21427" lon="-1.73552">
        <ele>16</ele>
        <time>2024-03-17T10:52:47Z</time>
      </trkpt>
      <trkpt lat="47.21408" lon="-1.73533">
        <ele>13.27</ele>
        <time>2024-03-17T10:53:03Z</time>
      </trkpt>
      <trkpt lat="47.2139" lon="-1.7351">
        <ele>13</ele>
        <time>2024-03-17T10:53:19Z</time>
      </trkpt>
      <trkpt lat="47.21374" lon="-1.7349">
        <ele>15.92</ele>
        <time>2024-03-17T10:53:35Z</time>
      </trkpt>
      <trkpt lat="47.21357" lon="-1.7347">
        <ele>16</ele>
        <time>2024-03-17T10:53:51Z</time>
      </trkpt>
      <trkpt lat="47.21339" lon="-1.73449">
        <ele>16</ele>
        <time>2024-03-17T10:54:11Z</time>
      </trkpt>
      <trkpt lat="47.21325" lon="-1.73428">
        <ele>10.16</ele>
        <time>2024-03-17T10:54:27Z</time>
      </trkpt>
      <trkpt lat="47.2131" lon="-1.7341">
        <ele>13.64</ele>
        <time>2024-03-17T10:54:39Z</time>
      </trkpt>
      <trkpt lat="47.21292" lon="-1.73388">
        <ele>14</ele>
        <time>2024-03-17T10:54:55Z</time>
      </trkpt>
      <trkpt lat="47.21274" lon="-1.73367">
        <ele>14</ele>
        <time>2024-03-17T10:55:11Z</time>
      </trkpt>
      <trkpt lat="47.21258" lon="-1.73349">
        <ele>14</ele>
        <time>2024-03-17T10:55:27Z</time>
      </trkpt>
      <trkpt lat="47.21247" lon="-1.73326">
        <ele>11.41</ele>
        <time>2024-03-17T10:55:43Z</time>
      </trkpt>
      <trkpt lat="47.21238" lon="-1.73296">
        <ele>10.01</ele>
        <time>2024-03-17T10:55:59Z</time>
      </trkpt>
      <trkpt lat="47.21225" lon="-1.7327">
        <ele>10</ele>
        <time>2024-03-17T10:56:15Z</time>
      </trkpt>
      <trkpt lat="47.21213" lon="-1.73245">
        <ele>10</ele>
        <time>2024-03-17T10:56:31Z</time>
      </trkpt>
      <trkpt lat="47.2119" lon="-1.73247">
        <ele>10</ele>
        <time>2024-03-17T10:56:51Z</time>
      </trkpt>
      <trkpt lat="47.21169" lon="-1.73257">
        <ele>10</ele>
        <time>2024-03-17T10:57:07Z</time>
      </trkpt>
      <trkpt lat="47.21144" lon="-1.73255">
        <ele>6.03</ele>
        <time>2024-03-17T10:57:23Z</time>
      </trkpt>
      <trkpt lat="47.21128" lon="-1.73241">
        <ele>6</ele>
        <time>2024-03-17T10:57:39Z</time>
      </trkpt>
      <trkpt lat="47.21125" lon="-1.73211">
        <ele>6</ele>
        <time>2024-03-17T10:57:55Z</time>
      </trkpt>
      <trkpt lat="47.21104" lon="-1.73213">
        <ele>6</ele>
        <time>2024-03-17T10:58:15Z</time>
      </trkpt>
      <trkpt lat="47.21088" lon="-1.73228">
        <ele>6</ele>
        <time>2024-03-17T10:58:31Z</time>
      </trkpt>
      <trkpt lat="47.21066" lon="-1.73239">
        <ele>5.01</ele>
        <time>2024-03-17T10:58:47Z</time>
      </trkpt>
      <trkpt lat="47.2105" lon="-1.73216">
        <ele>5</ele>
        <time>2024-03-17T10:59:03Z</time>
      </trkpt>
      <trkpt lat="47.21043" lon="-1.73186">
        <ele>5</ele>
        <time>2024-03-17T10:59:19Z</time>
      </trkpt>
      <trkpt lat="47.21037" lon="-1.73159">
        <ele>5.7</ele>
        <time>2024-03-17T10:59:32Z</time>
      </trkpt>
      <trkpt lat="47.21027" lon="-1.73132">
        <ele>6</ele>
        <time>2024-03-17T10:59:48Z</time>
      </trkpt>
      <trkpt lat="47.21002" lon="-1.7313">
        <ele>6</ele>
        <time>2024-03-17T11:00:08Z</time>
      </trkpt>
      <trkpt lat="47.2098" lon="-1.73136">
        <ele>5.01</ele>
        <time>2024-03-17T11:00:24Z</time>
      </trkpt>
      <trkpt lat="47.2096" lon="-1.73124">
        <ele>5</ele>
        <time>2024-03-17T11:00:40Z</time>
      </trkpt>
      <trkpt lat="47.20948" lon="-1.731">
        <ele>5</ele>
        <time>2024-03-17T11:00:56Z</time>
      </trkpt>
      <trkpt lat="47.20938" lon="-1.73068">
        <ele>7.73</ele>
        <time>2024-03-17T11:01:12Z</time>
      </trkpt>
      <trkpt lat="47.2093" lon="-1.73044">
        <ele>7.99</ele>
        <time>2024-03-17T11:01:24Z</time>
      </trkpt>
      <trkpt lat="47.20925" lon="-1.7301">
        <ele>8</ele>
        <time>2024-03-17T11:01:40Z</time>
      </trkpt>
      <trkpt lat="47.20921" lon="-1.72979">
        <ele>8</ele>
        <time>2024-03-17T11:01:56Z</time>
      </trkpt>
      <trkpt lat="47.20914" lon="-1.72947">
        <ele>3.45</ele>
        <time>2024-03-17T11:02:12Z</time>
      </trkpt>
      <trkpt lat="47.20905" lon="-1.72917">
        <ele>3</ele>
        <time>2024-03-17T11:02:28Z</time>
      </trkpt>
      <trkpt lat="47.20899" lon="-1.72884">
        <ele>3.99</ele>
        <time>2024-03-17T11:02:44Z</time>
      </trkpt>
      <trkpt lat="47.20906" lon="-1.72855">
        <ele>4</ele>
        <time>2024-03-17T11:03:00Z</time>
      </trkpt>
      <trkpt lat="47.20901" lon="-1.72824">
        <ele>5.82</ele>
        <time>2024-03-17T11:03:16Z</time>
      </trkpt>
      <trkpt lat="47.20896" lon="-1.72792">
        <ele>6</ele>
        <time>2024-03-17T11:03:32Z</time>
      </trkpt>
      <trkpt lat="47.20896" lon="-1.72761">
        <ele>6</ele>
        <time>2024-03-17T11:03:48Z</time>
      </trkpt>
      <trkpt lat="47.2089" lon="-1.72729">
        <ele>7.95</ele>
        <time>2024-03-17T11:04:04Z</time>
      </trkpt>
      <trkpt lat="47.20883" lon="-1.72699">
        <ele>8</ele>
        <time>2024-03-17T11:04:20Z</time>
      </trkpt>
      <trkpt lat="47.20877" lon="-1.72671">
        <ele>8</ele>
        <time>2024-03-17T11:04:36Z</time>
      </trkpt>
      <trkpt lat="47.20881" lon="-1.72637">
        <ele>6.02</ele>
        <time>2024-03-17T11:04:52Z</time>
      </trkpt>
      <trkpt lat="47.20889" lon="-1.72606">
        <ele>6</ele>
        <time>2024-03-17T11:05:08Z</time>
      </trkpt>
      <trkpt lat="47.20889" lon="-1.72571">
        <ele>7.82</ele>
        <time>2024-03-17T11:05:24Z</time>
      </trkpt>
      <trkpt lat="47.20885" lon="-1.72539">
        <ele>8</ele>
        <time>2024-03-17T11:05:40Z</time>
      </trkpt>
      <trkpt lat="47.20884" lon="-1.72508">
        <ele>8</ele>
        <time>2024-03-17T11:05:56Z</time>
      </trkpt>
      <trkpt lat="47.20883" lon="-1.72474">
        <ele>8.97</ele>
        <time>2024-03-17T11:06:12Z</time>
      </trkpt>
      <trkpt lat="47.20879" lon="-1.72439">
        <ele>9</ele>
        <time>2024-03-17T11:06:28Z</time>
      </trkpt>
      <trkpt lat="47.20876" lon="-1.72406">
        <ele>7.18</ele>
        <time>2024-03-17T11:06:44Z</time>
      </trkpt>
      <trkpt lat="47.20874" lon="-1.72377">
        <ele>7</ele>
        <time>2024-03-17T11:07:00Z</time>
      </trkpt>
      <trkpt lat="47.20871" lon="-1.72349">
        <ele>7</ele>
        <time>2024-03-17T11:07:12Z</time>
      </trkpt>
      <trkpt lat="47.20868" lon="-1.72318">
        <ele>7</ele>
        <time>2024-03-17T11:07:28Z</time>
      </trkpt>
      <trkpt lat="47.20863" lon="-1.72291">
        <ele>7</ele>
        <time>2024-03-17T11:07:40Z</time>
      </trkpt>
      <trkpt lat="47.20864" lon="-1.72261">
        <ele>7</ele>
        <time>2024-03-17T11:07:56Z</time>
      </trkpt>
      <trkpt lat="47.20862" lon="-1.72227">
        <ele>7</ele>
        <time>2024-03-17T11:08:12Z</time>
      </trkpt>
      <trkpt lat="47.20859" lon="-1.72197">
        <ele>7</ele>
        <time>2024-03-17T11:08:28Z</time>
      </trkpt>
      <trkpt lat="47.20859" lon="-1.72162">
        <ele>7</ele>
        <time>2024-03-17T11:08:44Z</time>
      </trkpt>
      <trkpt lat="47.20858" lon="-1.72126">
        <ele>7</ele>
        <time>2024-03-17T11:09:00Z</time>
      </trkpt>
      <trkpt lat="47.20859" lon="-1.72093">
        <ele>7</ele>
        <time>2024-03-17T11:09:16Z</time>
      </trkpt>
      <trkpt lat="47.20857" lon="-1.7206">
        <ele>9.92</ele>
        <time>2024-03-17T11:09:32Z</time>
      </trkpt>
      <trkpt lat="47.20858" lon="-1.72028">
        <ele>10</ele>
        <time>2024-03-17T11:09:48Z</time>
      </trkpt>
      <trkpt lat="47.20873" lon="-1.72005">
        <ele>10</ele>
        <time>2024-03-17T11:10:04Z</time>
      </trkpt>
      <trkpt lat="47.20891" lon="-1.71989">
        <ele>10.97</ele>
        <time>2024-03-17T11:10:24Z</time>
      </trkpt>
    </trkseg>
  </trk>
</gpx>